Wetterdaten: Montag, 19.11.2018
Datum Zeit Temp. A. Pool Temp. Temp. 5cm Feuchte A. Luftdruck Regen Wind Richtung Richtung Sonnenschein ET UV Solar Taupunkt Windchill Windben Empfang
19.11.2018 00:00 0,1 C 5,0 C 0,0 C 95 % 1017,9 hPa 0,0 l/m 2,8 km/h (1 Bft) NO 51 0 min 0,000 mm 0,0 UV-I 0 W/m -0,6 C 0,1 C 3,2 km/h (1 Bft) 94,44 %
19.11.2018 00:02 0,1 C 5,0 C 0,0 C 95 % 1017,9 hPa 0,0 l/m 2,4 km/h (1 Bft) NO 51 0 min 0,000 mm 0,0 UV-I 0 W/m -0,6 C 0,1 C 3,2 km/h (1 Bft) 88,89 %
19.11.2018 00:04 0,0 C 5,0 C 0,0 C 95 % 1017,8 hPa 0,0 l/m 3,0 km/h (1 Bft) NO 54 0 min 0,000 mm 0,0 UV-I 0 W/m -0,7 C 0,0 C 4,8 km/h (1 Bft) 95,74 %
19.11.2018 00:06 0,0 C 5,0 C 0,0 C 95 % 1017,8 hPa 0,0 l/m 3,3 km/h (1 Bft) O-NO 65 0 min 0,000 mm 0,0 UV-I 0 W/m -0,7 C 0,0 C 4,8 km/h (1 Bft) 95,74 %
19.11.2018 00:08 0,0 C 5,0 C 0,0 C 95 % 1017,8 hPa 0,0 l/m 3,6 km/h (1 Bft) NO 47 0 min 0,000 mm 0,0 UV-I 0 W/m -0,7 C 0,0 C 4,8 km/h (1 Bft) 98,00 %
19.11.2018 00:10 0,0 C 5,0 C 0,0 C 95 % 1017,8 hPa 0,2 l/m 3,4 km/h (1 Bft) NO 44 0 min 0,000 mm 0,0 UV-I 0 W/m -0,7 C 0,0 C 4,8 km/h (1 Bft) 92,00 %
19.11.2018 00:12 0,0 C 5,0 C 0,0 C 95 % 1017,8 hPa 0,0 l/m 3,3 km/h (1 Bft) NO 50 0 min 0,000 mm 0,0 UV-I 0 W/m -0,7 C 0,0 C 4,8 km/h (1 Bft) 97,87 %
19.11.2018 00:14 0,0 C 5,0 C 0,0 C 95 % 1017,8 hPa 0,0 l/m 3,5 km/h (1 Bft) O-NO 73 0 min 0,000 mm 0,0 UV-I 0 W/m -0,7 C 0,0 C 4,8 km/h (1 Bft) 96,00 %
19.11.2018 00:16 0,1 C 5,0 C 0,0 C 95 % 1017,8 hPa 0,0 l/m 2,3 km/h (1 Bft) O-NO 71 0 min 0,000 mm 0,0 UV-I 0 W/m -0,6 C 0,1 C 4,8 km/h (1 Bft) 100,00 %
19.11.2018 00:18 0,1 C 5,0 C 0,0 C 95 % 1017,7 hPa 0,0 l/m 3,4 km/h (1 Bft) O-NO 69 0 min 0,000 mm 0,0 UV-I 0 W/m -0,6 C 0,1 C 4,8 km/h (1 Bft) 97,87 %
19.11.2018 00:20 0,1 C 5,0 C 0,0 C 95 % 1017,7 hPa 0,0 l/m 3,3 km/h (1 Bft) O 93 0 min 0,000 mm 0,0 UV-I 0 W/m -0,6 C 0,1 C 4,8 km/h (1 Bft) 100,00 %
19.11.2018 00:22 0,1 C 5,0 C 0,0 C 95 % 1017,7 hPa 0,0 l/m 3,3 km/h (1 Bft) O 89 0 min 0,000 mm 0,0 UV-I 0 W/m -0,6 C 0,1 C 6,4 km/h (2 Bft) 100,00 %
19.11.2018 00:24 0,1 C 5,0 C 0,0 C 95 % 1017,7 hPa 0,0 l/m 4,6 km/h (1 Bft) O-NO 78 0 min 0,000 mm 0,0 UV-I 0 W/m -0,6 C 0,1 C 6,4 km/h (2 Bft) 100,00 %
19.11.2018 00:26 0,1 C 5,0 C 0,0 C 95 % 1017,7 hPa 0,0 l/m 4,3 km/h (1 Bft) O 79 0 min 0,000 mm 0,0 UV-I 0 W/m -0,6 C 0,1 C 6,4 km/h (2 Bft) 94,44 %
19.11.2018 00:28 0,1 C 5,0 C 0,0 C 95 % 1017,6 hPa 0,0 l/m 4,4 km/h (1 Bft) O 79 0 min 0,000 mm 0,0 UV-I 0 W/m -0,6 C 0,1 C 8,0 km/h (2 Bft) 100,00 %
19.11.2018 00:30 0,1 C 5,0 C 0,0 C 95 % 1017,6 hPa 0,0 l/m 4,6 km/h (1 Bft) O-NO 66 0 min 0,000 mm 0,0 UV-I 0 W/m -0,6 C 0,1 C 6,4 km/h (2 Bft) 98,00 %
19.11.2018 00:32 0,0 C 5,0 C 0,0 C 95 % 1017,5 hPa 0,0 l/m 5,2 km/h (1 Bft) O-NO 71 0 min 0,000 mm 0,0 UV-I 0 W/m -0,7 C 0,0 C 9,7 km/h (2 Bft) 97,87 %
19.11.2018 00:34 0,1 C 5,0 C 0,0 C 95 % 1017,5 hPa 0,0 l/m 4,8 km/h (1 Bft) O-NO 61 0 min 0,000 mm 0,0 UV-I 0 W/m -0,6 C 0,1 C 9,7 km/h (2 Bft) 95,74 %
19.11.2018 00:36 0,1 C 5,0 C 0,0 C 95 % 1017,5 hPa 0,0 l/m 4,6 km/h (1 Bft) O 94 0 min 0,000 mm 0,0 UV-I 0 W/m -0,6 C 0,1 C 6,4 km/h (2 Bft) 95,74 %
19.11.2018 00:38 0,0 C 5,0 C 0,0 C 95 % 1017,4 hPa 0,0 l/m 5,1 km/h (1 Bft) O-NO 67 0 min 0,000 mm 0,0 UV-I 0 W/m -0,7 C 0,0 C 8,0 km/h (2 Bft) 91,49 %
19.11.2018 00:40 0,0 C 5,0 C 0,0 C 95 % 1017,4 hPa 0,0 l/m 4,3 km/h (1 Bft) O-NO 77 0 min 0,000 mm 0,0 UV-I 0 W/m -0,7 C 0,0 C 6,4 km/h (2 Bft) 96,00 %
19.11.2018 00:42 0,0 C 5,0 C 0,0 C 95 % 1017,4 hPa 0,0 l/m 3,9 km/h (1 Bft) NO 42 0 min 0,000 mm 0,0 UV-I 0 W/m -0,7 C 0,0 C 6,4 km/h (2 Bft) 93,75 %
19.11.2018 00:44 0,0 C 5,0 C 0,0 C 95 % 1017,4 hPa 0,0 l/m 5,0 km/h (1 Bft) NO 45 0 min 0,000 mm 0,0 UV-I 0 W/m -0,7 C 0,0 C 6,4 km/h (2 Bft) 97,87 %
19.11.2018 00:46 0,0 C 5,0 C 0,0 C 95 % 1017,4 hPa 0,0 l/m 5,7 km/h (1 Bft) O-NO 60 0 min 0,000 mm 0,0 UV-I 0 W/m -0,7 C 0,0 C 8,0 km/h (2 Bft) 100,00 %
19.11.2018 00:48 0,1 C 4,4 C 0,0 C 95 % 1017,3 hPa 0,0 l/m 5,5 km/h (1 Bft) NO 55 0 min 0,000 mm 0,0 UV-I 0 W/m -0,6 C 0,1 C 8,0 km/h (2 Bft) 95,71 %
19.11.2018 00:50 0,1 C 4,4 C 0,0 C 95 % 1017,3 hPa 0,0 l/m 6,1 km/h (2 Bft) O-NO 60 0 min 0,000 mm 0,0 UV-I 0 W/m -0,6 C 0,1 C 8,0 km/h (2 Bft) 97,87 %
19.11.2018 00:52 0,0 C 5,0 C 0,0 C 95 % 1017,2 hPa 0,0 l/m 5,8 km/h (2 Bft) O-NO 65 0 min 0,000 mm 0,0 UV-I 0 W/m -0,7 C 0,0 C 8,0 km/h (2 Bft) 100,00 %
19.11.2018 00:54 0,0 C 5,0 C 0,0 C 95 % 1017,2 hPa 0,0 l/m 5,2 km/h (1 Bft) NO 34 0 min 0,000 mm 0,0 UV-I 0 W/m -0,7 C 0,0 C 8,0 km/h (2 Bft) 100,00 %
19.11.2018 00:56 0,0 C 5,0 C 0,0 C 95 % 1017,2 hPa 0,0 l/m 5,5 km/h (1 Bft) NO 42 0 min 0,000 mm 0,0 UV-I 0 W/m -0,7 C 0,0 C 6,4 km/h (2 Bft) 100,00 %
19.11.2018 00:58 0,0 C 5,0 C 0,0 C 95 % 1017,2 hPa 0,0 l/m 4,9 km/h (1 Bft) NO 50 0 min 0,000 mm 0,0 UV-I 0 W/m -0,7 C 0,0 C 6,4 km/h (2 Bft) 100,00 %
19.11.2018 01:00 0,0 C 5,0 C 0,0 C 95 % 1017,2 hPa 0,0 l/m 5,8 km/h (2 Bft) NO 53 0 min 0,000 mm 0,0 UV-I 0 W/m -0,7 C 0,0 C 8,0 km/h (2 Bft) 100,00 %
19.11.2018 01:02 0,0 C 5,0 C 0,0 C 95 % 1017,2 hPa 0,0 l/m 6,3 km/h (2 Bft) NO 35 0 min 0,000 mm 0,0 UV-I 0 W/m -0,7 C 0,0 C 9,7 km/h (2 Bft) 95,83 %
19.11.2018 01:04 0,0 C 5,0 C 0,0 C 95 % 1017,1 hPa 0,0 l/m 4,9 km/h (1 Bft) NO 51 0 min 0,000 mm 0,0 UV-I 0 W/m -0,7 C 0,0 C 8,0 km/h (2 Bft) 100,00 %
19.11.2018 01:06 0,0 C 5,0 C 0,0 C 96 % 1017,2 hPa 0,0 l/m 5,0 km/h (1 Bft) O-NO 67 0 min 0,000 mm 0,0 UV-I 0 W/m -0,6 C 0,0 C 6,4 km/h (2 Bft) 100,00 %
19.11.2018 01:08 0,0 C 5,0 C 0,0 C 96 % 1017,1 hPa 0,0 l/m 5,2 km/h (1 Bft) NO 45 0 min 0,000 mm 0,0 UV-I 0 W/m -0,6 C 0,0 C 8,0 km/h (2 Bft) 100,00 %
19.11.2018 01:10 0,0 C 5,0 C 0,0 C 96 % 1017,0 hPa 0,0 l/m 4,9 km/h (1 Bft) N-NO 31 0 min 0,000 mm 0,0 UV-I 0 W/m -0,6 C 0,0 C 8,0 km/h (2 Bft) 100,00 %
19.11.2018 01:12 0,0 C 5,0 C 0,0 C 96 % 1017,1 hPa 0,0 l/m 5,8 km/h (2 Bft) O-NO 62 0 min 0,000 mm 0,0 UV-I 0 W/m -0,6 C 0,0 C 8,0 km/h (2 Bft) 100,00 %
19.11.2018 01:14 0,0 C 5,0 C 0,0 C 96 % 1017,1 hPa 0,0 l/m 5,8 km/h (2 Bft) O-NO 64 0 min 0,000 mm 0,0 UV-I 0 W/m -0,6 C 0,0 C 8,0 km/h (2 Bft) 97,87 %
19.11.2018 01:16 -0,1 C 5,0 C 0,0 C 96 % 1017,1 hPa 0,0 l/m 4,8 km/h (1 Bft) NO 54 0 min 0,000 mm 0,0 UV-I 0 W/m -0,7 C -0,1 C 6,4 km/h (2 Bft) 97,87 %
19.11.2018 01:18 0,0 C 5,0 C 0,0 C 96 % 1017,1 hPa 0,0 l/m 6,2 km/h (2 Bft) NO 56 0 min 0,000 mm 0,0 UV-I 0 W/m -0,6 C 0,0 C 9,7 km/h (2 Bft) 97,87 %
19.11.2018 01:20 0,0 C 5,0 C 0,0 C 96 % 1017,1 hPa 0,0 l/m 4,9 km/h (1 Bft) NO 49 0 min 0,000 mm 0,0 UV-I 0 W/m -0,6 C 0,0 C 6,4 km/h (2 Bft) 98,00 %
19.11.2018 01:22 -0,1 C 5,0 C 0,0 C 96 % 1017,1 hPa 0,0 l/m 6,1 km/h (2 Bft) O-NO 61 0 min 0,000 mm 0,0 UV-I 0 W/m -0,7 C -0,1 C 8,0 km/h (2 Bft) 100,00 %
19.11.2018 01:24 -0,1 C 5,0 C 0,0 C 96 % 1017,1 hPa 0,0 l/m 5,5 km/h (1 Bft) O-NO 63 0 min 0,000 mm 0,0 UV-I 0 W/m -0,7 C -0,1 C 8,0 km/h (2 Bft) 100,00 %
19.11.2018 01:26 -0,1 C 5,0 C 0,0 C 96 % 1017,1 hPa 0,0 l/m 4,5 km/h (1 Bft) O-NO 57 0 min 0,000 mm 0,0 UV-I 0 W/m -0,7 C -0,1 C 8,0 km/h (2 Bft) 100,00 %
19.11.2018 01:28 -0,1 C 5,0 C 0,0 C 96 % 1017,0 hPa 0,0 l/m 6,8 km/h (2 Bft) O-NO 74 0 min 0,000 mm 0,0 UV-I 0 W/m -0,7 C -0,5 C 11,3 km/h (2 Bft) 100,00 %
19.11.2018 01:30 -0,1 C 5,0 C 0,0 C 95 % 1017,0 hPa 0,0 l/m 5,5 km/h (1 Bft) O 80 0 min 0,000 mm 0,0 UV-I 0 W/m -0,8 C -0,1 C 11,3 km/h (2 Bft) 100,00 %
19.11.2018 01:32 -0,1 C 5,0 C 0,0 C 95 % 1017,0 hPa 0,0 l/m 5,0 km/h (1 Bft) O-NO 72 0 min 0,000 mm 0,0 UV-I 0 W/m -0,8 C -0,1 C 8,0 km/h (2 Bft) 100,00 %
19.11.2018 01:34 -0,1 C 5,0 C 0,0 C 95 % 1017,0 hPa 0,0 l/m 4,7 km/h (1 Bft) O-NO 61 0 min 0,000 mm 0,0 UV-I 0 W/m -0,8 C -0,1 C 8,0 km/h (2 Bft) 100,00 %
19.11.2018 01:36 -0,1 C 5,0 C 0,0 C 95 % 1017,0 hPa 0,2 l/m 7,5 km/h (2 Bft) O-NO 62 0 min 0,000 mm 0,0 UV-I 0 W/m -0,8 C -1,2 C 11,3 km/h (2 Bft) 97,87 %
19.11.2018 01:38 -0,1 C 5,0 C 0,0 C 95 % 1017,0 hPa 0,0 l/m 6,7 km/h (2 Bft) O-NO 78 0 min 0,000 mm 0,0 UV-I 0 W/m -0,8 C -0,4 C 11,3 km/h (2 Bft) 100,00 %
19.11.2018 01:40 -0,1 C 5,0 C 0,0 C 95 % 1017,0 hPa 0,0 l/m 8,3 km/h (2 Bft) O-NO 64 0 min 0,000 mm 0,0 UV-I 0 W/m -0,8 C -2,0 C 12,9 km/h (3 Bft) 97,87 %
19.11.2018 01:42 -0,1 C 5,0 C 0,0 C 95 % 1017,0 hPa 0,0 l/m 7,0 km/h (2 Bft) O 83 0 min 0,000 mm 0,0 UV-I 0 W/m -0,8 C -0,7 C 11,3 km/h (2 Bft) 95,74 %
19.11.2018 01:44 -0,1 C 5,0 C 0,0 C 95 % 1017,0 hPa 0,0 l/m 5,8 km/h (2 Bft) O-NO 60 0 min 0,000 mm 0,0 UV-I 0 W/m -0,8 C -0,1 C 11,3 km/h (2 Bft) 95,74 %
19.11.2018 01:46 -0,2 C 4,4 C 0,0 C 95 % 1017,0 hPa 0,0 l/m 6,8 km/h (2 Bft) O-NO 75 0 min 0,000 mm 0,0 UV-I 0 W/m -0,9 C -0,6 C 11,3 km/h (2 Bft) 95,74 %
19.11.2018 01:48 -0,2 C 4,4 C 0,0 C 95 % 1017,0 hPa 0,0 l/m 6,5 km/h (2 Bft) O-NO 71 0 min 0,000 mm 0,0 UV-I 0 W/m -0,9 C -0,3 C 8,0 km/h (2 Bft) 95,74 %
19.11.2018 01:50 -0,2 C 4,4 C 0,0 C 95 % 1017,0 hPa 0,0 l/m 6,5 km/h (2 Bft) O-NO 76 0 min 0,000 mm 0,0 UV-I 0 W/m -0,9 C -0,3 C 9,7 km/h (2 Bft) 96,23 %
19.11.2018 01:52 -0,1 C 4,4 C 0,0 C 95 % 1016,9 hPa 0,0 l/m 6,1 km/h (2 Bft) O-NO 67 0 min 0,000 mm 0,0 UV-I 0 W/m -0,8 C -0,1 C 11,3 km/h (2 Bft) 95,74 %
19.11.2018 01:54 -0,2 C 4,4 C 0,0 C 96 % 1016,9 hPa 0,0 l/m 6,4 km/h (2 Bft) O-NO 57 0 min 0,000 mm 0,0 UV-I 0 W/m -0,8 C -0,2 C 8,0 km/h (2 Bft) 95,74 %
19.11.2018 01:56 -0,2 C 5,0 C 0,0 C 96 % 1016,9 hPa 0,0 l/m 5,3 km/h (1 Bft) O-NO 68 0 min 0,000 mm 0,0 UV-I 0 W/m -0,8 C -0,2 C 8,0 km/h (2 Bft) 93,62 %
19.11.2018 01:58 -0,2 C 4,4 C 0,0 C 96 % 1017,0 hPa 0,0 l/m 4,8 km/h (1 Bft) O-NO 67 0 min 0,000 mm 0,0 UV-I 0 W/m -0,8 C -0,2 C 6,4 km/h (2 Bft) 95,74 %
19.11.2018 02:00 -0,2 C 4,4 C 0,0 C 96 % 1016,9 hPa 0,0 l/m 4,4 km/h (1 Bft) O-NO 59 0 min 0,000 mm 0,0 UV-I 0 W/m -0,8 C -0,2 C 8,0 km/h (2 Bft) 93,62 %
19.11.2018 02:02 -0,2 C 4,4 C 0,0 C 96 % 1016,9 hPa 0,0 l/m 6,1 km/h (2 Bft) O-NO 71 0 min 0,000 mm 0,0 UV-I 0 W/m -0,8 C -0,2 C 8,0 km/h (2 Bft) 97,87 %
19.11.2018 02:04 -0,2 C 4,4 C 0,0 C 96 % 1016,9 hPa 0,0 l/m 5,7 km/h (1 Bft) O-NO 72 0 min 0,000 mm 0,0 UV-I 0 W/m -0,8 C -0,2 C 9,7 km/h (2 Bft) 91,49 %
19.11.2018 02:06 -0,2 C 4,4 C 0,0 C 96 % 1016,8 hPa 0,0 l/m 5,3 km/h (1 Bft) O-NO 67 0 min 0,000 mm 0,0 UV-I 0 W/m -0,8 C -0,2 C 8,0 km/h (2 Bft) 95,83 %
19.11.2018 02:08 -0,2 C 4,4 C 0,0 C 96 % 1016,8 hPa 0,0 l/m 6,3 km/h (2 Bft) O-NO 70 0 min 0,000 mm 0,0 UV-I 0 W/m -0,8 C -0,2 C 11,3 km/h (2 Bft) 93,62 %
19.11.2018 02:10 -0,2 C 4,4 C 0,0 C 96 % 1016,8 hPa 0,0 l/m 5,8 km/h (2 Bft) O-NO 64 0 min 0,000 mm 0,0 UV-I 0 W/m -0,8 C -0,2 C 8,0 km/h (2 Bft) 95,74 %
19.11.2018 02:12 -0,2 C 4,4 C 0,0 C 96 % 1016,8 hPa 0,0 l/m 6,2 km/h (2 Bft) O-NO 71 0 min 0,000 mm 0,0 UV-I 0 W/m -0,8 C -0,2 C 8,0 km/h (2 Bft) 100,00 %
19.11.2018 02:14 -0,2 C 4,4 C 0,0 C 96 % 1016,7 hPa 0,0 l/m 6,0 km/h (2 Bft) O-NO 66 0 min 0,000 mm 0,0 UV-I 0 W/m -0,8 C -0,2 C 8,0 km/h (2 Bft) 100,00 %
19.11.2018 02:16 -0,2 C 4,4 C 0,0 C 96 % 1016,7 hPa 0,0 l/m 6,5 km/h (2 Bft) O 89 0 min 0,000 mm 0,0 UV-I 0 W/m -0,8 C -0,3 C 11,3 km/h (2 Bft) 97,87 %
19.11.2018 02:18 -0,2 C 4,4 C 0,0 C 96 % 1016,7 hPa 0,0 l/m 5,3 km/h (1 Bft) O 79 0 min 0,000 mm 0,0 UV-I 0 W/m -0,8 C -0,2 C 6,4 km/h (2 Bft) 97,87 %
19.11.2018 02:20 -0,2 C 4,4 C 0,0 C 96 % 1016,7 hPa 0,0 l/m 5,0 km/h (1 Bft) O 85 0 min 0,000 mm 0,0 UV-I 0 W/m -0,8 C -0,2 C 11,3 km/h (2 Bft) 100,00 %
19.11.2018 02:22 -0,2 C 4,4 C 0,0 C 96 % 1016,7 hPa 0,0 l/m 5,6 km/h (1 Bft) O 82 0 min 0,000 mm 0,0 UV-I 0 W/m -0,8 C -0,2 C 11,3 km/h (2 Bft) 100,00 %
19.11.2018 02:24 -0,2 C 5,0 C 0,0 C 96 % 1016,6 hPa 0,0 l/m 5,4 km/h (1 Bft) O-SO 103 0 min 0,000 mm 0,0 UV-I 0 W/m -0,8 C -0,2 C 8,0 km/h (2 Bft) 100,00 %
19.11.2018 02:26 -0,2 C 4,4 C 0,0 C 96 % 1016,6 hPa 0,0 l/m 5,9 km/h (2 Bft) O-SO 107 0 min 0,000 mm 0,0 UV-I 0 W/m -0,8 C -0,2 C 9,7 km/h (2 Bft) 100,00 %
19.11.2018 02:28 -0,2 C 4,4 C 0,0 C 96 % 1016,6 hPa 0,2 l/m 6,5 km/h (2 Bft) O 91 0 min 0,000 mm 0,0 UV-I 0 W/m -0,8 C -0,3 C 11,3 km/h (2 Bft) 97,87 %
19.11.2018 02:30 -0,3 C 4,4 C 0,0 C 96 % 1016,6 hPa 0,0 l/m 7,8 km/h (2 Bft) O 92 0 min 0,000 mm 0,0 UV-I 0 W/m -0,9 C -1,8 C 11,3 km/h (2 Bft) 98,04 %
19.11.2018 02:32 -0,3 C 4,4 C 0,0 C 96 % 1016,5 hPa 0,0 l/m 5,9 km/h (2 Bft) O-NO 78 0 min 0,000 mm 0,0 UV-I 0 W/m -0,9 C -0,3 C 9,7 km/h (2 Bft) 100,00 %
19.11.2018 02:34 -0,3 C 4,4 C 0,0 C 96 % 1016,5 hPa 0,0 l/m 5,5 km/h (1 Bft) O 93 0 min 0,000 mm 0,0 UV-I 0 W/m -0,9 C -0,3 C 9,7 km/h (2 Bft) 100,00 %
19.11.2018 02:36 -0,3 C 5,0 C 0,0 C 96 % 1016,5 hPa 0,0 l/m 7,2 km/h (2 Bft) O 98 0 min 0,000 mm 0,0 UV-I 0 W/m -0,9 C -1,1 C 11,3 km/h (2 Bft) 98,00 %
19.11.2018 02:38 -0,3 C 4,4 C 0,0 C 96 % 1016,5 hPa 0,0 l/m 7,5 km/h (2 Bft) O 80 0 min 0,000 mm 0,0 UV-I 0 W/m -0,9 C -1,5 C 12,9 km/h (3 Bft) 98,00 %
19.11.2018 02:40 -0,3 C 4,4 C 0,0 C 96 % 1016,5 hPa 0,0 l/m 6,9 km/h (2 Bft) O 91 0 min 0,000 mm 0,0 UV-I 0 W/m -0,9 C -0,8 C 11,3 km/h (2 Bft) 95,74 %
19.11.2018 02:42 -0,3 C 4,4 C 0,0 C 96 % 1016,5 hPa 0,0 l/m 5,9 km/h (2 Bft) O 97 0 min 0,000 mm 0,0 UV-I 0 W/m -0,9 C -0,3 C 9,7 km/h (2 Bft) 95,74 %
19.11.2018 02:44 -0,3 C 4,4 C 0,0 C 96 % 1016,4 hPa 0,0 l/m 5,7 km/h (1 Bft) O-NO 57 0 min 0,000 mm 0,0 UV-I 0 W/m -0,9 C -0,3 C 8,0 km/h (2 Bft) 97,87 %
19.11.2018 02:46 -0,3 C 4,4 C 0,0 C 96 % 1016,4 hPa 0,0 l/m 8,3 km/h (2 Bft) O-NO 69 0 min 0,000 mm 0,0 UV-I 0 W/m -0,9 C -2,3 C 12,9 km/h (3 Bft) 97,87 %
19.11.2018 02:48 -0,3 C 4,4 C 0,0 C 96 % 1016,4 hPa 0,0 l/m 7,5 km/h (2 Bft) O-NO 61 0 min 0,000 mm 0,0 UV-I 0 W/m -0,9 C -1,5 C 12,9 km/h (3 Bft) 95,74 %
19.11.2018 02:50 -0,3 C 4,4 C 0,0 C 96 % 1016,4 hPa 0,0 l/m 7,4 km/h (2 Bft) O-NO 76 0 min 0,000 mm 0,0 UV-I 0 W/m -0,9 C -1,4 C 12,9 km/h (3 Bft) 96,00 %
19.11.2018 02:52 -0,3 C 4,4 C 0,0 C 96 % 1016,3 hPa 0,0 l/m 8,1 km/h (2 Bft) O-NO 69 0 min 0,000 mm 0,0 UV-I 0 W/m -0,9 C -2,1 C 11,3 km/h (2 Bft) 94,59 %
19.11.2018 02:54 -0,3 C 4,4 C 0,0 C 96 % 1016,4 hPa 0,0 l/m 6,3 km/h (2 Bft) O 86 0 min 0,000 mm 0,0 UV-I 0 W/m -0,9 C -0,3 C 11,3 km/h (2 Bft) 93,62 %
19.11.2018 02:56 -0,3 C 4,4 C 0,0 C 96 % 1016,4 hPa 0,0 l/m 7,6 km/h (2 Bft) O-NO 58 0 min 0,000 mm 0,0 UV-I 0 W/m -0,9 C -1,6 C 12,9 km/h (3 Bft) 100,00 %
19.11.2018 02:58 -0,3 C 4,4 C 0,0 C 96 % 1016,4 hPa 0,2 l/m 6,6 km/h (2 Bft) N-NO 23 0 min 0,000 mm 0,0 UV-I 0 W/m -0,9 C -0,5 C 9,7 km/h (2 Bft) 97,87 %
19.11.2018 03:00 -0,3 C 4,4 C 0,0 C 96 % 1016,3 hPa 0,0 l/m 5,6 km/h (1 Bft) O-NO 60 0 min 0,000 mm 0,0 UV-I 0 W/m -0,9 C -0,3 C 12,9 km/h (3 Bft) 91,49 %
19.11.2018 03:02 -0,3 C 4,4 C 0,0 C 96 % 1016,3 hPa 0,0 l/m 6,4 km/h (2 Bft) O-NO 61 0 min 0,000 mm 0,0 UV-I 0 W/m -0,9 C -0,3 C 11,3 km/h (2 Bft) 94,00 %
19.11.2018 03:05 -0,3 C 4,4 C 0,0 C 96 % 1016,3 hPa 0,0 l/m 12,7 km/h (3 Bft) NO 44 0 min 0,000 mm 0,0 UV-I 0 W/m -0,9 C -5,8 C 19,3 km/h (3 Bft) 97,18 %
19.11.2018 03:06 -0,3 C 4,4 C 0,0 C 96 % 1016,3 hPa 0,0 l/m 14,9 km/h (3 Bft) O-NO 66 0 min 0,000 mm 0,0 UV-I 0 W/m -0,9 C -7,3 C 20,9 km/h (4 Bft) 91,67 %
19.11.2018 03:08 -0,4 C 4,4 C -0,6 C 96 % 1016,3 hPa 0,0 l/m 14,9 km/h (3 Bft) O-NO 67 0 min 0,000 mm 0,0 UV-I 0 W/m -1,0 C -7,4 C 20,9 km/h (4 Bft) 95,92 %
19.11.2018 03:10 -0,4 C 4,4 C -0,6 C 96 % 1016,2 hPa 0,0 l/m 12,2 km/h (2 Bft) O 92 0 min 0,000 mm 0,0 UV-I 0 W/m -1,0 C -5,6 C 16,1 km/h (3 Bft) 89,36 %
19.11.2018 03:12 -0,5 C 4,4 C -0,6 C 96 % 1016,2 hPa 0,0 l/m 12,3 km/h (3 Bft) O-NO 74 0 min 0,000 mm 0,0 UV-I 0 W/m -1,1 C -5,8 C 17,7 km/h (3 Bft) 95,83 %
19.11.2018 03:14 -0,6 C 4,4 C -0,6 C 95 % 1016,2 hPa 0,0 l/m 11,9 km/h (2 Bft) NO 42 0 min 0,000 mm 0,0 UV-I 0 W/m -1,3 C -5,6 C 16,1 km/h (3 Bft) 95,74 %
19.11.2018 03:16 -0,6 C 4,4 C -0,6 C 95 % 1016,2 hPa 0,0 l/m 14,3 km/h (3 Bft) O-NO 59 0 min 0,000 mm 0,0 UV-I 0 W/m -1,3 C -7,3 C 17,7 km/h (3 Bft) 94,29 %
19.11.2018 03:18 -0,6 C 4,4 C -0,6 C 95 % 1016,2 hPa 0,0 l/m 12,9 km/h (3 Bft) O-NO 63 0 min 0,000 mm 0,0 UV-I 0 W/m -1,3 C -6,3 C 19,3 km/h (3 Bft) 96,43 %
19.11.2018 03:20 -0,6 C 4,4 C -0,6 C 95 % 1016,2 hPa 0,0 l/m 11,7 km/h (2 Bft) O 80 0 min 0,000 mm 0,0 UV-I 0 W/m -1,3 C -5,5 C 19,3 km/h (3 Bft) 93,62 %
19.11.2018 03:22 -0,6 C 4,4 C -0,6 C 95 % 1016,2 hPa 0,0 l/m 12,2 km/h (2 Bft) O-NO 71 0 min 0,000 mm 0,0 UV-I 0 W/m -1,3 C -5,8 C 17,7 km/h (3 Bft) 95,74 %
19.11.2018 03:24 -0,7 C 4,4 C -0,6 C 95 % 1016,1 hPa 0,0 l/m 9,0 km/h (2 Bft) O 80 0 min 0,000 mm 0,0 UV-I 0 W/m -1,4 C -3,3 C 14,5 km/h (3 Bft) 95,74 %
19.11.2018 03:26 -0,7 C 4,4 C -0,6 C 95 % 1016,1 hPa 0,0 l/m 10,3 km/h (2 Bft) O 90 0 min 0,000 mm 0,0 UV-I 0 W/m -1,4 C -4,5 C 16,1 km/h (3 Bft) 97,87 %
19.11.2018 03:28 -0,7 C 4,4 C -0,6 C 95 % 1016,0 hPa 0,0 l/m 10,8 km/h (2 Bft) NO 53 0 min 0,000 mm 0,0 UV-I 0 W/m -1,4 C -4,9 C 17,7 km/h (3 Bft) 97,87 %
19.11.2018 03:30 -0,7 C 4,4 C -0,6 C 95 % 1016,0 hPa 0,0 l/m 8,2 km/h (2 Bft) O-NO 72 0 min 0,000 mm 0,0 UV-I 0 W/m -1,4 C -2,6 C 12,9 km/h (3 Bft) 95,74 %
19.11.2018 03:32 -0,7 C 4,4 C -0,6 C 95 % 1016,0 hPa 0,0 l/m 12,1 km/h (2 Bft) O-NO 67 0 min 0,000 mm 0,0 UV-I 0 W/m -1,4 C -5,9 C 20,9 km/h (4 Bft) 97,87 %
19.11.2018 03:34 -0,7 C 4,4 C -0,6 C 95 % 1016,0 hPa 0,0 l/m 12,1 km/h (2 Bft) NO 46 0 min 0,000 mm 0,0 UV-I 0 W/m -1,4 C -5,9 C 17,7 km/h (3 Bft) 94,74 %
19.11.2018 03:36 -0,8 C 4,4 C -0,6 C 95 % 1016,0 hPa 0,0 l/m 13,8 km/h (3 Bft) O-NO 74 0 min 0,000 mm 0,0 UV-I 0 W/m -1,5 C -7,2 C 20,9 km/h (4 Bft) 96,23 %
19.11.2018 03:38 -0,8 C 4,4 C -0,6 C 95 % 1016,0 hPa 0,0 l/m 13,5 km/h (3 Bft) O-NO 59 0 min 0,000 mm 0,0 UV-I 0 W/m -1,5 C -7,0 C 20,9 km/h (4 Bft) 96,00 %
19.11.2018 03:40 -0,8 C 4,4 C -0,6 C 95 % 1015,9 hPa 0,0 l/m 16,9 km/h (3 Bft) NO 50 0 min 0,000 mm 0,0 UV-I 0 W/m -1,5 C -9,1 C 22,5 km/h (4 Bft) 93,62 %
19.11.2018 03:42 -0,8 C 4,4 C -1,1 C 95 % 1015,9 hPa 0,0 l/m 10,9 km/h (2 Bft) NO 50 0 min 0,000 mm 0,0 UV-I 0 W/m -1,5 C -5,1 C 16,1 km/h (3 Bft) 95,83 %
19.11.2018 03:44 -0,8 C 4,4 C -1,1 C 95 % 1015,9 hPa 0,0 l/m 11,3 km/h (2 Bft) O-NO 61 0 min 0,000 mm 0,0 UV-I 0 W/m -1,5 C -5,4 C 16,1 km/h (3 Bft) 95,74 %
19.11.2018 03:46 -0,8 C 4,4 C -1,1 C 95 % 1015,9 hPa 0,0 l/m 11,3 km/h (2 Bft) NO 55 0 min 0,000 mm 0,0 UV-I 0 W/m -1,5 C -5,4 C 16,1 km/h (3 Bft) 95,74 %
19.11.2018 03:48 -0,8 C 4,4 C -1,1 C 95 % 1015,9 hPa 0,0 l/m 9,7 km/h (2 Bft) NO 44 0 min 0,000 mm 0,0 UV-I 0 W/m -1,5 C -4,1 C 14,5 km/h (3 Bft) 94,74 %
19.11.2018 03:50 -0,8 C 4,4 C -1,1 C 95 % 1015,9 hPa 0,0 l/m 12,1 km/h (2 Bft) O-NO 59 0 min 0,000 mm 0,0 UV-I 0 W/m -1,5 C -6,0 C 19,3 km/h (3 Bft) 95,74 %
19.11.2018 03:52 -0,8 C 4,4 C -1,1 C 95 % 1015,8 hPa 0,0 l/m 10,6 km/h (2 Bft) NO 53 0 min 0,000 mm 0,0 UV-I 0 W/m -1,5 C -4,8 C 16,1 km/h (3 Bft) 96,00 %
19.11.2018 03:54 -0,8 C 4,4 C -1,1 C 95 % 1015,8 hPa 0,0 l/m 10,5 km/h (2 Bft) NO 46 0 min 0,000 mm 0,0 UV-I 0 W/m -1,5 C -4,8 C 16,1 km/h (3 Bft) 95,74 %
19.11.2018 03:56 -0,8 C 4,4 C -1,1 C 95 % 1015,8 hPa 0,0 l/m 9,3 km/h (2 Bft) O 90 0 min 0,000 mm 0,0 UV-I 0 W/m -1,5 C -3,7 C 11,3 km/h (2 Bft) 97,87 %
19.11.2018 03:58 -0,8 C 4,4 C -1,1 C 95 % 1015,8 hPa 0,0 l/m 9,7 km/h (2 Bft) NO 39 0 min 0,000 mm 0,0 UV-I 0 W/m -1,5 C -4,1 C 17,7 km/h (3 Bft) 97,87 %
19.11.2018 04:00 -0,8 C 4,4 C -1,1 C 95 % 1015,8 hPa 0,0 l/m 11,8 km/h (2 Bft) O-NO 59 0 min 0,000 mm 0,0 UV-I 0 W/m -1,5 C -5,8 C 16,1 km/h (3 Bft) 95,74 %
19.11.2018 04:02 -0,8 C 4,4 C -1,1 C 95 % 1015,8 hPa 0,0 l/m 8,7 km/h (2 Bft) NO 34 0 min 0,000 mm 0,0 UV-I 0 W/m -1,5 C -3,2 C 14,5 km/h (3 Bft) 100,00 %
19.11.2018 04:04 -0,8 C 4,4 C -1,1 C 95 % 1015,8 hPa 0,0 l/m 10,2 km/h (2 Bft) O-NO 64 0 min 0,000 mm 0,0 UV-I 0 W/m -1,5 C -4,5 C 14,5 km/h (3 Bft) 95,74 %
19.11.2018 04:06 -0,8 C 4,4 C -1,1 C 95 % 1015,8 hPa 0,0 l/m 10,0 km/h (2 Bft) NO 40 0 min 0,000 mm 0,0 UV-I 0 W/m -1,5 C -4,3 C 14,5 km/h (3 Bft) 95,74 %
19.11.2018 04:08 -0,8 C 4,4 C -1,1 C 95 % 1015,8 hPa 0,0 l/m 8,8 km/h (2 Bft) N-NO 29 0 min 0,000 mm 0,0 UV-I 0 W/m -1,5 C -3,3 C 11,3 km/h (2 Bft) 100,00 %
19.11.2018 04:11 -0,8 C 4,4 C -1,1 C 95 % 1015,7 hPa 0,2 l/m 7,6 km/h (2 Bft) NO 50 0 min 0,000 mm 0,0 UV-I 0 W/m -1,5 C -2,1 C 11,3 km/h (2 Bft) 98,59 %
19.11.2018 04:12 -0,8 C 4,4 C -1,1 C 95 % 1015,7 hPa 0,0 l/m 7,6 km/h (2 Bft) N-NO 19 0 min 0,000 mm 0,0 UV-I 0 W/m -1,5 C -2,1 C 9,7 km/h (2 Bft) 100,00 %
19.11.2018 04:14 -0,8 C 4,4 C -1,1 C 95 % 1015,7 hPa 0,0 l/m 10,0 km/h (2 Bft) NO 46 0 min 0,000 mm 0,0 UV-I 0 W/m -1,5 C -4,3 C 14,5 km/h (3 Bft) 97,87 %
19.11.2018 04:16 -0,8 C 4,4 C -1,1 C 95 % 1015,7 hPa 0,0 l/m 10,0 km/h (2 Bft) N-NO 28 0 min 0,000 mm 0,0 UV-I 0 W/m -1,5 C -4,3 C 14,5 km/h (3 Bft) 97,37 %
19.11.2018 04:18 -0,8 C 4,4 C -1,1 C 95 % 1015,7 hPa 0,0 l/m 9,9 km/h (2 Bft) NO 43 0 min 0,000 mm 0,0 UV-I 0 W/m -1,5 C -4,2 C 14,5 km/h (3 Bft) 97,87 %
19.11.2018 04:20 -0,9 C 4,4 C -1,1 C 95 % 1015,7 hPa 0,0 l/m 8,8 km/h (2 Bft) NO 41 0 min 0,000 mm 0,0 UV-I 0 W/m -1,6 C -3,4 C 12,9 km/h (3 Bft) 93,62 %
19.11.2018 04:22 -0,9 C 4,4 C -1,1 C 95 % 1015,6 hPa 0,0 l/m 10,7 km/h (2 Bft) NO 49 0 min 0,000 mm 0,0 UV-I 0 W/m -1,6 C -5,0 C 14,5 km/h (3 Bft) 95,74 %
19.11.2018 04:24 -0,9 C 4,4 C -1,1 C 95 % 1015,6 hPa 0,0 l/m 8,8 km/h (2 Bft) NO 36 0 min 0,000 mm 0,0 UV-I 0 W/m -1,6 C -3,4 C 14,5 km/h (3 Bft) 96,00 %
19.11.2018 04:26 -0,9 C 4,4 C -1,1 C 95 % 1015,6 hPa 0,0 l/m 10,0 km/h (2 Bft) O-NO 76 0 min 0,000 mm 0,0 UV-I 0 W/m -1,6 C -4,4 C 16,1 km/h (3 Bft) 93,62 %
19.11.2018 04:28 -0,9 C 4,4 C -1,1 C 95 % 1015,6 hPa 0,0 l/m 9,6 km/h (2 Bft) NO 38 0 min 0,000 mm 0,0 UV-I 0 W/m -1,6 C -4,1 C 14,5 km/h (3 Bft) 97,87 %
19.11.2018 04:30 -0,9 C 4,4 C -1,1 C 95 % 1015,6 hPa 0,0 l/m 8,2 km/h (2 Bft) O-NO 67 0 min 0,000 mm 0,0 UV-I 0 W/m -1,6 C -2,8 C 11,3 km/h (2 Bft) 96,00 %
19.11.2018 04:32 -0,9 C 4,4 C -1,1 C 95 % 1015,6 hPa 0,0 l/m 9,4 km/h (2 Bft) NO 55 0 min 0,000 mm 0,0 UV-I 0 W/m -1,6 C -3,9 C 16,1 km/h (3 Bft) 100,00 %
19.11.2018 04:34 -1,0 C 4,4 C -1,1 C 95 % 1015,5 hPa 0,0 l/m 9,5 km/h (2 Bft) O-NO 67 0 min 0,000 mm 0,0 UV-I 0 W/m -1,7 C -4,1 C 16,1 km/h (3 Bft) 100,00 %
19.11.2018 04:36 -0,9 C 4,4 C -1,1 C 95 % 1015,5 hPa 0,0 l/m 9,3 km/h (2 Bft) NO 36 0 min 0,000 mm 0,0 UV-I 0 W/m -1,6 C -3,8 C 14,5 km/h (3 Bft) 97,87 %
19.11.2018 04:38 -0,9 C 4,4 C -1,1 C 95 % 1015,5 hPa 0,0 l/m 7,1 km/h (2 Bft) NO 54 0 min 0,000 mm 0,0 UV-I 0 W/m -1,6 C -1,6 C 8,0 km/h (2 Bft) 100,00 %
19.11.2018 04:40 -0,9 C 4,4 C -1,1 C 95 % 1015,5 hPa 0,0 l/m 7,4 km/h (2 Bft) NO 40 0 min 0,000 mm 0,0 UV-I 0 W/m -1,6 C -2,0 C 9,7 km/h (2 Bft) 100,00 %
19.11.2018 04:42 -0,9 C 4,4 C -1,1 C 95 % 1015,5 hPa 0,0 l/m 6,2 km/h (2 Bft) NO 42 0 min 0,000 mm 0,0 UV-I 0 W/m -1,6 C -0,9 C 9,7 km/h (2 Bft) 97,96 %
19.11.2018 04:44 -0,9 C 4,4 C -1,1 C 95 % 1015,5 hPa 0,0 l/m 8,1 km/h (2 Bft) N-NO 16 0 min 0,000 mm 0,0 UV-I 0 W/m -1,6 C -2,7 C 11,3 km/h (2 Bft) 100,00 %
19.11.2018 04:46 -1,0 C 4,4 C -1,1 C 95 % 1015,5 hPa 0,0 l/m 7,1 km/h (2 Bft) NO 49 0 min 0,000 mm 0,0 UV-I 0 W/m -1,7 C -1,7 C 11,3 km/h (2 Bft) 100,00 %
19.11.2018 04:48 -1,0 C 4,4 C -1,1 C 95 % 1015,4 hPa 0,0 l/m 7,4 km/h (2 Bft) NO 55 0 min 0,000 mm 0,0 UV-I 0 W/m -1,7 C -2,1 C 12,9 km/h (3 Bft) 97,87 %
19.11.2018 04:50 -1,0 C 4,4 C -1,1 C 95 % 1015,5 hPa 0,0 l/m 6,6 km/h (2 Bft) O 97 0 min 0,000 mm 0,0 UV-I 0 W/m -1,7 C -1,2 C 8,0 km/h (2 Bft) 100,00 %
19.11.2018 04:52 -1,1 C 4,4 C -1,1 C 95 % 1015,4 hPa 0,0 l/m 7,5 km/h (2 Bft) O-NO 59 0 min 0,000 mm 0,0 UV-I 0 W/m -1,8 C -2,3 C 9,7 km/h (2 Bft) 100,00 %
19.11.2018 04:54 -1,1 C 4,4 C -1,1 C 95 % 1015,4 hPa 0,0 l/m 7,5 km/h (2 Bft) O-NO 62 0 min 0,000 mm 0,0 UV-I 0 W/m -1,8 C -2,3 C 12,9 km/h (3 Bft) 97,87 %
19.11.2018 04:56 -1,1 C 4,4 C -1,1 C 95 % 1015,4 hPa 0,0 l/m 8,6 km/h (2 Bft) NO 56 0 min 0,000 mm 0,0 UV-I 0 W/m -1,8 C -3,4 C 14,5 km/h (3 Bft) 97,87 %
19.11.2018 04:58 -1,1 C 4,4 C -1,1 C 95 % 1015,4 hPa 0,0 l/m 8,5 km/h (2 Bft) O-NO 70 0 min 0,000 mm 0,0 UV-I 0 W/m -1,8 C -3,3 C 11,3 km/h (2 Bft) 97,87 %
19.11.2018 05:00 -1,1 C 4,4 C -1,1 C 95 % 1015,4 hPa 0,0 l/m 8,7 km/h (2 Bft) O-NO 74 0 min 0,000 mm 0,0 UV-I 0 W/m -1,8 C -3,5 C 14,5 km/h (3 Bft) 100,00 %
19.11.2018 05:02 -1,1 C 4,4 C -1,1 C 95 % 1015,3 hPa 0,0 l/m 10,7 km/h (2 Bft) O-NO 70 0 min 0,000 mm 0,0 UV-I 0 W/m -1,8 C -5,3 C 14,5 km/h (3 Bft) 100,00 %
19.11.2018 05:04 -1,1 C 4,4 C -1,1 C 95 % 1015,3 hPa 0,0 l/m 8,5 km/h (2 Bft) O-NO 57 0 min 0,000 mm 0,0 UV-I 0 W/m -1,8 C -3,3 C 14,5 km/h (3 Bft) 100,00 %
19.11.2018 05:06 -1,1 C 4,4 C -1,1 C 95 % 1015,3 hPa 0,0 l/m 6,7 km/h (2 Bft) O-NO 57 0 min 0,000 mm 0,0 UV-I 0 W/m -1,8 C -1,4 C 11,3 km/h (2 Bft) 97,87 %
19.11.2018 05:08 -1,1 C 4,4 C -1,1 C 95 % 1015,3 hPa 0,0 l/m 7,3 km/h (2 Bft) NO 49 0 min 0,000 mm 0,0 UV-I 0 W/m -1,8 C -2,1 C 12,9 km/h (3 Bft) 100,00 %
19.11.2018 05:10 -1,1 C 4,4 C -1,1 C 95 % 1015,3 hPa 0,0 l/m 6,7 km/h (2 Bft) O-NO 74 0 min 0,000 mm 0,0 UV-I 0 W/m -1,8 C -1,4 C 11,3 km/h (2 Bft) 100,00 %
19.11.2018 05:12 -1,1 C 4,4 C -1,1 C 95 % 1015,3 hPa 0,0 l/m 6,8 km/h (2 Bft) O-NO 68 0 min 0,000 mm 0,0 UV-I 0 W/m -1,8 C -1,5 C 11,3 km/h (2 Bft) 100,00 %
19.11.2018 05:14 -1,1 C 4,4 C -1,1 C 95 % 1015,2 hPa 0,0 l/m 6,5 km/h (2 Bft) O 82 0 min 0,000 mm 0,0 UV-I 0 W/m -1,8 C -1,2 C 9,7 km/h (2 Bft) 100,00 %
19.11.2018 05:16 -1,1 C 4,4 C -1,1 C 95 % 1015,2 hPa 0,0 l/m 10,5 km/h (2 Bft) NO 55 0 min 0,000 mm 0,0 UV-I 0 W/m -1,8 C -5,1 C 16,1 km/h (3 Bft) 100,00 %
19.11.2018 05:18 -1,1 C 4,4 C -1,1 C 95 % 1015,2 hPa 0,0 l/m 10,0 km/h (2 Bft) O 88 0 min 0,000 mm 0,0 UV-I 0 W/m -1,8 C -4,7 C 14,5 km/h (3 Bft) 100,00 %
19.11.2018 05:20 -1,1 C 4,4 C -1,1 C 95 % 1015,1 hPa 0,0 l/m 8,7 km/h (2 Bft) O-NO 60 0 min 0,000 mm 0,0 UV-I 0 W/m -1,8 C -3,5 C 14,5 km/h (3 Bft) 98,00 %
19.11.2018 05:22 -1,1 C 4,4 C -1,1 C 95 % 1015,1 hPa 0,0 l/m 9,3 km/h (2 Bft) O-NO 69 0 min 0,000 mm 0,0 UV-I 0 W/m -1,8 C -4,0 C 14,5 km/h (3 Bft) 95,74 %
19.11.2018 05:24 -1,1 C 4,4 C -1,1 C 95 % 1015,0 hPa 0,0 l/m 10,7 km/h (2 Bft) O-NO 66 0 min 0,000 mm 0,0 UV-I 0 W/m -1,8 C -5,3 C 12,9 km/h (3 Bft) 97,87 %
19.11.2018 05:26 -1,1 C 4,4 C -1,1 C 95 % 1015,0 hPa 0,0 l/m 8,2 km/h (2 Bft) O-NO 63 0 min 0,000 mm 0,0 UV-I 0 W/m -1,8 C -3,0 C 12,9 km/h (3 Bft) 93,62 %
19.11.2018 05:28 -1,1 C 4,4 C -1,1 C 95 % 1015,0 hPa 0,0 l/m 8,7 km/h (2 Bft) O-NO 58 0 min 0,000 mm 0,0 UV-I 0 W/m -1,8 C -3,5 C 14,5 km/h (3 Bft) 95,74 %
19.11.2018 05:30 -1,1 C 4,4 C -1,1 C 95 % 1015,0 hPa 0,0 l/m 8,1 km/h (2 Bft) O-NO 57 0 min 0,000 mm 0,0 UV-I 0 W/m -1,8 C -2,9 C 12,9 km/h (3 Bft) 95,74 %
19.11.2018 05:32 -1,1 C 4,4 C -1,1 C 95 % 1015,0 hPa 0,0 l/m 7,5 km/h (2 Bft) O-NO 76 0 min 0,000 mm 0,0 UV-I 0 W/m -1,8 C -2,3 C 12,9 km/h (3 Bft) 92,00 %
19.11.2018 05:34 -1,1 C 4,4 C -1,1 C 95 % 1015,0 hPa 0,0 l/m 6,1 km/h (2 Bft) O-NO 68 0 min 0,000 mm 0,0 UV-I 0 W/m -1,8 C -1,1 C 8,0 km/h (2 Bft) 95,74 %
19.11.2018 05:36 -1,1 C 4,4 C -1,1 C 95 % 1015,0 hPa 0,0 l/m 7,6 km/h (2 Bft) O-NO 69 0 min 0,000 mm 0,0 UV-I 0 W/m -1,8 C -2,4 C 11,3 km/h (2 Bft) 95,74 %
19.11.2018 05:38 -1,1 C 4,4 C -1,1 C 95 % 1015,0 hPa 0,0 l/m 5,7 km/h (1 Bft) O-NO 62 0 min 0,000 mm 0,0 UV-I 0 W/m -1,8 C -1,1 C 9,7 km/h (2 Bft) 93,62 %
19.11.2018 05:40 -1,1 C 4,4 C -1,1 C 95 % 1015,0 hPa 0,0 l/m 7,2 km/h (2 Bft) O-NO 67 0 min 0,000 mm 0,0 UV-I 0 W/m -1,8 C -2,0 C 12,9 km/h (3 Bft) 93,62 %
19.11.2018 05:42 -1,1 C 4,4 C -1,1 C 95 % 1015,0 hPa 0,0 l/m 6,5 km/h (2 Bft) O-NO 67 0 min 0,000 mm 0,0 UV-I 0 W/m -1,8 C -1,2 C 11,3 km/h (2 Bft) 97,22 %
19.11.2018 05:44 -1,1 C 4,4 C -1,1 C 95 % 1015,0 hPa 0,0 l/m 7,3 km/h (2 Bft) O-NO 77 0 min 0,000 mm 0,0 UV-I 0 W/m -1,8 C -2,1 C 12,9 km/h (3 Bft) 96,15 %
19.11.2018 05:46 -1,1 C 4,4 C -1,1 C 95 % 1015,0 hPa 0,0 l/m 5,4 km/h (1 Bft) O 85 0 min 0,000 mm 0,0 UV-I 0 W/m -1,8 C -1,1 C 8,0 km/h (2 Bft) 95,74 %
19.11.2018 05:48 -1,1 C 4,4 C -1,1 C 95 % 1015,0 hPa 0,0 l/m 5,5 km/h (1 Bft) O-NO 71 0 min 0,000 mm 0,0 UV-I 0 W/m -1,8 C -1,1 C 6,4 km/h (2 Bft) 97,87 %
19.11.2018 05:50 -1,1 C 4,4 C -1,1 C 95 % 1015,0 hPa 0,0 l/m 5,4 km/h (1 Bft) O 84 0 min 0,000 mm 0,0 UV-I 0 W/m -1,8 C -1,1 C 6,4 km/h (2 Bft) 95,74 %
19.11.2018 05:52 -1,1 C 4,4 C -1,1 C 95 % 1015,0 hPa 0,0 l/m 5,8 km/h (2 Bft) O 80 0 min 0,000 mm 0,0 UV-I 0 W/m -1,8 C -1,1 C 9,7 km/h (2 Bft) 97,87 %
19.11.2018 05:54 -1,1 C 4,4 C -1,1 C 95 % 1014,9 hPa 0,0 l/m 7,5 km/h (2 Bft) O-NO 67 0 min 0,000 mm 0,0 UV-I 0 W/m -1,8 C -2,3 C 11,3 km/h (2 Bft) 97,87 %
19.11.2018 05:56 -1,1 C 4,4 C -1,1 C 95 % 1014,9 hPa 0,0 l/m 9,5 km/h (2 Bft) O-NO 78 0 min 0,000 mm 0,0 UV-I 0 W/m -1,8 C -4,2 C 12,9 km/h (3 Bft) 97,87 %
19.11.2018 05:58 -1,1 C 4,4 C -1,1 C 95 % 1014,9 hPa 0,0 l/m 6,6 km/h (2 Bft) O-NO 72 0 min 0,000 mm 0,0 UV-I 0 W/m -1,8 C -1,3 C 8,0 km/h (2 Bft) 97,87 %
19.11.2018 06:00 -1,1 C 4,4 C -1,7 C 95 % 1014,9 hPa 0,0 l/m 6,4 km/h (2 Bft) O-NO 67 0 min 0,000 mm 0,0 UV-I 0 W/m -1,8 C -1,1 C 11,3 km/h (2 Bft) 97,37 %
19.11.2018 06:04 -1,2 C 4,4 C -1,7 C 95 % 1014,9 hPa 0,0 l/m 11,0 km/h (2 Bft) O-NO 74 0 min 0,000 mm 0,0 UV-I 0 W/m -1,9 C -5,6 C 16,1 km/h (3 Bft) 96,67 %
19.11.2018 06:06 -1,2 C 4,4 C -1,7 C 95 % 1014,9 hPa 0,0 l/m 11,2 km/h (2 Bft) O 84 0 min 0,000 mm 0,0 UV-I 0 W/m -1,9 C -5,8 C 19,3 km/h (3 Bft) 100,00 %
19.11.2018 06:08 -1,2 C 4,4 C -1,7 C 95 % 1014,9 hPa 0,0 l/m 10,8 km/h (2 Bft) O 82 0 min 0,000 mm 0,0 UV-I 0 W/m -1,9 C -5,4 C 16,1 km/h (3 Bft) 100,00 %
19.11.2018 06:10 -1,3 C 4,4 C -1,7 C 95 % 1014,9 hPa 0,0 l/m 10,6 km/h (2 Bft) O 80 0 min 0,000 mm 0,0 UV-I 0 W/m -2,0 C -5,4 C 14,5 km/h (3 Bft) 98,39 %
19.11.2018 06:12 -1,3 C 4,4 C -1,7 C 95 % 1014,9 hPa 0,0 l/m 9,3 km/h (2 Bft) O-NO 67 0 min 0,000 mm 0,0 UV-I 0 W/m -2,0 C -4,3 C 14,5 km/h (3 Bft) 98,08 %
19.11.2018 06:14 -1,3 C 4,4 C -1,7 C 94 % 1014,9 hPa 0,0 l/m 9,2 km/h (2 Bft) O-NO 62 0 min 0,000 mm 0,0 UV-I 0 W/m -2,1 C -4,2 C 14,5 km/h (3 Bft) 100,00 %
19.11.2018 06:16 -1,3 C 4,4 C -1,7 C 95 % 1014,9 hPa 0,0 l/m 8,4 km/h (2 Bft) O 82 0 min 0,000 mm 0,0 UV-I 0 W/m -2,0 C -3,4 C 12,9 km/h (3 Bft) 100,00 %
19.11.2018 06:18 -1,3 C 4,4 C -1,7 C 94 % 1014,9 hPa 0,0 l/m 8,6 km/h (2 Bft) O-NO 67 0 min 0,000 mm 0,0 UV-I 0 W/m -2,1 C -3,6 C 12,9 km/h (3 Bft) 100,00 %
19.11.2018 06:20 -1,4 C 4,4 C -1,7 C 94 % 1014,8 hPa 0,0 l/m 10,8 km/h (2 Bft) O-NO 75 0 min 0,000 mm 0,0 UV-I 0 W/m -2,2 C -5,7 C 14,5 km/h (3 Bft) 100,00 %
19.11.2018 06:22 -1,4 C 4,4 C -2,2 C 94 % 1014,8 hPa 0,0 l/m 8,9 km/h (2 Bft) O-NO 60 0 min 0,000 mm 0,0 UV-I 0 W/m -2,2 C -4,0 C 14,5 km/h (3 Bft) 98,11 %
19.11.2018 06:24 -1,4 C 4,4 C -2,2 C 94 % 1014,8 hPa 0,0 l/m 6,3 km/h (2 Bft) O 82 0 min 0,000 mm 0,0 UV-I 0 W/m -2,2 C -1,4 C 12,9 km/h (3 Bft) 98,00 %
19.11.2018 06:26 -1,4 C 4,4 C -2,2 C 94 % 1014,8 hPa 0,0 l/m 10,1 km/h (2 Bft) O-NO 76 0 min 0,000 mm 0,0 UV-I 0 W/m -2,2 C -5,1 C 14,5 km/h (3 Bft) 100,00 %
19.11.2018 06:28 -1,4 C 4,4 C -2,2 C 94 % 1014,8 hPa 0,0 l/m 8,3 km/h (2 Bft) O-NO 69 0 min 0,000 mm 0,0 UV-I 0 W/m -2,2 C -3,4 C 12,9 km/h (3 Bft) 100,00 %
19.11.2018 06:30 -1,4 C 4,4 C -2,2 C 94 % 1014,8 hPa 0,0 l/m 8,8 km/h (2 Bft) O 92 0 min 0,000 mm 0,0 UV-I 0 W/m -2,2 C -3,9 C 12,9 km/h (3 Bft) 100,00 %
19.11.2018 06:32 -1,4 C 4,4 C -2,2 C 94 % 1014,8 hPa 0,0 l/m 9,2 km/h (2 Bft) O 99 0 min 0,000 mm 0,0 UV-I 0 W/m -2,2 C -4,3 C 14,5 km/h (3 Bft) 97,87 %
19.11.2018 06:34 -1,4 C 4,4 C -2,2 C 94 % 1014,8 hPa 0,0 l/m 8,1 km/h (2 Bft) O 84 0 min 0,000 mm 0,0 UV-I 0 W/m -2,2 C -3,2 C 12,9 km/h (3 Bft) 98,00 %
19.11.2018 06:36 -1,5 C 4,4 C -2,2 C 94 % 1014,8 hPa 0,0 l/m 9,6 km/h (2 Bft) O 80 0 min 0,000 mm 0,0 UV-I 0 W/m -2,3 C -4,8 C 14,5 km/h (3 Bft) 95,74 %
19.11.2018 06:38 -1,5 C 4,4 C -2,2 C 94 % 1014,9 hPa 0,0 l/m 7,2 km/h (2 Bft) O 92 0 min 0,000 mm 0,0 UV-I 0 W/m -2,3 C -2,4 C 12,9 km/h (3 Bft) 98,00 %
19.11.2018 06:40 -1,5 C 4,4 C -2,2 C 94 % 1014,9 hPa 0,0 l/m 8,6 km/h (2 Bft) O-NO 74 0 min 0,000 mm 0,0 UV-I 0 W/m -2,3 C -3,8 C 12,9 km/h (3 Bft) 97,56 %
19.11.2018 06:42 -1,5 C 4,4 C -2,2 C 94 % 1014,9 hPa 0,0 l/m 11,8 km/h (2 Bft) O-NO 71 0 min 0,000 mm 0,0 UV-I 0 W/m -2,3 C -6,6 C 16,1 km/h (3 Bft) 98,11 %
19.11.2018 06:44 -1,5 C 4,4 C -2,2 C 94 % 1014,9 hPa 0,0 l/m 10,2 km/h (2 Bft) O-NO 66 0 min 0,000 mm 0,0 UV-I 0 W/m -2,3 C -5,3 C 14,5 km/h (3 Bft) 95,12 %
19.11.2018 06:46 -1,5 C 4,4 C -2,2 C 94 % 1014,9 hPa 0,0 l/m 9,0 km/h (2 Bft) O-NO 74 0 min 0,000 mm 0,0 UV-I 0 W/m -2,3 C -4,2 C 14,5 km/h (3 Bft) 96,00 %
19.11.2018 06:49 -1,5 C 4,4 C -2,2 C 94 % 1014,8 hPa 0,0 l/m 12,0 km/h (2 Bft) O-NO 77 0 min 0,000 mm 0,0 UV-I 0 W/m -2,3 C -6,7 C 17,7 km/h (3 Bft) 97,30 %
19.11.2018 06:50 -1,5 C 4,4 C -2,2 C 94 % 1014,8 hPa 0,0 l/m 7,1 km/h (2 Bft) O-NO 58 0 min 0,000 mm 0,0 UV-I 0 W/m -2,3 C -2,3 C 11,3 km/h (2 Bft) 100,00 %
19.11.2018 06:52 -1,6 C 4,4 C -2,2 C 94 % 1014,8 hPa 0,0 l/m 6,2 km/h (2 Bft) O-NO 67 0 min 0,000 mm 0,0 UV-I 0 W/m -2,4 C -1,6 C 8,0 km/h (2 Bft) 94,87 %
19.11.2018 06:54 -1,6 C 4,4 C -2,2 C 94 % 1014,8 hPa 0,0 l/m 7,3 km/h (2 Bft) O-NO 67 0 min 0,000 mm 0,0 UV-I 0 W/m -2,4 C -2,6 C 9,7 km/h (2 Bft) 95,45 %
19.11.2018 06:56 -1,7 C 4,4 C -2,8 C 94 % 1014,8 hPa 0,0 l/m 10,2 km/h (2 Bft) O-NO 57 0 min 0,000 mm 0,0 UV-I 0 W/m -2,5 C -5,5 C 16,1 km/h (3 Bft) 100,00 %
19.11.2018 06:58 -1,8 C 4,4 C -2,8 C 94 % 1014,8 hPa 0,0 l/m 10,4 km/h (2 Bft) NO 53 0 min 0,000 mm 0,0 UV-I 0 W/m -2,6 C -5,8 C 14,5 km/h (3 Bft) 94,74 %
19.11.2018 07:00 -1,8 C 4,4 C -2,8 C 94 % 1014,8 hPa 0,0 l/m 8,7 km/h (2 Bft) O-NO 64 0 min 0,000 mm 0,0 UV-I 0 W/m -2,6 C -4,2 C 11,3 km/h (2 Bft) 98,11 %
19.11.2018 07:02 -1,8 C 4,4 C -3,3 C 94 % 1014,8 hPa 0,0 l/m 8,6 km/h (2 Bft) O 94 0 min 0,000 mm 0,0 UV-I 0 W/m -2,6 C -4,1 C 14,5 km/h (3 Bft) 98,00 %
19.11.2018 07:04 -1,8 C 4,4 C -2,8 C 94 % 1014,8 hPa 0,0 l/m 7,6 km/h (2 Bft) NO 53 0 min 0,000 mm 0,0 UV-I 0 W/m -2,6 C -3,1 C 14,5 km/h (3 Bft) 100,00 %
19.11.2018 07:06 -1,8 C 4,4 C -3,3 C 94 % 1014,8 hPa 0,0 l/m 9,5 km/h (2 Bft) O-NO 67 0 min 0,000 mm 0,0 UV-I 0 W/m -2,6 C -5,0 C 14,5 km/h (3 Bft) 100,00 %
19.11.2018 07:08 -1,9 C 4,4 C -3,3 C 94 % 1014,8 hPa 0,0 l/m 8,7 km/h (2 Bft) O 82 0 min 0,000 mm 0,0 UV-I 2 W/m -2,7 C -4,3 C 12,9 km/h (3 Bft) 97,14 %
19.11.2018 07:10 -1,8 C 4,4 C -3,3 C 94 % 1014,9 hPa 0,0 l/m 9,1 km/h (2 Bft) O 82 0 min 0,000 mm 0,0 UV-I 5 W/m -2,6 C -4,6 C 14,5 km/h (3 Bft) 98,11 %
19.11.2018 07:12 -1,8 C 4,4 C -2,8 C 94 % 1014,9 hPa 0,0 l/m 10,1 km/h (2 Bft) O-NO 74 0 min 0,000 mm 0,0 UV-I 5 W/m -2,6 C -5,5 C 14,5 km/h (3 Bft) 97,56 %
19.11.2018 07:14 -1,8 C 4,4 C -2,8 C 94 % 1014,9 hPa 0,0 l/m 9,5 km/h (2 Bft) O 80 0 min 0,000 mm 0,0 UV-I 5 W/m -2,6 C -5,0 C 14,5 km/h (3 Bft) 98,00 %
19.11.2018 07:16 -1,8 C 4,4 C -2,8 C 94 % 1015,0 hPa 0,0 l/m 8,0 km/h (2 Bft) O 84 0 min 0,000 mm 0,0 UV-I 5 W/m -2,6 C -3,5 C 14,5 km/h (3 Bft) 95,74 %
19.11.2018 07:18 -1,8 C 4,4 C -2,8 C 94 % 1015,1 hPa 0,0 l/m 8,9 km/h (2 Bft) O-NO 76 0 min 0,000 mm 0,0 UV-I 5 W/m -2,6 C -4,4 C 14,5 km/h (3 Bft) 98,00 %
19.11.2018 07:20 -1,8 C 4,4 C -2,8 C 94 % 1015,1 hPa 0,0 l/m 8,1 km/h (2 Bft) O-NO 67 0 min 0,000 mm 0,0 UV-I 5 W/m -2,6 C -3,6 C 11,3 km/h (2 Bft) 98,00 %
19.11.2018 07:22 -1,8 C 4,4 C -2,8 C 94 % 1015,0 hPa 0,0 l/m 9,1 km/h (2 Bft) NO 55 0 min 0,000 mm 0,0 UV-I 5 W/m -2,6 C -4,6 C 14,5 km/h (3 Bft) 97,37 %
19.11.2018 07:25 -1,8 C 4,4 C -2,2 C 94 % 1015,1 hPa 0,0 l/m 7,2 km/h (2 Bft) O-NO 61 0 min 0,000 mm 0,0 UV-I 6 W/m -2,6 C -2,7 C 12,9 km/h (3 Bft) 97,18 %
19.11.2018 07:26 -1,8 C 4,4 C -2,2 C 94 % 1015,1 hPa 0,0 l/m 6,7 km/h (2 Bft) O-NO 68 0 min 0,000 mm 0,0 UV-I 7 W/m -2,6 C -2,1 C 12,9 km/h (3 Bft) 92,31 %
19.11.2018 07:28 -1,8 C 4,4 C -2,2 C 94 % 1015,0 hPa 0,0 l/m 6,4 km/h (2 Bft) O 82 0 min 0,000 mm 0,0 UV-I 7 W/m -2,6 C -1,8 C 12,9 km/h (3 Bft) 91,67 %
19.11.2018 07:30 -1,8 C 4,4 C -2,2 C 94 % 1015,0 hPa 0,0 l/m 9,1 km/h (2 Bft) O 89 0 min 0,000 mm 0,0 UV-I 7 W/m -2,6 C -4,6 C 14,5 km/h (3 Bft) 95,74 %
19.11.2018 07:32 -1,8 C 4,4 C -2,2 C 94 % 1015,0 hPa 0,0 l/m 9,1 km/h (2 Bft) O 92 0 min 0,000 mm 0,0 UV-I 7 W/m -2,6 C -4,6 C 17,7 km/h (3 Bft) 96,00 %
19.11.2018 07:35 -1,7 C 4,4 C -2,2 C 94 % 1015,0 hPa 0,0 l/m 10,3 km/h (2 Bft) O-NO 67 0 min 0,000 mm 0,0 UV-I 7 W/m -2,5 C -5,6 C 16,1 km/h (3 Bft) 93,15 %
19.11.2018 07:36 -1,7 C 4,4 C -1,7 C 94 % 1015,0 hPa 0,0 l/m 10,7 km/h (2 Bft) O-NO 66 0 min 0,000 mm 0,0 UV-I 7 W/m -2,5 C -5,9 C 14,5 km/h (3 Bft) 100,00 %
19.11.2018 07:38 -1,7 C 4,4 C -1,7 C 94 % 1015,1 hPa 0,0 l/m 11,7 km/h (2 Bft) O-NO 66 0 min 0,000 mm 0,0 UV-I 7 W/m -2,5 C -6,7 C 16,1 km/h (3 Bft) 94,64 %
19.11.2018 07:40 -1,6 C 4,4 C -1,7 C 94 % 1015,1 hPa 0,0 l/m 11,2 km/h (2 Bft) O-NO 67 0 min 0,000 mm 0,0 UV-I 7 W/m -2,4 C -6,2 C 14,5 km/h (3 Bft) 95,74 %
19.11.2018 07:42 -1,6 C 4,4 C -1,7 C 94 % 1015,0 hPa 0,0 l/m 7,6 km/h (2 Bft) O-NO 69 0 min 0,000 mm 0,0 UV-I 9 W/m -2,4 C -2,9 C 12,9 km/h (3 Bft) 95,12 %
19.11.2018 07:44 -1,6 C 4,4 C -1,7 C 94 % 1015,0 hPa 0,0 l/m 10,0 km/h (2 Bft) N-NO 27 0 min 0,000 mm 0,0 UV-I 9 W/m -2,4 C -5,2 C 12,9 km/h (3 Bft) 94,00 %
19.11.2018 07:46 -1,6 C 4,4 C -1,7 C 94 % 1015,0 hPa 0,0 l/m 7,8 km/h (2 Bft) O-NO 78 0 min 0,000 mm 0,0 UV-I 10 W/m -2,4 C -3,1 C 16,1 km/h (3 Bft) 94,00 %
19.11.2018 07:48 -1,6 C 4,4 C -1,7 C 94 % 1014,9 hPa 0,0 l/m 8,2 km/h (2 Bft) NO 46 0 min 0,000 mm 0,0 UV-I 11 W/m -2,4 C -3,5 C 12,9 km/h (3 Bft) 93,62 %
19.11.2018 07:51 -1,6 C 4,4 C -1,7 C 94 % 1015,0 hPa 0,0 l/m 8,6 km/h (2 Bft) NO 50 0 min 0,000 mm 0,0 UV-I 12 W/m -2,4 C -3,9 C 14,5 km/h (3 Bft) 92,31 %
19.11.2018 07:52 -1,6 C 4,4 C -1,7 C 94 % 1015,0 hPa 0,0 l/m 7,6 km/h (2 Bft) NO 47 0 min 0,000 mm 0,0 UV-I 12 W/m -2,4 C -2,9 C 11,3 km/h (2 Bft) 96,15 %
19.11.2018 07:54 -1,6 C 4,4 C -1,7 C 94 % 1014,9 hPa 0,0 l/m 7,1 km/h (2 Bft) O-NO 69 0 min 0,000 mm 0,0 UV-I 13 W/m -2,4 C -2,4 C 11,3 km/h (2 Bft) 92,68 %
19.11.2018 07:56 -1,6 C 4,4 C -1,7 C 94 % 1015,0 hPa 0,0 l/m 6,8 km/h (2 Bft) O 89 0 min 0,000 mm 0,0 UV-I 14 W/m -2,4 C -2,0 C 11,3 km/h (2 Bft) 92,68 %
19.11.2018 07:58 -1,6 C 4,4 C -1,7 C 94 % 1015,0 hPa 0,0 l/m 9,2 km/h (2 Bft) O-NO 63 0 min 0,000 mm 0,0 UV-I 15 W/m -2,4 C -4,5 C 12,9 km/h (3 Bft) 92,86 %
19.11.2018 08:00 -1,6 C 4,4 C -1,7 C 94 % 1015,0 hPa 0,0 l/m 10,7 km/h (2 Bft) O 80 0 min 0,000 mm 0,0 UV-I 16 W/m -2,4 C -5,8 C 16,1 km/h (3 Bft) 94,00 %
19.11.2018 08:02 -1,6 C 4,4 C -1,7 C 94 % 1015,0 hPa 0,0 l/m 12,5 km/h (3 Bft) O 90 0 min 0,000 mm 0,0 UV-I 18 W/m -2,4 C -7,2 C 16,1 km/h (3 Bft) 95,74 %
19.11.2018 08:04 -1,6 C 4,4 C -1,7 C 94 % 1015,0 hPa 0,0 l/m 12,3 km/h (3 Bft) O-NO 69 0 min 0,000 mm 0,0 UV-I 19 W/m -2,4 C -7,1 C 16,1 km/h (3 Bft) 94,44 %
19.11.2018 08:06 -1,6 C 4,4 C -1,1 C 94 % 1015,0 hPa 0,0 l/m 10,7 km/h (2 Bft) O-NO 68 0 min 0,000 mm 0,0 UV-I 20 W/m -2,4 C -5,8 C 14,5 km/h (3 Bft) 97,73 %
19.11.2018 08:08 -1,6 C 4,4 C -1,1 C 94 % 1015,0 hPa 0,0 l/m 8,9 km/h (2 Bft) O-NO 59 0 min 0,000 mm 0,0 UV-I 22 W/m -2,4 C -4,2 C 12,9 km/h (3 Bft) 98,31 %
19.11.2018 08:10 -1,5 C 4,4 C -1,1 C 94 % 1014,9 hPa 0,0 l/m 9,4 km/h (2 Bft) O-NO 76 0 min 0,000 mm 0,0 UV-I 25 W/m -2,3 C -4,6 C 12,9 km/h (3 Bft) 97,73 %
19.11.2018 08:12 -1,5 C 4,4 C -1,1 C 94 % 1015,0 hPa 0,0 l/m 10,7 km/h (2 Bft) O-NO 70 0 min 0,000 mm 0,0 UV-I 25 W/m -2,3 C -5,7 C 14,5 km/h (3 Bft) 96,23 %
19.11.2018 08:14 -1,5 C 4,4 C -1,1 C 94 % 1014,9 hPa 0,0 l/m 12,3 km/h (3 Bft) O-NO 61 0 min 0,000 mm 0,0 UV-I 26 W/m -2,3 C -7,0 C 16,1 km/h (3 Bft) 97,73 %
19.11.2018 08:16 -1,5 C 4,4 C -1,1 C 94 % 1015,0 hPa 0,0 l/m 10,8 km/h (2 Bft) O-NO 74 0 min 0,000 mm 0,0 UV-I 26 W/m -2,3 C -5,8 C 16,1 km/h (3 Bft) 97,37 %
19.11.2018 08:18 -1,4 C 4,4 C -1,1 C 94 % 1014,9 hPa 0,0 l/m 12,6 km/h (3 Bft) O-NO 71 0 min 0,000 mm 0,0 UV-I 27 W/m -2,2 C -7,1 C 19,3 km/h (3 Bft) 98,00 %
19.11.2018 08:20 -1,4 C 4,4 C -1,1 C 94 % 1015,0 hPa 0,0 l/m 9,1 km/h (2 Bft) O-NO 68 0 min 0,000 mm 0,0 UV-I 29 W/m -2,2 C -4,2 C 14,5 km/h (3 Bft) 100,00 %
19.11.2018 08:22 -1,4 C 4,4 C -1,1 C 94 % 1015,0 hPa 0,0 l/m 11,9 km/h (2 Bft) O-NO 69 0 min 0,000 mm 0,0 UV-I 31 W/m -2,2 C -6,5 C 17,7 km/h (3 Bft) 100,00 %
19.11.2018 08:24 -1,4 C 4,4 C -1,1 C 94 % 1015,0 hPa 0,0 l/m 10,9 km/h (2 Bft) O-NO 73 0 min 0,000 mm 0,0 UV-I 32 W/m -2,2 C -5,8 C 16,1 km/h (3 Bft) 100,00 %
19.11.2018 08:26 -1,3 C 4,4 C -1,1 C 94 % 1015,0 hPa 0,0 l/m 12,5 km/h (3 Bft) O-NO 63 0 min 0,000 mm 0,0 UV-I 35 W/m -2,1 C -6,9 C 16,1 km/h (3 Bft) 100,00 %
19.11.2018 08:28 -1,3 C 4,4 C -1,1 C 94 % 1015,0 hPa 0,0 l/m 13,5 km/h (3 Bft) O-NO 74 0 min 0,000 mm 0,0 UV-I 37 W/m -2,1 C -7,6 C 16,1 km/h (3 Bft) 100,00 %
19.11.2018 08:30 -1,3 C 4,4 C -1,1 C 94 % 1015,0 hPa 0,0 l/m 11,2 km/h (2 Bft) O-NO 67 0 min 0,000 mm 0,0 UV-I 41 W/m -2,1 C -5,9 C 16,1 km/h (3 Bft) 100,00 %
19.11.2018 08:32 -1,3 C 4,4 C -0,6 C 94 % 1014,9 hPa 0,0 l/m 12,0 km/h (2 Bft) O-NO 59 0 min 0,000 mm 0,0 UV-I 43 W/m -2,1 C -6,5 C 16,1 km/h (3 Bft) 100,00 %
19.11.2018 08:35 -1,3 C 4,4 C -0,6 C 93 % 1014,9 hPa 0,0 l/m 13,1 km/h (3 Bft) O-NO 70 0 min 0,000 mm 0,0 UV-I 46 W/m -2,3 C -7,3 C 17,7 km/h (3 Bft) 98,59 %
19.11.2018 08:36 -1,3 C 4,4 C -0,6 C 93 % 1014,9 hPa 0,0 l/m 12,2 km/h (2 Bft) O 81 0 min 0,000 mm 0,0 UV-I 49 W/m -2,3 C -6,6 C 16,1 km/h (3 Bft) 100,00 %
19.11.2018 08:38 -1,3 C 4,4 C -0,6 C 93 % 1014,9 hPa 0,0 l/m 12,4 km/h (3 Bft) O 80 0 min 0,000 mm 0,0 UV-I 51 W/m -2,3 C -6,8 C 16,1 km/h (3 Bft) 100,00 %
19.11.2018 08:40 -1,3 C 4,4 C -0,6 C 93 % 1014,8 hPa 0,0 l/m 13,9 km/h (3 Bft) O-SO 104 0 min 0,000 mm 0,0 UV-I 54 W/m -2,3 C -7,8 C 17,7 km/h (3 Bft) 100,00 %
19.11.2018 08:42 -1,3 C 4,4 C -0,6 C 93 % 1014,8 hPa 0,0 l/m 12,5 km/h (3 Bft) O-NO 59 0 min 0,000 mm 0,0 UV-I 61 W/m -2,3 C -6,9 C 16,1 km/h (3 Bft) 98,11 %
19.11.2018 08:45 -1,3 C 4,4 C -0,6 C 93 % 1014,8 hPa 0,0 l/m 13,8 km/h (3 Bft) O-NO 67 0 min 0,000 mm 0,0 UV-I 70 W/m -2,3 C -7,8 C 17,7 km/h (3 Bft) 100,00 %
19.11.2018 08:46 -1,3 C 4,4 C -0,6 C 93 % 1014,8 hPa 0,0 l/m 13,1 km/h (3 Bft) O-NO 69 0 min 0,000 mm 0,0 UV-I 80 W/m -2,3 C -7,3 C 17,7 km/h (3 Bft) 100,00 %
19.11.2018 08:48 -1,2 C 4,4 C 0,0 C 93 % 1014,8 hPa 0,0 l/m 10,4 km/h (2 Bft) O-NO 66 0 min 0,000 mm 0,0 UV-I 88 W/m -2,2 C -5,1 C 16,1 km/h (3 Bft) 100,00 %
19.11.2018 08:50 -1,2 C 4,4 C 0,0 C 93 % 1014,8 hPa 0,0 l/m 14,5 km/h (3 Bft) O 89 0 min 0,000 mm 0,0 UV-I 101 W/m -2,2 C -8,1 C 19,3 km/h (3 Bft) 97,56 %
19.11.2018 08:52 -1,2 C 4,4 C 0,0 C 93 % 1014,8 hPa 0,0 l/m 13,7 km/h (3 Bft) O-NO 77 0 min 0,000 mm 0,0 UV-I 107 W/m -2,2 C -7,6 C 17,7 km/h (3 Bft) 100,00 %
19.11.2018 08:55 -1,2 C 4,4 C 0,0 C 93 % 1014,8 hPa 0,0 l/m 12,2 km/h (2 Bft) O-NO 61 0 min 0,000 mm 0,0 UV-I 111 W/m -2,2 C -6,5 C 17,7 km/h (3 Bft) 100,00 %
19.11.2018 08:56 -1,2 C 4,4 C 0,0 C 93 % 1014,8 hPa 0,0 l/m 12,8 km/h (3 Bft) O-NO 78 0 min 0,000 mm 0,0 UV-I 109 W/m -2,2 C -7,0 C 16,1 km/h (3 Bft) 100,00 %
19.11.2018 08:58 -1,2 C 4,4 C 0,0 C 93 % 1014,8 hPa 0,0 l/m 14,8 km/h (3 Bft) O-NO 69 0 min 0,000 mm 0,0 UV-I 109 W/m -2,2 C -8,3 C 19,3 km/h (3 Bft) 97,87 %
19.11.2018 09:00 -1,2 C 4,4 C 0,0 C 93 % 1014,8 hPa 0,0 l/m 12,6 km/h (3 Bft) NO 55 0 min 0,025 mm 0,0 UV-I 109 W/m -2,2 C -6,8 C 19,3 km/h (3 Bft) 98,21 %
19.11.2018 09:02 -1,2 C 4,4 C 0,0 C 93 % 1014,8 hPa 0,0 l/m 15,1 km/h (3 Bft) O 80 0 min 0,000 mm 0,0 UV-I 106 W/m -2,2 C -8,5 C 17,7 km/h (3 Bft) 97,87 %
19.11.2018 09:04 -1,1 C 4,4 C 0,0 C 93 % 1014,9 hPa 0,0 l/m 14,3 km/h (3 Bft) O-NO 70 0 min 0,000 mm 0,0 UV-I 97 W/m -2,1 C -7,9 C 17,7 km/h (3 Bft) 97,56 %
19.11.2018 09:06 -1,1 C 4,4 C 0,0 C 93 % 1014,9 hPa 0,0 l/m 8,5 km/h (2 Bft) O-NO 74 0 min 0,000 mm 0,0 UV-I 99 W/m -2,1 C -3,3 C 14,5 km/h (3 Bft) 97,56 %
19.11.2018 09:08 -1,1 C 4,4 C 0,0 C 93 % 1014,9 hPa 0,0 l/m 13,8 km/h (3 Bft) O-NO 63 0 min 0,000 mm 0,0 UV-I 89 W/m -2,1 C -7,5 C 17,7 km/h (3 Bft) 98,11 %
19.11.2018 09:10 -1,1 C 4,4 C 0,0 C 93 % 1014,9 hPa 0,0 l/m 13,7 km/h (3 Bft) O-NO 72 0 min 0,000 mm 0,0 UV-I 76 W/m -2,1 C -7,5 C 19,3 km/h (3 Bft) 98,00 %
19.11.2018 09:12 -1,1 C 4,4 C 0,0 C 93 % 1014,8 hPa 0,0 l/m 13,4 km/h (3 Bft) O-SO 109 0 min 0,000 mm 0,0 UV-I 79 W/m -2,1 C -7,3 C 20,9 km/h (4 Bft) 97,73 %
19.11.2018 09:14 -1,1 C 4,4 C 0,0 C 93 % 1014,8 hPa 0,0 l/m 14,3 km/h (3 Bft) O-NO 75 0 min 0,000 mm 0,0 UV-I 87 W/m -2,1 C -7,9 C 17,7 km/h (3 Bft) 97,56 %
19.11.2018 09:16 -1,1 C 4,4 C 0,0 C 93 % 1014,9 hPa 0,0 l/m 9,5 km/h (2 Bft) O-NO 71 0 min 0,000 mm 0,0 UV-I 115 W/m -2,1 C -4,2 C 12,9 km/h (3 Bft) 96,00 %
19.11.2018 09:18 -1,1 C 4,4 C 0,0 C 93 % 1014,9 hPa 0,0 l/m 12,3 km/h (3 Bft) O-NO 61 0 min 0,000 mm 0,0 UV-I 111 W/m -2,1 C -6,5 C 16,1 km/h (3 Bft) 98,11 %
19.11.2018 09:20 -1,1 C 4,4 C 0,0 C 93 % 1014,9 hPa 0,0 l/m 13,6 km/h (3 Bft) O-NO 71 0 min 0,000 mm 0,0 UV-I 134 W/m -2,1 C -7,4 C 20,9 km/h (4 Bft) 100,00 %
19.11.2018 09:22 -1,0 C 4,4 C 0,0 C 93 % 1014,9 hPa 0,0 l/m 15,7 km/h (3 Bft) O-NO 72 0 min 0,000 mm 0,0 UV-I 130 W/m -2,0 C -8,6 C 24,1 km/h (4 Bft) 94,34 %
19.11.2018 09:24 -1,0 C 4,4 C 0,0 C 93 % 1014,9 hPa 0,0 l/m 15,8 km/h (3 Bft) O-SO 119 0 min 0,000 mm 0,0 UV-I 143 W/m -2,0 C -8,7 C 19,3 km/h (3 Bft) 100,00 %
19.11.2018 09:26 -0,9 C 4,4 C 0,0 C 93 % 1014,9 hPa 0,0 l/m 13,8 km/h (3 Bft) O-NO 78 2 min 0,000 mm 0,0 UV-I 158 W/m -1,9 C -7,3 C 19,3 km/h (3 Bft) 98,11 %
19.11.2018 09:28 -0,9 C 4,4 C 0,0 C 93 % 1014,9 hPa 0,0 l/m 14,2 km/h (3 Bft) O-NO 62 2 min 0,000 mm 0,0 UV-I 164 W/m -1,9 C -7,6 C 19,3 km/h (3 Bft) 95,74 %
19.11.2018 09:30 -0,8 C 4,4 C 0,0 C 93 % 1014,9 hPa 0,0 l/m 15,8 km/h (3 Bft) O-NO 71 2 min 0,000 mm 0,0 UV-I 157 W/m -1,8 C -8,4 C 22,5 km/h (4 Bft) 96,00 %
19.11.2018 09:32 -0,8 C 4,4 C 0,0 C 93 % 1014,8 hPa 0,0 l/m 16,3 km/h (3 Bft) O-SO 116 2 min 0,000 mm 0,0 UV-I 156 W/m -1,8 C -8,7 C 22,5 km/h (4 Bft) 97,37 %
19.11.2018 09:34 -0,8 C 4,4 C 0,0 C 93 % 1014,8 hPa 0,0 l/m 16,9 km/h (3 Bft) O 97 2 min 0,000 mm 0,0 UV-I 160 W/m -1,8 C -9,1 C 22,5 km/h (4 Bft) 95,45 %
19.11.2018 09:36 -0,8 C 4,4 C 0,0 C 93 % 1014,9 hPa 0,0 l/m 14,1 km/h (3 Bft) O 88 0 min 0,000 mm 0,0 UV-I 152 W/m -1,8 C -7,4 C 19,3 km/h (3 Bft) 98,31 %
19.11.2018 09:38 -0,8 C 4,4 C 0,0 C 92 % 1014,9 hPa 0,0 l/m 16,9 km/h (3 Bft) O-NO 74 0 min 0,000 mm 0,0 UV-I 132 W/m -1,9 C -9,1 C 22,5 km/h (4 Bft) 97,14 %
19.11.2018 09:40 -0,8 C 4,4 C 0,0 C 92 % 1014,9 hPa 0,0 l/m 17,0 km/h (3 Bft) O-NO 63 0 min 0,000 mm 0,0 UV-I 126 W/m -1,9 C -9,1 C 24,1 km/h (4 Bft) 98,11 %
19.11.2018 09:42 -0,8 C 4,4 C 0,0 C 92 % 1014,9 hPa 0,0 l/m 16,6 km/h (3 Bft) O-NO 74 0 min 0,000 mm 0,0 UV-I 122 W/m -1,9 C -8,9 C 24,1 km/h (4 Bft) 98,00 %
19.11.2018 09:44 -0,8 C 4,4 C 0,0 C 92 % 1014,9 hPa 0,0 l/m 15,2 km/h (3 Bft) O-NO 59 0 min 0,000 mm 0,0 UV-I 119 W/m -1,9 C -8,1 C 24,1 km/h (4 Bft) 97,56 %
19.11.2018 09:46 -0,8 C 4,4 C 0,0 C 92 % 1014,9 hPa 0,0 l/m 14,1 km/h (3 Bft) O-NO 74 0 min 0,000 mm 0,0 UV-I 121 W/m -1,9 C -7,4 C 20,9 km/h (4 Bft) 97,87 %
19.11.2018 09:48 -0,8 C 4,4 C 0,0 C 92 % 1014,9 hPa 0,0 l/m 10,9 km/h (2 Bft) O 87 0 min 0,000 mm 0,0 UV-I 118 W/m -1,9 C -5,1 C 17,7 km/h (3 Bft) 96,00 %
19.11.2018 09:50 -0,8 C 4,4 C 0,0 C 92 % 1014,9 hPa 0,0 l/m 16,1 km/h (3 Bft) O-NO 63 0 min 0,000 mm 0,0 UV-I 117 W/m -1,9 C -8,6 C 20,9 km/h (4 Bft) 97,87 %
19.11.2018 09:52 -0,8 C 4,4 C 0,0 C 92 % 1014,9 hPa 0,0 l/m 18,0 km/h (3 Bft) O-NO 62 0 min 0,000 mm 0,0 UV-I 118 W/m -1,9 C -9,7 C 24,1 km/h (4 Bft) 96,00 %
19.11.2018 09:54 -0,8 C 4,4 C 0,0 C 92 % 1014,9 hPa 0,0 l/m 15,6 km/h (3 Bft) O-NO 65 0 min 0,000 mm 0,0 UV-I 117 W/m -1,9 C -8,3 C 20,9 km/h (4 Bft) 95,74 %
19.11.2018 09:56 -0,8 C 4,4 C 0,0 C 93 % 1014,9 hPa 0,0 l/m 15,8 km/h (3 Bft) O-NO 78 0 min 0,000 mm 0,0 UV-I 116 W/m -1,8 C -8,4 C 20,9 km/h (4 Bft) 97,22 %
19.11.2018 09:58 -0,8 C 4,4 C 0,0 C 93 % 1014,9 hPa 0,0 l/m 15,3 km/h (3 Bft) O 90 0 min 0,000 mm 0,0 UV-I 114 W/m -1,8 C -8,1 C 20,9 km/h (4 Bft) 100,00 %
19.11.2018 10:00 -0,8 C 4,4 C 0,0 C 93 % 1014,9 hPa 0,0 l/m 16,2 km/h (3 Bft) O-SO 107 0 min 0,051 mm 0,0 UV-I 114 W/m -1,8 C -8,7 C 19,3 km/h (3 Bft) 95,83 %
19.11.2018 10:02 -0,8 C 4,4 C 0,0 C 92 % 1014,9 hPa 0,0 l/m 16,3 km/h (3 Bft) O-NO 78 0 min 0,000 mm 0,0 UV-I 122 W/m -1,9 C -8,7 C 22,5 km/h (4 Bft) 97,87 %
19.11.2018 10:04 -0,8 C 4,4 C 0,0 C 93 % 1014,9 hPa 0,0 l/m 14,5 km/h (3 Bft) O 79 0 min 0,000 mm 0,0 UV-I 139 W/m -1,8 C -7,6 C 19,3 km/h (3 Bft) 100,00 %
19.11.2018 10:06 -0,7 C 4,4 C 0,0 C 93 % 1014,9 hPa 0,0 l/m 16,4 km/h (3 Bft) O-NO 60 0 min 0,000 mm 0,0 UV-I 152 W/m -1,7 C -8,7 C 20,9 km/h (4 Bft) 100,00 %
19.11.2018 10:08 -0,7 C 4,4 C 0,0 C 93 % 1014,9 hPa 0,0 l/m 17,0 km/h (3 Bft) O 84 0 min 0,000 mm 0,0 UV-I 142 W/m -1,7 C -9,0 C 22,5 km/h (4 Bft) 100,00 %
19.11.2018 10:10 -0,8 C 4,4 C 0,0 C 92 % 1014,9 hPa 0,0 l/m 16,9 km/h (3 Bft) O 93 0 min 0,000 mm 0,0 UV-I 135 W/m -1,9 C -9,1 C 22,5 km/h (4 Bft) 95,74 %
19.11.2018 10:12 -0,8 C 4,4 C 0,0 C 92 % 1014,9 hPa 0,0 l/m 13,8 km/h (3 Bft) O-NO 78 0 min 0,000 mm 0,0 UV-I 118 W/m -1,9 C -7,2 C 19,3 km/h (3 Bft) 95,74 %
19.11.2018 10:14 -0,8 C 4,4 C 0,0 C 92 % 1015,0 hPa 0,0 l/m 16,1 km/h (3 Bft) O 96 0 min 0,000 mm 0,0 UV-I 95 W/m -1,9 C -8,6 C 24,1 km/h (4 Bft) 97,87 %
19.11.2018 10:16 -0,7 C 4,4 C 0,0 C 92 % 1014,9 hPa 0,0 l/m 14,5 km/h (3 Bft) O-NO 69 0 min 0,000 mm 0,0 UV-I 84 W/m -1,8 C -7,5 C 19,3 km/h (3 Bft) 95,74 %
19.11.2018 10:18 -0,8 C 4,4 C 0,0 C 93 % 1015,0 hPa 0,0 l/m 16,1 km/h (3 Bft) O-NO 65 0 min 0,000 mm 0,0 UV-I 77 W/m -1,8 C -8,6 C 20,9 km/h (4 Bft) 97,87 %
19.11.2018 10:20 -0,8 C 4,4 C 0,0 C 93 % 1014,9 hPa 0,0 l/m 16,0 km/h (3 Bft) O 97 0 min 0,000 mm 0,0 UV-I 84 W/m -1,8 C -8,6 C 22,5 km/h (4 Bft) 93,62 %
19.11.2018 10:22 -0,8 C 4,4 C 0,0 C 93 % 1014,9 hPa 0,0 l/m 15,1 km/h (3 Bft) O 84 0 min 0,000 mm 0,0 UV-I 86 W/m -1,8 C -8,0 C 19,3 km/h (3 Bft) 95,74 %
19.11.2018 10:24 -0,8 C 4,4 C 0,0 C 92 % 1014,9 hPa 0,0 l/m 12,5 km/h (3 Bft) O-NO 78 0 min 0,000 mm 0,0 UV-I 87 W/m -1,9 C -6,3 C 19,3 km/h (3 Bft) 98,00 %
19.11.2018 10:26 -0,8 C 4,4 C 0,0 C 93 % 1014,8 hPa 0,0 l/m 18,3 km/h (3 Bft) O 87 0 min 0,000 mm 0,0 UV-I 93 W/m -1,8 C -9,8 C 22,5 km/h (4 Bft) 94,74 %
19.11.2018 10:28 -0,8 C 4,4 C 0,0 C 93 % 1014,8 hPa 0,0 l/m 18,2 km/h (3 Bft) O 96 0 min 0,000 mm 0,0 UV-I 112 W/m -1,8 C -9,8 C 24,1 km/h (4 Bft) 97,87 %
19.11.2018 10:30 -0,8 C 4,4 C 0,0 C 92 % 1014,9 hPa 0,0 l/m 15,0 km/h (3 Bft) O-NO 65 0 min 0,000 mm 0,0 UV-I 123 W/m -1,9 C -8,0 C 20,9 km/h (4 Bft) 97,87 %
19.11.2018 10:32 -0,8 C 4,4 C 0,0 C 92 % 1014,8 hPa 0,0 l/m 16,4 km/h (3 Bft) O-NO 66 0 min 0,000 mm 0,0 UV-I 132 W/m -1,9 C -8,8 C 20,9 km/h (4 Bft) 97,87 %
19.11.2018 10:34 -0,8 C 4,4 C 0,6 C 93 % 1014,9 hPa 0,0 l/m 14,1 km/h (3 Bft) O-NO 70 0 min 0,000 mm 0,0 UV-I 136 W/m -1,8 C -7,4 C 17,7 km/h (3 Bft) 100,00 %
19.11.2018 10:36 -0,7 C 4,4 C 0,6 C 93 % 1014,8 hPa 0,0 l/m 15,6 km/h (3 Bft) O-NO 63 0 min 0,000 mm 0,0 UV-I 149 W/m -1,7 C -8,2 C 22,5 km/h (4 Bft) 100,00 %
19.11.2018 10:38 -0,8 C 4,4 C 0,0 C 92 % 1014,8 hPa 0,0 l/m 15,5 km/h (3 Bft) O 84 0 min 0,000 mm 0,0 UV-I 140 W/m -1,9 C -8,3 C 22,5 km/h (4 Bft) 100,00 %
19.11.2018 10:40 -0,7 C 4,4 C 0,0 C 93 % 1014,8 hPa 0,0 l/m 18,3 km/h (3 Bft) O 88 0 min 0,000 mm 0,0 UV-I 134 W/m -1,7 C -9,7 C 24,1 km/h (4 Bft) 100,00 %
19.11.2018 10:42 -0,7 C 4,4 C 0,0 C 93 % 1014,8 hPa 0,0 l/m 16,9 km/h (3 Bft) O 93 0 min 0,000 mm 0,0 UV-I 128 W/m -1,7 C -8,9 C 22,5 km/h (4 Bft) 100,00 %
19.11.2018 10:44 -0,7 C 4,4 C 0,0 C 93 % 1014,8 hPa 0,0 l/m 15,2 km/h (3 Bft) O-SO 109 0 min 0,000 mm 0,0 UV-I 114 W/m -1,7 C -8,0 C 24,1 km/h (4 Bft) 100,00 %
19.11.2018 10:46 -0,7 C 4,4 C 0,0 C 93 % 1014,8 hPa 0,0 l/m 15,5 km/h (3 Bft) O 90 0 min 0,000 mm 0,0 UV-I 120 W/m -1,7 C -8,1 C 25,7 km/h (4 Bft) 97,87 %
19.11.2018 10:48 -0,7 C 4,4 C 0,0 C 92 % 1014,7 hPa 0,0 l/m 20,4 km/h (4 Bft) O 98 0 min 0,000 mm 0,0 UV-I 129 W/m -1,8 C -10,7 C 27,4 km/h (4 Bft) 95,74 %
19.11.2018 10:50 -0,7 C 4,4 C 0,0 C 92 % 1014,7 hPa 0,0 l/m 21,6 km/h (4 Bft) O 81 0 min 0,000 mm 0,0 UV-I 133 W/m -1,8 C -11,3 C 29,0 km/h (5 Bft) 97,87 %
19.11.2018 10:52 -0,7 C 4,4 C 0,0 C 92 % 1014,7 hPa 0,0 l/m 19,5 km/h (3 Bft) O 94 0 min 0,000 mm 0,0 UV-I 145 W/m -1,8 C -10,3 C 25,7 km/h (4 Bft) 97,87 %
19.11.2018 10:54 -0,7 C 4,4 C 0,6 C 92 % 1014,7 hPa 0,0 l/m 18,6 km/h (3 Bft) O 90 0 min 0,000 mm 0,0 UV-I 154 W/m -1,8 C -9,8 C 25,7 km/h (4 Bft) 100,00 %
19.11.2018 10:56 -0,7 C 4,4 C 0,6 C 92 % 1014,6 hPa 0,0 l/m 17,0 km/h (3 Bft) O 101 0 min 0,000 mm 0,0 UV-I 161 W/m -1,8 C -9,0 C 22,5 km/h (4 Bft) 100,00 %
19.11.2018 10:58 -0,6 C 4,4 C 0,6 C 92 % 1014,6 hPa 0,0 l/m 16,8 km/h (3 Bft) O-NO 63 0 min 0,000 mm 0,0 UV-I 147 W/m -1,7 C -8,8 C 24,1 km/h (4 Bft) 100,00 %
19.11.2018 11:00 -0,6 C 4,4 C 0,6 C 92 % 1014,6 hPa 0,0 l/m 17,6 km/h (3 Bft) O-NO 71 0 min 0,051 mm 0,0 UV-I 142 W/m -1,7 C -9,2 C 25,7 km/h (4 Bft) 100,00 %
19.11.2018 11:02 -0,6 C 4,4 C 0,6 C 92 % 1014,6 hPa 0,0 l/m 18,6 km/h (3 Bft) O-NO 67 0 min 0,000 mm 0,0 UV-I 140 W/m -1,7 C -9,7 C 25,7 km/h (4 Bft) 97,87 %
19.11.2018 11:04 -0,6 C 4,4 C 0,6 C 92 % 1014,5 hPa 0,0 l/m 15,9 km/h (3 Bft) O-NO 76 0 min 0,000 mm 0,0 UV-I 122 W/m -1,7 C -8,2 C 20,9 km/h (4 Bft) 100,00 %
19.11.2018 11:06 -0,6 C 4,4 C 0,6 C 92 % 1014,4 hPa 0,0 l/m 14,0 km/h (3 Bft) O-NO 67 0 min 0,000 mm 0,0 UV-I 114 W/m -1,7 C -7,1 C 25,7 km/h (4 Bft) 100,00 %
19.11.2018 11:08 -0,6 C 4,4 C 0,6 C 92 % 1014,4 hPa 0,0 l/m 14,1 km/h (3 Bft) O-NO 76 0 min 0,000 mm 0,0 UV-I 119 W/m -1,7 C -7,1 C 20,9 km/h (4 Bft) 97,87 %
19.11.2018 11:10 -0,6 C 4,4 C 0,0 C 92 % 1014,4 hPa 0,0 l/m 18,5 km/h (3 Bft) O-NO 66 0 min 0,000 mm 0,0 UV-I 113 W/m -1,7 C -9,7 C 25,7 km/h (4 Bft) 97,87 %
19.11.2018 11:12 -0,6 C 4,4 C 0,0 C 92 % 1014,4 hPa 0,0 l/m 18,6 km/h (3 Bft) O-NO 71 0 min 0,000 mm 0,0 UV-I 105 W/m -1,7 C -9,7 C 22,5 km/h (4 Bft) 100,00 %
19.11.2018 11:14 -0,6 C 4,4 C 0,0 C 92 % 1014,3 hPa 0,0 l/m 16,2 km/h (3 Bft) O-NO 71 0 min 0,000 mm 0,0 UV-I 106 W/m -1,7 C -8,4 C 22,5 km/h (4 Bft) 95,74 %
19.11.2018 11:16 -0,6 C 4,4 C 0,0 C 92 % 1014,3 hPa 0,0 l/m 19,0 km/h (3 Bft) O 85 0 min 0,000 mm 0,0 UV-I 115 W/m -1,7 C -9,9 C 24,1 km/h (4 Bft) 100,00 %
19.11.2018 11:18 -0,6 C 4,4 C 0,6 C 93 % 1014,2 hPa 0,0 l/m 17,1 km/h (3 Bft) O 80 0 min 0,000 mm 0,0 UV-I 115 W/m -1,6 C -8,9 C 22,5 km/h (4 Bft) 100,00 %
19.11.2018 11:20 -0,6 C 4,4 C 0,6 C 93 % 1014,2 hPa 0,0 l/m 16,8 km/h (3 Bft) O-NO 65 0 min 0,000 mm 0,0 UV-I 121 W/m -1,6 C -8,8 C 20,9 km/h (4 Bft) 100,00 %
19.11.2018 11:22 -0,6 C 4,4 C 0,6 C 93 % 1014,2 hPa 0,0 l/m 18,1 km/h (3 Bft) NO 53 0 min 0,000 mm 0,0 UV-I 138 W/m -1,6 C -9,5 C 24,1 km/h (4 Bft) 97,37 %
19.11.2018 11:24 -0,5 C 4,4 C 0,6 C 93 % 1014,2 hPa 0,0 l/m 16,2 km/h (3 Bft) O-NO 65 0 min 0,000 mm 0,0 UV-I 135 W/m -1,5 C -8,3 C 22,5 km/h (4 Bft) 98,00 %
19.11.2018 11:26 -0,5 C 4,4 C 0,6 C 93 % 1014,2 hPa 0,0 l/m 16,9 km/h (3 Bft) O 79 0 min 0,000 mm 0,0 UV-I 126 W/m -1,5 C -8,7 C 20,9 km/h (4 Bft) 97,87 %
19.11.2018 11:28 -0,6 C 4,4 C 0,6 C 93 % 1014,2 hPa 0,0 l/m 18,5 km/h (3 Bft) O-NO 78 0 min 0,000 mm 0,0 UV-I 118 W/m -1,6 C -9,7 C 22,5 km/h (4 Bft) 95,74 %
19.11.2018 11:30 -0,6 C 4,4 C 0,0 C 93 % 1014,2 hPa 0,0 l/m 18,7 km/h (3 Bft) O-NO 69 0 min 0,000 mm 0,0 UV-I 102 W/m -1,6 C -9,8 C 22,5 km/h (4 Bft) 93,62 %
19.11.2018 11:32 -0,6 C 4,4 C 0,6 C 93 % 1014,2 hPa 0,0 l/m 16,9 km/h (3 Bft) O-NO 76 0 min 0,000 mm 0,0 UV-I 107 W/m -1,6 C -8,8 C 20,9 km/h (4 Bft) 92,00 %
19.11.2018 11:34 -0,6 C 4,4 C 0,6 C 93 % 1014,2 hPa 0,0 l/m 16,0 km/h (3 Bft) O-NO 65 0 min 0,000 mm 0,0 UV-I 123 W/m -1,6 C -8,3 C 20,9 km/h (4 Bft) 93,62 %
19.11.2018 11:36 -0,6 C 4,4 C 0,6 C 93 % 1014,1 hPa 0,0 l/m 16,7 km/h (3 Bft) O 98 0 min 0,000 mm 0,0 UV-I 137 W/m -1,6 C -8,7 C 24,1 km/h (4 Bft) 91,49 %
19.11.2018 11:38 -0,6 C 4,4 C 0,6 C 93 % 1014,2 hPa 0,0 l/m 13,9 km/h (3 Bft) O 82 0 min 0,000 mm 0,0 UV-I 137 W/m -1,6 C -7,0 C 19,3 km/h (3 Bft) 94,00 %
19.11.2018 11:40 -0,5 C 4,4 C 0,6 C 93 % 1014,1 hPa 0,0 l/m 16,4 km/h (3 Bft) O-NO 67 0 min 0,000 mm 0,0 UV-I 141 W/m -1,5 C -8,4 C 22,5 km/h (4 Bft) 93,62 %
19.11.2018 11:42 -0,5 C 4,4 C 0,6 C 93 % 1014,0 hPa 0,0 l/m 16,1 km/h (3 Bft) O 80 0 min 0,000 mm 0,0 UV-I 148 W/m -1,5 C -8,2 C 22,5 km/h (4 Bft) 90,00 %
19.11.2018 11:44 -0,5 C 4,4 C 0,6 C 93 % 1014,0 hPa 0,0 l/m 21,9 km/h (4 Bft) O-NO 63 0 min 0,000 mm 0,0 UV-I 143 W/m -1,5 C -11,1 C 27,4 km/h (4 Bft) 89,36 %
19.11.2018 11:46 -0,5 C 4,4 C 0,6 C 93 % 1014,0 hPa 0,0 l/m 21,8 km/h (4 Bft) O-NO 59 0 min 0,000 mm 0,0 UV-I 142 W/m -1,5 C -11,1 C 29,0 km/h (5 Bft) 94,74 %
19.11.2018 11:48 -0,5 C 4,4 C 0,6 C 92 % 1014,0 hPa 0,0 l/m 24,4 km/h (4 Bft) O-NO 76 0 min 0,000 mm 0,0 UV-I 127 W/m -1,6 C -12,2 C 32,2 km/h (5 Bft) 91,49 %
19.11.2018 11:50 -0,5 C 4,4 C 0,6 C 92 % 1013,9 hPa 0,0 l/m 21,4 km/h (4 Bft) O-NO 65 0 min 0,000 mm 0,0 UV-I 125 W/m -1,6 C -10,9 C 30,6 km/h (5 Bft) 95,74 %
19.11.2018 11:52 -0,5 C 4,4 C 0,6 C 92 % 1014,0 hPa 0,0 l/m 19,3 km/h (3 Bft) O-NO 61 0 min 0,000 mm 0,0 UV-I 128 W/m -1,6 C -9,9 C 27,4 km/h (4 Bft) 95,74 %
19.11.2018 11:54 -0,4 C 4,4 C 0,6 C 92 % 1014,0 hPa 0,0 l/m 18,4 km/h (3 Bft) O 90 0 min 0,000 mm 0,0 UV-I 160 W/m -1,5 C -9,4 C 27,4 km/h (4 Bft) 98,00 %
19.11.2018 11:56 -0,4 C 4,4 C 0,6 C 93 % 1013,9 hPa 0,0 l/m 20,8 km/h (4 Bft) O-NO 68 0 min 0,000 mm 0,0 UV-I 148 W/m -1,4 C -10,5 C 27,4 km/h (4 Bft) 95,74 %
19.11.2018 11:58 -0,4 C 4,4 C 0,6 C 92 % 1013,9 hPa 0,0 l/m 19,6 km/h (3 Bft) O-NO 73 0 min 0,000 mm 0,0 UV-I 120 W/m -1,5 C -10,0 C 27,4 km/h (4 Bft) 95,74 %
19.11.2018 12:00 -0,4 C 4,4 C 0,6 C 92 % 1013,9 hPa 0,0 l/m 15,8 km/h (3 Bft) O 88 0 min 0,051 mm 0,0 UV-I 103 W/m -1,5 C -7,9 C 22,5 km/h (4 Bft) 97,92 %
19.11.2018 12:02 -0,4 C 4,4 C 0,6 C 92 % 1013,9 hPa 0,0 l/m 16,0 km/h (3 Bft) O 94 0 min 0,000 mm 0,0 UV-I 97 W/m -1,5 C -8,1 C 22,5 km/h (4 Bft) 95,74 %
19.11.2018 12:04 -0,4 C 4,4 C 0,6 C 93 % 1013,9 hPa 0,0 l/m 16,5 km/h (3 Bft) O 96 0 min 0,000 mm 0,0 UV-I 96 W/m -1,4 C -8,3 C 25,7 km/h (4 Bft) 97,37 %
19.11.2018 12:06 -0,4 C 4,4 C 0,6 C 93 % 1013,9 hPa 0,0 l/m 19,2 km/h (3 Bft) O-NO 75 0 min 0,000 mm 0,0 UV-I 95 W/m -1,4 C -9,8 C 25,7 km/h (4 Bft) 96,00 %
19.11.2018 12:08 -0,4 C 4,4 C 0,6 C 93 % 1013,8 hPa 0,0 l/m 22,4 km/h (4 Bft) O 83 0 min 0,000 mm 0,0 UV-I 78 W/m -1,4 C -11,2 C 35,4 km/h (5 Bft) 97,87 %
19.11.2018 12:10 -0,4 C 4,4 C 0,6 C 93 % 1013,9 hPa 0,0 l/m 20,1 km/h (4 Bft) O 92 0 min 0,000 mm 0,0 UV-I 81 W/m -1,4 C -10,2 C 30,6 km/h (5 Bft) 95,74 %
19.11.2018 12:12 -0,4 C 4,4 C 0,6 C 93 % 1013,8 hPa 0,0 l/m 17,8 km/h (3 Bft) O-NO 71 0 min 0,000 mm 0,0 UV-I 95 W/m -1,4 C -9,1 C 25,7 km/h (4 Bft) 95,74 %
19.11.2018 12:14 -0,4 C 4,4 C 0,6 C 93 % 1013,9 hPa 0,0 l/m 18,4 km/h (3 Bft) O-NO 71 0 min 0,000 mm 0,0 UV-I 92 W/m -1,4 C -9,4 C 29,0 km/h (5 Bft) 95,74 %
19.11.2018 12:16 -0,4 C 4,4 C 0,6 C 93 % 1013,8 hPa 0,0 l/m 22,4 km/h (4 Bft) NO 51 0 min 0,000 mm 0,0 UV-I 85 W/m -1,4 C -11,2 C 30,6 km/h (5 Bft) 97,87 %
19.11.2018 12:18 -0,4 C 4,4 C 0,6 C 93 % 1013,9 hPa 0,0 l/m 15,8 km/h (3 Bft) O-NO 71 0 min 0,000 mm 0,0 UV-I 99 W/m -1,4 C -7,9 C 20,9 km/h (4 Bft) 97,87 %
19.11.2018 12:20 -0,4 C 4,4 C 0,6 C 93 % 1013,9 hPa 0,0 l/m 16,7 km/h (3 Bft) O-NO 77 0 min 0,000 mm 0,0 UV-I 99 W/m -1,4 C -8,5 C 24,1 km/h (4 Bft) 91,49 %
19.11.2018 12:22 -0,3 C 4,4 C 0,6 C 93 % 1013,8 hPa 0,0 l/m 17,2 km/h (3 Bft) O 81 0 min 0,000 mm 0,0 UV-I 86 W/m -1,3 C -8,6 C 22,5 km/h (4 Bft) 96,00 %
19.11.2018 12:24 -0,3 C 4,4 C 0,6 C 93 % 1013,8 hPa 0,0 l/m 15,3 km/h (3 Bft) O 82 0 min 0,000 mm 0,0 UV-I 83 W/m -1,3 C -7,5 C 19,3 km/h (3 Bft) 97,87 %
19.11.2018 12:26 -0,3 C 4,4 C 0,6 C 93 % 1013,8 hPa 0,0 l/m 15,9 km/h (3 Bft) O-NO 74 0 min 0,000 mm 0,0 UV-I 80 W/m -1,3 C -7,9 C 25,7 km/h (4 Bft) 98,00 %
19.11.2018 12:28 -0,3 C 4,4 C 0,6 C 93 % 1013,8 hPa 0,0 l/m 23,0 km/h (4 Bft) O-NO 63 0 min 0,000 mm 0,0 UV-I 88 W/m -1,3 C -11,3 C 33,8 km/h (5 Bft) 93,62 %
19.11.2018 12:30 -0,3 C 4,4 C 0,6 C 92 % 1013,8 hPa 0,0 l/m 24,1 km/h (4 Bft) O-NO 77 0 min 0,000 mm 0,0 UV-I 96 W/m -1,4 C -11,8 C 33,8 km/h (5 Bft) 95,74 %
19.11.2018 12:32 -0,3 C 4,4 C 0,6 C 92 % 1013,8 hPa 0,0 l/m 24,3 km/h (4 Bft) O 83 0 min 0,000 mm 0,0 UV-I 98 W/m -1,4 C -11,9 C 30,6 km/h (5 Bft) 97,22 %
19.11.2018 12:34 -0,3 C 4,4 C 0,6 C 92 % 1013,7 hPa 0,0 l/m 24,0 km/h (4 Bft) O 87 0 min 0,000 mm 0,0 UV-I 98 W/m -1,4 C -11,7 C 30,6 km/h (5 Bft) 96,15 %
19.11.2018 12:36 -0,3 C 4,4 C 0,6 C 92 % 1013,7 hPa 0,0 l/m 21,6 km/h (4 Bft) O 91 0 min 0,000 mm 0,0 UV-I 98 W/m -1,4 C -10,7 C 30,6 km/h (5 Bft) 97,92 %
19.11.2018 12:38 -0,3 C 4,4 C 0,6 C 92 % 1013,7 hPa 0,0 l/m 21,0 km/h (4 Bft) O-NO 61 0 min 0,000 mm 0,0 UV-I 111 W/m -1,4 C -10,5 C 27,4 km/h (4 Bft) 95,74 %
19.11.2018 12:40 -0,3 C 4,4 C 0,6 C 92 % 1013,7 hPa 0,0 l/m 28,9 km/h (5 Bft) O 85 0 min 0,000 mm 0,0 UV-I 102 W/m -1,4 C -13,5 C 38,6 km/h (5 Bft) 95,74 %
19.11.2018 12:42 -0,3 C 4,4 C 0,6 C 92 % 1013,6 hPa 0,0 l/m 23,5 km/h (4 Bft) O 86 0 min 0,000 mm 0,0 UV-I 82 W/m -1,4 C -11,5 C 30,6 km/h (5 Bft) 93,62 %
19.11.2018 12:44 -0,3 C 4,4 C 0,6 C 92 % 1013,6 hPa 0,0 l/m 21,6 km/h (4 Bft) O 94 0 min 0,000 mm 0,0 UV-I 83 W/m -1,4 C -10,7 C 27,4 km/h (4 Bft) 96,00 %
19.11.2018 12:46 -0,3 C 4,4 C 0,6 C 91 % 1013,6 hPa 0,0 l/m 21,4 km/h (4 Bft) O-NO 73 0 min 0,000 mm 0,0 UV-I 97 W/m -1,6 C -10,7 C 29,0 km/h (5 Bft) 95,74 %
19.11.2018 12:48 -0,3 C 4,4 C 0,6 C 91 % 1013,6 hPa 0,0 l/m 23,7 km/h (4 Bft) O-SO 117 0 min 0,000 mm 0,0 UV-I 112 W/m -1,6 C -11,6 C 33,8 km/h (5 Bft) 97,87 %
19.11.2018 12:50 -0,3 C 4,4 C 0,6 C 91 % 1013,5 hPa 0,0 l/m 24,1 km/h (4 Bft) O-SO 108 0 min 0,000 mm 0,0 UV-I 131 W/m -1,6 C -11,8 C 37,0 km/h (5 Bft) 92,11 %
19.11.2018 12:52 -0,2 C 4,4 C 0,6 C 91 % 1013,5 hPa 0,0 l/m 22,3 km/h (4 Bft) O 90 0 min 0,000 mm 0,0 UV-I 125 W/m -1,5 C -10,9 C 33,8 km/h (5 Bft) 97,87 %
19.11.2018 12:54 -0,2 C 4,4 C 1,1 C 91 % 1013,6 hPa 0,0 l/m 18,1 km/h (3 Bft) O 90 0 min 0,000 mm 0,0 UV-I 125 W/m -1,5 C -9,0 C 25,7 km/h (4 Bft) 98,00 %
19.11.2018 12:56 -0,2 C 4,4 C 1,1 C 91 % 1013,6 hPa 0,0 l/m 19,0 km/h (3 Bft) O-NO 59 0 min 0,000 mm 0,0 UV-I 124 W/m -1,5 C -9,4 C 27,4 km/h (4 Bft) 97,87 %
19.11.2018 12:58 -0,2 C 4,4 C 0,6 C 91 % 1013,6 hPa 0,0 l/m 22,5 km/h (4 Bft) O 85 0 min 0,000 mm 0,0 UV-I 89 W/m -1,5 C -11,0 C 29,0 km/h (5 Bft) 95,74 %
19.11.2018 13:00 -0,2 C 4,4 C 0,6 C 91 % 1013,5 hPa 0,0 l/m 23,7 km/h (4 Bft) O-SO 103 0 min 0,051 mm 0,0 UV-I 98 W/m -1,5 C -11,5 C 32,2 km/h (5 Bft) 97,87 %
19.11.2018 13:02 -0,2 C 4,4 C 0,6 C 91 % 1013,4 hPa 0,0 l/m 24,4 km/h (4 Bft) O-NO 73 0 min 0,000 mm 0,0 UV-I 103 W/m -1,5 C -11,8 C 35,4 km/h (5 Bft) 100,00 %
19.11.2018 13:04 -0,2 C 4,4 C 0,6 C 91 % 1013,5 hPa 0,0 l/m 25,5 km/h (4 Bft) O 91 0 min 0,000 mm 0,0 UV-I 118 W/m -1,5 C -12,2 C 30,6 km/h (5 Bft) 100,00 %
19.11.2018 13:06 -0,2 C 4,4 C 0,6 C 91 % 1013,4 hPa 0,0 l/m 25,7 km/h (4 Bft) O 93 0 min 0,000 mm 0,0 UV-I 92 W/m -1,5 C -12,2 C 33,8 km/h (5 Bft) 97,87 %
19.11.2018 13:08 -0,3 C 4,4 C 0,6 C 91 % 1013,4 hPa 0,0 l/m 28,3 km/h (4 Bft) O 85 0 min 0,000 mm 0,0 UV-I 78 W/m -1,6 C -13,3 C 38,6 km/h (5 Bft) 98,00 %
19.11.2018 13:10 -0,3 C 4,4 C 0,6 C 91 % 1013,5 hPa 0,0 l/m 21,2 km/h (4 Bft) O-SO 106 0 min 0,000 mm 0,0 UV-I 70 W/m -1,6 C -10,6 C 30,6 km/h (5 Bft) 97,87 %
19.11.2018 13:12 -0,3 C 4,4 C 0,6 C 91 % 1013,4 hPa 0,0 l/m 25,5 km/h (4 Bft) O-NO 75 0 min 0,000 mm 0,0 UV-I 69 W/m -1,6 C -12,3 C 40,2 km/h (6 Bft) 97,87 %
19.11.2018 13:14 -0,3 C 4,4 C 0,0 C 91 % 1013,4 hPa 0,0 l/m 26,6 km/h (4 Bft) NO 53 0 min 0,000 mm 0,0 UV-I 65 W/m -1,6 C -12,7 C 37,0 km/h (5 Bft) 100,00 %
19.11.2018 13:16 -0,3 C 4,4 C 0,6 C 91 % 1013,3 hPa 0,0 l/m 26,7 km/h (4 Bft) O-NO 62 0 min 0,000 mm 0,0 UV-I 77 W/m -1,6 C -12,7 C 38,6 km/h (5 Bft) 100,00 %
19.11.2018 13:18 -0,3 C 4,4 C 0,6 C 91 % 1013,3 hPa 0,0 l/m 25,8 km/h (4 Bft) O-NO 76 0 min 0,000 mm 0,0 UV-I 89 W/m -1,6 C -12,4 C 35,4 km/h (5 Bft) 100,00 %
19.11.2018 13:20 -0,3 C 4,4 C 0,6 C 91 % 1013,3 hPa 0,0 l/m 22,9 km/h (4 Bft) O 98 0 min 0,000 mm 0,0 UV-I 104 W/m -1,6 C -11,3 C 38,6 km/h (5 Bft) 97,87 %
19.11.2018 13:22 -0,3 C 4,4 C 0,6 C 91 % 1013,2 hPa 0,0 l/m 27,6 km/h (4 Bft) O 81 0 min 0,000 mm 0,0 UV-I 104 W/m -1,6 C -13,1 C 33,8 km/h (5 Bft) 97,87 %
19.11.2018 13:24 -0,3 C 4,4 C 0,6 C 91 % 1013,2 hPa 0,0 l/m 22,3 km/h (4 Bft) O-NO 74 0 min 0,000 mm 0,0 UV-I 85 W/m -1,6 C -11,0 C 33,8 km/h (5 Bft) 97,87 %
19.11.2018 13:26 -0,3 C 4,4 C 0,6 C 91 % 1013,2 hPa 0,0 l/m 31,1 km/h (5 Bft) O 87 0 min 0,000 mm 0,0 UV-I 81 W/m -1,6 C -14,2 C 46,7 km/h (6 Bft) 95,74 %
19.11.2018 13:28 -0,3 C 4,4 C 0,6 C 91 % 1013,2 hPa 0,0 l/m 30,1 km/h (5 Bft) O-NO 75 0 min 0,000 mm 0,0 UV-I 80 W/m -1,6 C -13,9 C 41,8 km/h (6 Bft) 93,62 %
19.11.2018 13:30 -0,3 C 4,4 C 0,6 C 91 % 1013,2 hPa 0,0 l/m 26,3 km/h (4 Bft) O 79 0 min 0,000 mm 0,0 UV-I 76 W/m -1,6 C -12,6 C 32,2 km/h (5 Bft) 97,87 %
19.11.2018 13:32 -0,3 C 4,4 C 0,6 C 92 % 1013,2 hPa 0,0 l/m 24,6 km/h (4 Bft) O-SO 109 0 min 0,000 mm 0,0 UV-I 78 W/m -1,4 C -12,0 C 35,4 km/h (5 Bft) 97,87 %
19.11.2018 13:34 -0,3 C 4,4 C 0,6 C 92 % 1013,2 hPa 0,0 l/m 19,3 km/h (3 Bft) O 86 0 min 0,000 mm 0,0 UV-I 81 W/m -1,4 C -9,7 C 30,6 km/h (5 Bft) 97,37 %
19.11.2018 13:36 -0,2 C 4,4 C 0,6 C 91 % 1013,2 hPa 0,0 l/m 21,6 km/h (4 Bft) O-NO 73 0 min 0,000 mm 0,0 UV-I 78 W/m -1,5 C -10,6 C 30,6 km/h (5 Bft) 95,74 %
19.11.2018 13:38 -0,2 C 4,4 C 0,6 C 92 % 1013,2 hPa 0,0 l/m 27,3 km/h (4 Bft) O-SO 123 0 min 0,000 mm 0,0 UV-I 91 W/m -1,3 C -12,8 C 43,5 km/h (6 Bft) 97,87 %
19.11.2018 13:40 -0,2 C 4,4 C 0,6 C 92 % 1013,3 hPa 0,0 l/m 22,0 km/h (4 Bft) O 85 0 min 0,000 mm 0,0 UV-I 99 W/m -1,3 C -10,8 C 37,0 km/h (5 Bft) 97,87 %
19.11.2018 13:42 -0,2 C 4,4 C 0,6 C 92 % 1013,3 hPa 0,0 l/m 22,8 km/h (4 Bft) O 94 0 min 0,000 mm 0,0 UV-I 79 W/m -1,3 C -11,1 C 43,5 km/h (6 Bft) 97,87 %
19.11.2018 13:44 -0,2 C 4,4 C 0,6 C 91 % 1013,3 hPa 0,0 l/m 27,8 km/h (4 Bft) O-NO 66 0 min 0,000 mm 0,0 UV-I 82 W/m -1,5 C -13,0 C 38,6 km/h (5 Bft) 89,36 %
19.11.2018 13:46 -0,2 C 4,4 C 0,6 C 92 % 1013,3 hPa 0,0 l/m 22,4 km/h (4 Bft) O-SO 108 0 min 0,000 mm 0,0 UV-I 80 W/m -1,3 C -11,0 C 37,0 km/h (5 Bft) 93,62 %
19.11.2018 13:48 -0,2 C 4,4 C 0,6 C 92 % 1013,5 hPa 0,0 l/m 24,1 km/h (4 Bft) O 90 0 min 0,000 mm 0,0 UV-I 70 W/m -1,3 C -11,6 C 35,4 km/h (5 Bft) 96,00 %
19.11.2018 13:50 -0,2 C 4,4 C 0,6 C 91 % 1013,5 hPa 0,0 l/m 25,5 km/h (4 Bft) O 82 0 min 0,000 mm 0,0 UV-I 86 W/m -1,5 C -12,2 C 37,0 km/h (5 Bft) 97,87 %
19.11.2018 13:52 -0,2 C 4,4 C 0,6 C 91 % 1013,4 hPa 0,0 l/m 28,8 km/h (4 Bft) SO 126 0 min 0,000 mm 0,0 UV-I 100 W/m -1,5 C -13,3 C 40,2 km/h (6 Bft) 97,87 %
19.11.2018 13:54 -0,2 C 4,4 C 0,6 C 91 % 1013,4 hPa 0,0 l/m 29,0 km/h (5 Bft) O 94 0 min 0,000 mm 0,0 UV-I 108 W/m -1,5 C -13,4 C 40,2 km/h (6 Bft) 97,87 %
19.11.2018 13:56 -0,2 C 4,4 C 0,6 C 91 % 1013,5 hPa 0,0 l/m 18,6 km/h (3 Bft) O 82 0 min 0,000 mm 0,0 UV-I 110 W/m -1,5 C -9,2 C 25,7 km/h (4 Bft) 100,00 %
19.11.2018 13:58 -0,2 C 4,4 C 0,6 C 91 % 1013,5 hPa 0,0 l/m 21,7 km/h (4 Bft) O 95 0 min 0,000 mm 0,0 UV-I 109 W/m -1,5 C -10,7 C 32,2 km/h (5 Bft) 94,74 %
19.11.2018 14:00 -0,1 C 4,4 C 0,6 C 91 % 1013,4 hPa 0,0 l/m 27,6 km/h (4 Bft) O-SO 108 0 min 0,050 mm 0,0 UV-I 108 W/m -1,4 C -12,8 C 40,2 km/h (6 Bft) 97,87 %
19.11.2018 14:02 -0,1 C 4,4 C 0,6 C 91 % 1013,5 hPa 0,0 l/m 25,0 km/h (4 Bft) O-SO 110 0 min 0,000 mm 0,0 UV-I 99 W/m -1,4 C -11,9 C 41,8 km/h (6 Bft) 98,00 %
19.11.2018 14:04 -0,1 C 4,4 C 0,6 C 91 % 1013,5 hPa 0,0 l/m 23,9 km/h (4 Bft) O-NO 63 0 min 0,000 mm 0,0 UV-I 94 W/m -1,4 C -11,4 C 38,6 km/h (5 Bft) 97,87 %
19.11.2018 14:06 -0,1 C 4,4 C 0,6 C 91 % 1013,6 hPa 0,0 l/m 27,2 km/h (4 Bft) O 93 0 min 0,000 mm 0,0 UV-I 94 W/m -1,4 C -12,6 C 41,8 km/h (6 Bft) 97,87 %
19.11.2018 14:08 -0,1 C 4,4 C 0,6 C 91 % 1013,5 hPa 0,0 l/m 28,3 km/h (4 Bft) O 79 0 min 0,000 mm 0,0 UV-I 85 W/m -1,4 C -13,0 C 45,1 km/h (6 Bft) 97,87 %
19.11.2018 14:10 -0,1 C 4,4 C 0,6 C 91 % 1013,5 hPa 0,0 l/m 27,7 km/h (4 Bft) O 92 0 min 0,000 mm 0,0 UV-I 83 W/m -1,4 C -12,8 C 40,2 km/h (6 Bft) 93,62 %
19.11.2018 14:12 -0,1 C 4,4 C 0,6 C 91 % 1013,5 hPa 0,0 l/m 25,0 km/h (4 Bft) O 95 0 min 0,000 mm 0,0 UV-I 78 W/m -1,4 C -11,9 C 35,4 km/h (5 Bft) 97,87 %
19.11.2018 14:14 -0,1 C 4,4 C 0,6 C 91 % 1013,4 hPa 0,0 l/m 19,9 km/h (4 Bft) O-NO 64 0 min 0,000 mm 0,0 UV-I 75 W/m -1,4 C -9,7 C 29,0 km/h (5 Bft) 98,11 %
19.11.2018 14:16 -0,1 C 4,4 C 0,6 C 91 % 1013,5 hPa 0,0 l/m 23,9 km/h (4 Bft) O-SO 106 0 min 0,000 mm 0,0 UV-I 81 W/m -1,4 C -11,4 C 35,4 km/h (5 Bft) 97,37 %
19.11.2018 14:18 -0,1 C 4,4 C 0,6 C 91 % 1013,4 hPa 0,0 l/m 25,0 km/h (4 Bft) O-SO 103 0 min 0,000 mm 0,0 UV-I 79 W/m -1,4 C -11,9 C 33,8 km/h (5 Bft) 97,87 %
19.11.2018 14:20 -0,1 C 4,4 C 0,6 C 91 % 1013,5 hPa 0,0 l/m 23,8 km/h (4 Bft) O-SO 104 0 min 0,000 mm 0,0 UV-I 77 W/m -1,4 C -11,4 C 30,6 km/h (5 Bft) 97,87 %
19.11.2018 14:22 -0,1 C 4,4 C 0,6 C 91 % 1013,5 hPa 0,0 l/m 29,5 km/h (5 Bft) O-SO 103 0 min 0,000 mm 0,0 UV-I 77 W/m -1,4 C -13,4 C 41,8 km/h (6 Bft) 100,00 %
19.11.2018 14:24 -0,1 C 4,4 C 0,6 C 90 % 1013,4 hPa 0,0 l/m 24,4 km/h (4 Bft) O-NO 67 0 min 0,000 mm 0,0 UV-I 77 W/m -1,5 C -11,6 C 37,0 km/h (5 Bft) 100,00 %
19.11.2018 14:26 -0,1 C 4,4 C 0,6 C 91 % 1013,4 hPa 0,0 l/m 20,9 km/h (4 Bft) O-SO 111 0 min 0,000 mm 0,0 UV-I 77 W/m -1,4 C -10,2 C 33,8 km/h (5 Bft) 100,00 %
19.11.2018 14:28 -0,1 C 4,4 C 0,6 C 90 % 1013,4 hPa 0,0 l/m 23,6 km/h (4 Bft) O 98 0 min 0,000 mm 0,0 UV-I 71 W/m -1,5 C -11,3 C 38,6 km/h (5 Bft) 100,00 %
19.11.2018 14:30 -0,1 C 4,4 C 0,6 C 91 % 1013,4 hPa 0,0 l/m 25,3 km/h (4 Bft) O-SO 104 0 min 0,000 mm 0,0 UV-I 72 W/m -1,4 C -12,0 C 41,8 km/h (6 Bft) 97,87 %
19.11.2018 14:32 -0,1 C 4,4 C 0,6 C 90 % 1013,3 hPa 0,0 l/m 29,1 km/h (5 Bft) O 92 0 min 0,000 mm 0,0 UV-I 71 W/m -1,5 C -13,3 C 43,5 km/h (6 Bft) 100,00 %
19.11.2018 14:34 -0,1 C 4,4 C 0,6 C 90 % 1013,3 hPa 0,0 l/m 28,2 km/h (4 Bft) O-NO 77 0 min 0,000 mm 0,0 UV-I 65 W/m -1,5 C -13,0 C 40,2 km/h (6 Bft) 100,00 %
19.11.2018 14:36 -0,1 C 4,4 C 0,6 C 91 % 1013,2 hPa 0,0 l/m 23,0 km/h (4 Bft) O 84 0 min 0,000 mm 0,0 UV-I 58 W/m -1,4 C -11,1 C 35,4 km/h (5 Bft) 100,00 %
19.11.2018 14:38 -0,1 C 4,4 C 0,6 C 90 % 1013,2 hPa 0,0 l/m 23,5 km/h (4 Bft) O-SO 109 0 min 0,000 mm 0,0 UV-I 55 W/m -1,5 C -11,3 C 37,0 km/h (5 Bft) 97,87 %
19.11.2018 14:40 -0,1 C 4,4 C 0,0 C 91 % 1013,2 hPa 0,0 l/m 24,4 km/h (4 Bft) O 92 0 min 0,000 mm 0,0 UV-I 51 W/m -1,4 C -11,6 C 37,0 km/h (5 Bft) 100,00 %
19.11.2018 14:42 -0,2 C 4,4 C 0,0 C 91 % 1013,2 hPa 0,0 l/m 20,5 km/h (4 Bft) O-SO 107 0 min 0,000 mm 0,0 UV-I 50 W/m -1,5 C -10,1 C 25,7 km/h (4 Bft) 95,74 %
19.11.2018 14:44 -0,1 C 4,4 C 0,0 C 91 % 1013,1 hPa 0,0 l/m 19,7 km/h (3 Bft) O 90 0 min 0,000 mm 0,0 UV-I 51 W/m -1,4 C -9,6 C 29,0 km/h (5 Bft) 100,00 %
19.11.2018 14:46 -0,2 C 4,4 C 0,0 C 91 % 1013,2 hPa 0,0 l/m 23,6 km/h (4 Bft) O-NO 76 0 min 0,000 mm 0,0 UV-I 46 W/m -1,5 C -11,4 C 38,6 km/h (5 Bft) 100,00 %
19.11.2018 14:48 -0,2 C 4,4 C 0,0 C 91 % 1013,1 hPa 0,0 l/m 22,5 km/h (4 Bft) O-SO 108 0 min 0,000 mm 0,0 UV-I 40 W/m -1,5 C -11,0 C 32,2 km/h (5 Bft) 100,00 %
19.11.2018 14:50 -0,2 C 4,4 C 0,0 C 91 % 1013,1 hPa 0,0 l/m 25,7 km/h (4 Bft) O 90 0 min 0,000 mm 0,0 UV-I 40 W/m -1,5 C -12,2 C 38,6 km/h (5 Bft) 100,00 %
19.11.2018 14:52 -0,2 C 4,4 C 0,0 C 91 % 1013,1 hPa 0,0 l/m 27,9 km/h (4 Bft) O-NO 65 0 min 0,000 mm 0,0 UV-I 45 W/m -1,5 C -13,0 C 40,2 km/h (6 Bft) 100,00 %
19.11.2018 14:54 -0,2 C 4,4 C 0,0 C 91 % 1013,0 hPa 0,0 l/m 25,2 km/h (4 Bft) O 95 0 min 0,000 mm 0,0 UV-I 45 W/m -1,5 C -12,1 C 37,0 km/h (5 Bft) 97,87 %
19.11.2018 14:56 -0,2 C 4,4 C 0,0 C 91 % 1013,0 hPa 0,0 l/m 24,4 km/h (4 Bft) O-NO 74 0 min 0,000 mm 0,0 UV-I 46 W/m -1,5 C -11,8 C 37,0 km/h (5 Bft) 100,00 %
19.11.2018 14:58 -0,2 C 4,4 C 0,0 C 91 % 1012,9 hPa 0,0 l/m 28,3 km/h (4 Bft) O 84 0 min 0,000 mm 0,0 UV-I 47 W/m -1,5 C -13,1 C 41,8 km/h (6 Bft) 100,00 %
19.11.2018 15:00 -0,2 C 4,4 C 0,0 C 91 % 1012,9 hPa 0,0 l/m 24,5 km/h (4 Bft) O-NO 71 0 min 0,026 mm 0,0 UV-I 49 W/m -1,5 C -11,8 C 37,0 km/h (5 Bft) 100,00 %
19.11.2018 15:02 -0,2 C 4,4 C 0,0 C 91 % 1012,9 hPa 0,0 l/m 28,2 km/h (4 Bft) O-NO 72 0 min 0,000 mm 0,0 UV-I 48 W/m -1,5 C -13,1 C 33,8 km/h (5 Bft) 97,87 %
19.11.2018 15:04 -0,2 C 4,4 C 0,0 C 91 % 1012,8 hPa 0,0 l/m 32,3 km/h (5 Bft) O-NO 62 0 min 0,000 mm 0,0 UV-I 45 W/m -1,5 C -14,4 C 41,8 km/h (6 Bft) 100,00 %
19.11.2018 15:06 -0,2 C 4,4 C 0,0 C 91 % 1012,8 hPa 0,0 l/m 28,9 km/h (5 Bft) O 82 0 min 0,000 mm 0,0 UV-I 43 W/m -1,5 C -13,3 C 40,2 km/h (6 Bft) 100,00 %
19.11.2018 15:08 -0,3 C 4,4 C 0,0 C 91 % 1012,8 hPa 0,0 l/m 29,3 km/h (5 Bft) O-NO 62 0 min 0,000 mm 0,0 UV-I 41 W/m -1,6 C -13,6 C 46,7 km/h (6 Bft) 100,00 %
19.11.2018 15:10 -0,3 C 4,4 C 0,0 C 91 % 1012,8 hPa 0,0 l/m 31,4 km/h (5 Bft) O 95 0 min 0,000 mm 0,0 UV-I 35 W/m -1,6 C -14,2 C 41,8 km/h (6 Bft) 100,00 %
19.11.2018 15:12 -0,3 C 4,4 C 0,0 C 91 % 1012,8 hPa 0,0 l/m 22,5 km/h (4 Bft) O-NO 78 0 min 0,000 mm 0,0 UV-I 33 W/m -1,6 C -11,1 C 35,4 km/h (5 Bft) 97,87 %
19.11.2018 15:14 -0,2 C 4,4 C 0,0 C 91 % 1012,8 hPa 0,0 l/m 33,7 km/h (5 Bft) O-NO 63 0 min 0,000 mm 0,0 UV-I 28 W/m -1,5 C -14,7 C 43,5 km/h (6 Bft) 95,12 %
19.11.2018 15:16 -0,3 C 4,4 C 0,0 C 92 % 1012,9 hPa 0,0 l/m 29,1 km/h (5 Bft) O 81 0 min 0,000 mm 0,0 UV-I 26 W/m -1,4 C -13,5 C 37,0 km/h (5 Bft) 97,87 %
19.11.2018 15:18 -0,3 C 4,4 C 0,0 C 92 % 1012,8 hPa 0,0 l/m 25,7 km/h (4 Bft) O-SO 102 0 min 0,000 mm 0,0 UV-I 25 W/m -1,4 C -12,4 C 41,8 km/h (6 Bft) 95,74 %
19.11.2018 15:20 -0,3 C 4,4 C 0,0 C 92 % 1012,9 hPa 0,0 l/m 27,1 km/h (4 Bft) O-SO 103 0 min 0,000 mm 0,0 UV-I 25 W/m -1,4 C -12,9 C 35,4 km/h (5 Bft) 97,87 %
19.11.2018 15:22 -0,3 C 4,4 C 0,0 C 92 % 1012,8 hPa 0,0 l/m 26,9 km/h (4 Bft) O-NO 76 0 min 0,000 mm 0,0 UV-I 27 W/m -1,4 C -12,8 C 38,6 km/h (5 Bft) 95,74 %
19.11.2018 15:24 -0,3 C 4,4 C 0,0 C 92 % 1012,8 hPa 0,0 l/m 26,0 km/h (4 Bft) O-NO 75 0 min 0,000 mm 0,0 UV-I 29 W/m -1,4 C -12,5 C 32,2 km/h (5 Bft) 93,62 %
19.11.2018 15:26 -0,3 C 4,4 C 0,0 C 92 % 1012,8 hPa 0,0 l/m 30,0 km/h (5 Bft) O 92 0 min 0,000 mm 0,0 UV-I 29 W/m -1,4 C -13,8 C 46,7 km/h (6 Bft) 93,62 %
19.11.2018 15:28 -0,3 C 4,4 C 0,0 C 92 % 1012,9 hPa 0,0 l/m 29,0 km/h (5 Bft) NO 55 0 min 0,000 mm 0,0 UV-I 29 W/m -1,4 C -13,5 C 38,6 km/h (5 Bft) 96,00 %
19.11.2018 15:30 -0,3 C 4,4 C 0,0 C 92 % 1012,9 hPa 0,0 l/m 29,4 km/h (5 Bft) O 94 0 min 0,000 mm 0,0 UV-I 32 W/m -1,4 C -13,6 C 40,2 km/h (6 Bft) 94,00 %
19.11.2018 15:32 -0,3 C 4,4 C 0,0 C 92 % 1012,8 hPa 0,0 l/m 25,8 km/h (4 Bft) O 89 0 min 0,000 mm 0,0 UV-I 32 W/m -1,4 C -12,4 C 37,0 km/h (5 Bft) 93,62 %
19.11.2018 15:34 -0,3 C 4,4 C 0,0 C 92 % 1012,8 hPa 0,0 l/m 29,8 km/h (5 Bft) O 93 0 min 0,000 mm 0,0 UV-I 32 W/m -1,4 C -13,8 C 40,2 km/h (6 Bft) 89,47 %
19.11.2018 15:36 -0,3 C 4,4 C 0,0 C 92 % 1012,7 hPa 0,0 l/m 30,6 km/h (5 Bft) O 86 0 min 0,000 mm 0,0 UV-I 33 W/m -1,4 C -14,0 C 41,8 km/h (6 Bft) 93,62 %
19.11.2018 15:38 -0,3 C 4,4 C 0,0 C 92 % 1012,9 hPa 0,0 l/m 25,5 km/h (4 Bft) O 80 0 min 0,000 mm 0,0 UV-I 33 W/m -1,4 C -12,3 C 37,0 km/h (5 Bft) 97,87 %
19.11.2018 15:40 -0,3 C 4,4 C 0,0 C 92 % 1012,9 hPa 0,0 l/m 29,6 km/h (5 Bft) O-NO 67 0 min 0,000 mm 0,0 UV-I 33 W/m -1,4 C -13,7 C 43,5 km/h (6 Bft) 97,87 %
19.11.2018 15:42 -0,3 C 4,4 C 0,0 C 92 % 1012,9 hPa 0,0 l/m 29,6 km/h (5 Bft) O 96 0 min 0,000 mm 0,0 UV-I 33 W/m -1,4 C -13,7 C 41,8 km/h (6 Bft) 98,00 %
19.11.2018 15:44 -0,3 C 4,4 C 0,0 C 92 % 1013,0 hPa 0,0 l/m 24,9 km/h (4 Bft) NO 55 0 min 0,000 mm 0,0 UV-I 30 W/m -1,4 C -12,1 C 32,2 km/h (5 Bft) 95,74 %
19.11.2018 15:46 -0,3 C 3,9 C 0,0 C 92 % 1013,0 hPa 0,0 l/m 24,7 km/h (4 Bft) O-NO 63 0 min 0,000 mm 0,0 UV-I 27 W/m -1,4 C -12,0 C 37,0 km/h (5 Bft) 94,00 %
19.11.2018 15:48 -0,3 C 4,4 C 0,0 C 92 % 1013,0 hPa 0,0 l/m 24,8 km/h (4 Bft) O-NO 78 0 min 0,000 mm 0,0 UV-I 23 W/m -1,4 C -12,0 C 32,2 km/h (5 Bft) 94,87 %
19.11.2018 15:50 -0,3 C 3,9 C 0,0 C 92 % 1013,0 hPa 0,0 l/m 22,3 km/h (4 Bft) O-NO 77 0 min 0,000 mm 0,0 UV-I 22 W/m -1,4 C -11,0 C 35,4 km/h (5 Bft) 93,62 %
19.11.2018 15:52 -0,3 C 3,9 C 0,0 C 92 % 1013,1 hPa 0,0 l/m 26,4 km/h (4 Bft) O-NO 78 0 min 0,000 mm 0,0 UV-I 20 W/m -1,4 C -12,6 C 38,6 km/h (5 Bft) 93,62 %
19.11.2018 15:54 -0,3 C 4,4 C 0,0 C 92 % 1013,0 hPa 0,0 l/m 29,3 km/h (5 Bft) O-NO 63 0 min 0,000 mm 0,0 UV-I 19 W/m -1,4 C -13,6 C 40,2 km/h (6 Bft) 95,74 %
19.11.2018 15:56 -0,3 C 4,4 C 0,0 C 92 % 1013,0 hPa 0,0 l/m 26,8 km/h (4 Bft) O 90 0 min 0,000 mm 0,0 UV-I 19 W/m -1,4 C -12,8 C 38,6 km/h (5 Bft) 94,00 %
19.11.2018 15:58 -0,3 C 3,9 C 0,0 C 92 % 1013,1 hPa 0,0 l/m 26,2 km/h (4 Bft) O 90 0 min 0,000 mm 0,0 UV-I 17 W/m -1,4 C -12,6 C 41,8 km/h (6 Bft) 95,74 %
19.11.2018 16:00 -0,3 C 3,9 C 0,0 C 92 % 1013,1 hPa 0,0 l/m 30,9 km/h (5 Bft) O 91 0 min 0,025 mm 0,0 UV-I 15 W/m -1,4 C -14,1 C 40,2 km/h (6 Bft) 97,87 %
19.11.2018 16:02 -0,3 C 3,9 C 0,0 C 92 % 1013,1 hPa 0,0 l/m 25,8 km/h (4 Bft) O-NO 78 0 min 0,000 mm 0,0 UV-I 13 W/m -1,4 C -12,4 C 35,4 km/h (5 Bft) 96,00 %
19.11.2018 16:04 -0,3 C 3,9 C 0,0 C 92 % 1013,1 hPa 0,0 l/m 25,8 km/h (4 Bft) O 94 0 min 0,000 mm 0,0 UV-I 12 W/m -1,4 C -12,4 C 33,8 km/h (5 Bft) 95,74 %
19.11.2018 16:06 -0,3 C 3,9 C 0,0 C 92 % 1013,1 hPa 0,0 l/m 26,6 km/h (4 Bft) O-NO 63 0 min 0,000 mm 0,0 UV-I 11 W/m -1,4 C -12,7 C 38,6 km/h (5 Bft) 94,74 %
19.11.2018 16:08 -0,3 C 3,9 C 0,0 C 92 % 1013,1 hPa 0,0 l/m 21,4 km/h (4 Bft) O-NO 73 0 min 0,000 mm 0,0 UV-I 10 W/m -1,4 C -10,7 C 33,8 km/h (5 Bft) 96,15 %
19.11.2018 16:10 -0,3 C 3,9 C 0,0 C 92 % 1013,1 hPa 0,0 l/m 30,5 km/h (5 Bft) O 82 0 min 0,000 mm 0,0 UV-I 9 W/m -1,4 C -14,0 C 41,8 km/h (6 Bft) 98,00 %
19.11.2018 16:12 -0,3 C 3,9 C 0,0 C 92 % 1013,1 hPa 0,0 l/m 29,4 km/h (5 Bft) O 88 0 min 0,000 mm 0,0 UV-I 8 W/m -1,4 C -13,6 C 38,6 km/h (5 Bft) 97,87 %
19.11.2018 16:14 -0,3 C 3,9 C 0,0 C 92 % 1013,1 hPa 0,0 l/m 29,0 km/h (5 Bft) O 91 0 min 0,000 mm 0,0 UV-I 7 W/m -1,4 C -13,5 C 41,8 km/h (6 Bft) 93,62 %
19.11.2018 16:16 -0,3 C 3,9 C 0,0 C 92 % 1013,1 hPa 0,0 l/m 24,4 km/h (4 Bft) O-NO 65 0 min 0,000 mm 0,0 UV-I 6 W/m -1,4 C -11,9 C 35,4 km/h (5 Bft) 95,74 %
19.11.2018 16:18 -0,2 C 3,9 C 0,0 C 92 % 1013,1 hPa 0,0 l/m 27,3 km/h (4 Bft) O-NO 68 0 min 0,000 mm 0,0 UV-I 5 W/m -1,3 C -12,8 C 40,2 km/h (6 Bft) 97,87 %
19.11.2018 16:20 -0,2 C 3,9 C 0,0 C 92 % 1013,1 hPa 0,0 l/m 28,9 km/h (5 Bft) O-NO 72 0 min 0,000 mm 0,0 UV-I 5 W/m -1,3 C -13,3 C 37,0 km/h (5 Bft) 95,74 %
19.11.2018 16:22 -0,2 C 3,9 C 0,0 C 92 % 1013,1 hPa 0,0 l/m 23,5 km/h (4 Bft) O-NO 74 0 min 0,000 mm 0,0 UV-I 5 W/m -1,3 C -11,4 C 30,6 km/h (5 Bft) 97,44 %
19.11.2018 16:24 -0,2 C 3,9 C 0,0 C 92 % 1013,1 hPa 0,0 l/m 28,1 km/h (4 Bft) O-SO 113 0 min 0,000 mm 0,0 UV-I 5 W/m -1,3 C -13,1 C 46,7 km/h (6 Bft) 97,87 %
19.11.2018 16:26 -0,2 C 3,9 C 0,0 C 92 % 1013,0 hPa 0,0 l/m 26,1 km/h (4 Bft) O 92 0 min 0,000 mm 0,0 UV-I 2 W/m -1,3 C -12,4 C 33,8 km/h (5 Bft) 93,62 %
19.11.2018 16:28 -0,2 C 3,9 C 0,0 C 92 % 1013,1 hPa 0,0 l/m 25,0 km/h (4 Bft) O 92 0 min 0,000 mm 0,0 UV-I 0 W/m -1,3 C -12,0 C 32,2 km/h (5 Bft) 98,00 %
19.11.2018 16:30 -0,2 C 3,9 C 0,0 C 92 % 1013,1 hPa 0,0 l/m 26,0 km/h (4 Bft) O-NO 59 0 min 0,000 mm 0,0 UV-I 0 W/m -1,3 C -12,4 C 37,0 km/h (5 Bft) 95,74 %
19.11.2018 16:32 -0,2 C 3,9 C 0,0 C 92 % 1013,0 hPa 0,0 l/m 27,5 km/h (4 Bft) O-NO 77 0 min 0,000 mm 0,0 UV-I 0 W/m -1,3 C -12,9 C 35,4 km/h (5 Bft) 94,34 %
19.11.2018 16:34 -0,2 C 3,9 C 0,0 C 92 % 1013,0 hPa 0,0 l/m 30,3 km/h (5 Bft) O-NO 71 0 min 0,000 mm 0,0 UV-I 0 W/m -1,3 C -13,8 C 48,3 km/h (6 Bft) 97,37 %
19.11.2018 16:36 -0,2 C 3,9 C 0,0 C 92 % 1013,0 hPa 0,0 l/m 29,4 km/h (5 Bft) O 101 0 min 0,000 mm 0,0 UV-I 0 W/m -1,3 C -13,5 C 37,0 km/h (5 Bft) 92,00 %
19.11.2018 16:38 -0,2 C 3,9 C 0,0 C 92 % 1013,1 hPa 0,0 l/m 25,5 km/h (4 Bft) O-NO 64 0 min 0,000 mm 0,0 UV-I 0 W/m -1,3 C -12,2 C 35,4 km/h (5 Bft) 89,36 %
19.11.2018 16:40 -0,2 C 3,9 C 0,0 C 92 % 1013,1 hPa 0,0 l/m 27,8 km/h (4 Bft) O 84 0 min 0,000 mm 0,0 UV-I 0 W/m -1,3 C -13,0 C 38,6 km/h (5 Bft) 93,62 %
19.11.2018 16:42 -0,2 C 3,9 C 0,0 C 92 % 1013,2 hPa 0,0 l/m 26,8 km/h (4 Bft) O 86 0 min 0,000 mm 0,0 UV-I 0 W/m -1,3 C -12,6 C 38,6 km/h (5 Bft) 96,00 %
19.11.2018 16:44 -0,2 C 3,9 C 0,0 C 92 % 1013,2 hPa 0,0 l/m 25,2 km/h (4 Bft) O-SO 108 0 min 0,000 mm 0,0 UV-I 0 W/m -1,3 C -12,1 C 35,4 km/h (5 Bft) 95,74 %
19.11.2018 16:46 -0,2 C 3,9 C 0,0 C 92 % 1013,2 hPa 0,0 l/m 25,1 km/h (4 Bft) O-NO 69 0 min 0,000 mm 0,0 UV-I 0 W/m -1,3 C -12,0 C 37,0 km/h (5 Bft) 97,37 %
19.11.2018 16:48 -0,2 C 3,9 C 0,0 C 92 % 1013,1 hPa 0,0 l/m 28,3 km/h (4 Bft) O-NO 60 0 min 0,000 mm 0,0 UV-I 0 W/m -1,3 C -13,1 C 35,4 km/h (5 Bft) 96,61 %
19.11.2018 16:50 -0,2 C 3,9 C 0,0 C 92 % 1013,1 hPa 0,0 l/m 27,4 km/h (4 Bft) O 90 0 min 0,000 mm 0,0 UV-I 0 W/m -1,3 C -12,8 C 40,2 km/h (6 Bft) 94,74 %
19.11.2018 16:52 -0,2 C 3,9 C 0,0 C 92 % 1013,1 hPa 0,0 l/m 28,5 km/h (4 Bft) O 79 0 min 0,000 mm 0,0 UV-I 0 W/m -1,3 C -13,2 C 40,2 km/h (6 Bft) 96,00 %
19.11.2018 16:54 -0,2 C 3,9 C 0,0 C 92 % 1013,1 hPa 0,0 l/m 34,1 km/h (5 Bft) O 84 0 min 0,000 mm 0,0 UV-I 0 W/m -1,3 C -14,8 C 49,9 km/h (6 Bft) 97,87 %
19.11.2018 16:56 -0,2 C 3,9 C -0,6 C 92 % 1013,1 hPa 0,0 l/m 33,2 km/h (5 Bft) O 86 0 min 0,000 mm 0,0 UV-I 0 W/m -1,3 C -14,6 C 43,5 km/h (6 Bft) 91,49 %
19.11.2018 16:59 -0,3 C 3,9 C -0,6 C 92 % 1013,2 hPa 0,0 l/m 31,7 km/h (5 Bft) O-NO 69 0 min 0,000 mm 0,0 UV-I 0 W/m -1,4 C -14,3 C 41,8 km/h (6 Bft) 97,18 %
19.11.2018 17:00 -0,3 C 3,9 C -0,6 C 92 % 1013,2 hPa 0,0 l/m 34,2 km/h (5 Bft) O-NO 67 0 min 0,026 mm 0,0 UV-I 0 W/m -1,4 C -15,0 C 48,3 km/h (6 Bft) 86,96 %
19.11.2018 17:02 -0,3 C 3,9 C -0,6 C 92 % 1013,1 hPa 0,0 l/m 36,9 km/h (5 Bft) O 86 0 min 0,000 mm 0,0 UV-I 0 W/m -1,4 C -15,7 C 53,1 km/h (7 Bft) 98,00 %
19.11.2018 17:04 -0,3 C 3,9 C -0,6 C 92 % 1013,1 hPa 0,0 l/m 31,4 km/h (5 Bft) O 93 0 min 0,000 mm 0,0 UV-I 0 W/m -1,4 C -14,2 C 40,2 km/h (6 Bft) 97,87 %
19.11.2018 17:06 -0,3 C 3,9 C -0,6 C 92 % 1013,1 hPa 0,0 l/m 29,2 km/h (5 Bft) O 94 0 min 0,000 mm 0,0 UV-I 0 W/m -1,4 C -13,6 C 40,2 km/h (6 Bft) 100,00 %
19.11.2018 17:08 -0,3 C 3,9 C -0,6 C 92 % 1013,1 hPa 0,0 l/m 30,0 km/h (5 Bft) O 87 0 min 0,000 mm 0,0 UV-I 0 W/m -1,4 C -13,8 C 45,1 km/h (6 Bft) 94,87 %
19.11.2018 17:10 -0,3 C 3,9 C -0,6 C 92 % 1013,2 hPa 0,0 l/m 32,8 km/h (5 Bft) O-NO 67 0 min 0,000 mm 0,0 UV-I 0 W/m -1,4 C -14,6 C 40,2 km/h (6 Bft) 100,00 %
19.11.2018 17:12 -0,3 C 3,9 C -0,6 C 92 % 1013,1 hPa 0,0 l/m 26,0 km/h (4 Bft) O-NO 60 0 min 0,000 mm 0,0 UV-I 0 W/m -1,4 C -12,5 C 41,8 km/h (6 Bft) 100,00 %
19.11.2018 17:14 -0,3 C 3,9 C -0,6 C 92 % 1013,2 hPa 0,0 l/m 29,8 km/h (5 Bft) O 94 0 min 0,000 mm 0,0 UV-I 0 W/m -1,4 C -13,8 C 45,1 km/h (6 Bft) 93,62 %
19.11.2018 17:16 -0,3 C 3,9 C -0,6 C 92 % 1013,2 hPa 0,0 l/m 28,3 km/h (4 Bft) O 90 0 min 0,000 mm 0,0 UV-I 0 W/m -1,4 C -13,3 C 38,6 km/h (5 Bft) 97,87 %
19.11.2018 17:18 -0,3 C 3,9 C -0,6 C 92 % 1013,2 hPa 0,0 l/m 27,8 km/h (4 Bft) O 91 0 min 0,000 mm 0,0 UV-I 0 W/m -1,4 C -13,1 C 45,1 km/h (6 Bft) 100,00 %
19.11.2018 17:20 -0,3 C 3,9 C -0,6 C 92 % 1013,2 hPa 0,0 l/m 31,3 km/h (5 Bft) O-SO 103 0 min 0,000 mm 0,0 UV-I 0 W/m -1,4 C -14,2 C 41,8 km/h (6 Bft) 97,87 %
19.11.2018 17:22 -0,3 C 3,9 C -0,6 C 92 % 1013,2 hPa 0,0 l/m 27,6 km/h (4 Bft) O-NO 76 0 min 0,000 mm 0,0 UV-I 0 W/m -1,4 C -13,1 C 38,6 km/h (5 Bft) 94,74 %
19.11.2018 17:24 -0,3 C 3,9 C -0,6 C 92 % 1013,1 hPa 0,0 l/m 27,4 km/h (4 Bft) O 93 0 min 0,000 mm 0,0 UV-I 0 W/m -1,4 C -13,0 C 41,8 km/h (6 Bft) 100,00 %
19.11.2018 17:26 -0,3 C 3,9 C -0,6 C 92 % 1013,1 hPa 0,0 l/m 32,6 km/h (5 Bft) O 95 0 min 0,000 mm 0,0 UV-I 0 W/m -1,4 C -14,6 C 48,3 km/h (6 Bft) 100,00 %
19.11.2018 17:28 -0,3 C 3,9 C -0,6 C 92 % 1013,2 hPa 0,0 l/m 29,3 km/h (5 Bft) O-NO 76 0 min 0,000 mm 0,0 UV-I 0 W/m -1,4 C -13,6 C 38,6 km/h (5 Bft) 100,00 %
19.11.2018 17:30 -0,3 C 3,9 C -0,6 C 92 % 1013,1 hPa 0,0 l/m 26,5 km/h (4 Bft) O-NO 70 0 min 0,000 mm 0,0 UV-I 0 W/m -1,4 C -12,7 C 37,0 km/h (5 Bft) 100,00 %
19.11.2018 17:32 -0,3 C 3,9 C -0,6 C 92 % 1013,1 hPa 0,0 l/m 28,8 km/h (4 Bft) O-NO 78 0 min 0,000 mm 0,0 UV-I 0 W/m -1,4 C -13,5 C 38,6 km/h (5 Bft) 97,87 %
19.11.2018 17:34 -0,3 C 3,9 C 0,0 C 92 % 1013,1 hPa 0,0 l/m 28,6 km/h (4 Bft) O 98 0 min 0,000 mm 0,0 UV-I 0 W/m -1,4 C -13,4 C 41,8 km/h (6 Bft) 96,00 %
19.11.2018 17:36 -0,3 C 3,9 C 0,0 C 92 % 1013,2 hPa 0,0 l/m 20,0 km/h (4 Bft) O-NO 59 0 min 0,000 mm 0,0 UV-I 0 W/m -1,4 C -10,0 C 27,4 km/h (4 Bft) 95,74 %
19.11.2018 17:38 -0,2 C 3,9 C 0,0 C 92 % 1013,2 hPa 0,0 l/m 21,8 km/h (4 Bft) O-NO 72 0 min 0,000 mm 0,0 UV-I 0 W/m -1,3 C -10,7 C 32,2 km/h (5 Bft) 97,87 %
19.11.2018 17:40 -0,2 C 3,9 C 0,0 C 92 % 1013,2 hPa 0,0 l/m 27,5 km/h (4 Bft) O-NO 74 0 min 0,000 mm 0,0 UV-I 0 W/m -1,3 C -12,9 C 40,2 km/h (6 Bft) 95,74 %
19.11.2018 17:42 -0,2 C 3,9 C 0,0 C 92 % 1013,2 hPa 0,0 l/m 26,1 km/h (4 Bft) O 80 0 min 0,000 mm 0,0 UV-I 0 W/m -1,3 C -12,4 C 35,4 km/h (5 Bft) 95,74 %
19.11.2018 17:44 -0,2 C 3,9 C 0,0 C 92 % 1013,2 hPa 0,0 l/m 24,5 km/h (4 Bft) O 83 0 min 0,000 mm 0,0 UV-I 0 W/m -1,3 C -11,8 C 41,8 km/h (6 Bft) 94,87 %
19.11.2018 17:46 -0,2 C 3,9 C 0,0 C 92 % 1013,1 hPa 0,0 l/m 32,6 km/h (5 Bft) O-SO 103 0 min 0,000 mm 0,0 UV-I 0 W/m -1,3 C -14,4 C 48,3 km/h (6 Bft) 95,74 %
19.11.2018 17:48 -0,3 C 3,9 C 0,0 C 92 % 1013,2 hPa 0,0 l/m 31,3 km/h (5 Bft) O-NO 63 0 min 0,000 mm 0,0 UV-I 0 W/m -1,4 C -14,2 C 45,1 km/h (6 Bft) 95,74 %
19.11.2018 17:50 -0,3 C 3,9 C 0,0 C 92 % 1013,2 hPa 0,0 l/m 31,3 km/h (5 Bft) O 80 0 min 0,000 mm 0,0 UV-I 0 W/m -1,4 C -14,2 C 43,5 km/h (6 Bft) 93,62 %
19.11.2018 17:52 -0,3 C 3,9 C 0,0 C 92 % 1013,2 hPa 0,0 l/m 27,3 km/h (4 Bft) O 83 0 min 0,000 mm 0,0 UV-I 0 W/m -1,4 C -13,0 C 35,4 km/h (5 Bft) 92,00 %
19.11.2018 17:54 -0,3 C 3,9 C 0,0 C 92 % 1013,2 hPa 0,0 l/m 19,8 km/h (3 Bft) O 85 0 min 0,000 mm 0,0 UV-I 0 W/m -1,4 C -9,9 C 29,0 km/h (5 Bft) 93,62 %
19.11.2018 17:56 -0,3 C 3,9 C 0,0 C 92 % 1013,2 hPa 0,0 l/m 23,3 km/h (4 Bft) O-SO 117 0 min 0,000 mm 0,0 UV-I 0 W/m -1,4 C -11,5 C 37,0 km/h (5 Bft) 95,74 %
19.11.2018 17:58 -0,3 C 3,9 C 0,0 C 92 % 1013,2 hPa 0,0 l/m 25,1 km/h (4 Bft) O-SO 109 0 min 0,000 mm 0,0 UV-I 0 W/m -1,4 C -12,2 C 40,2 km/h (6 Bft) 94,00 %
19.11.2018 18:00 -0,2 C 3,9 C 0,0 C 92 % 1013,3 hPa 0,0 l/m 24,7 km/h (4 Bft) O 93 0 min 0,025 mm 0,0 UV-I 0 W/m -1,3 C -11,9 C 41,8 km/h (6 Bft) 95,74 %
19.11.2018 18:02 -0,2 C 3,9 C 0,0 C 92 % 1013,3 hPa 0,0 l/m 29,2 km/h (5 Bft) O-NO 71 0 min 0,000 mm 0,0 UV-I 0 W/m -1,3 C -13,4 C 45,1 km/h (6 Bft) 93,62 %
19.11.2018 18:04 -0,3 C 3,9 C 0,0 C 92 % 1013,3 hPa 0,0 l/m 31,0 km/h (5 Bft) O 80 0 min 0,000 mm 0,0 UV-I 0 W/m -1,4 C -14,1 C 43,5 km/h (6 Bft) 91,49 %
19.11.2018 18:06 -0,3 C 3,9 C 0,0 C 92 % 1013,3 hPa 0,0 l/m 24,0 km/h (4 Bft) O 81 0 min 0,000 mm 0,0 UV-I 0 W/m -1,4 C -11,7 C 40,2 km/h (6 Bft) 100,00 %
19.11.2018 18:08 -0,3 C 3,9 C 0,0 C 92 % 1013,2 hPa 0,0 l/m 28,9 km/h (5 Bft) O-NO 61 0 min 0,000 mm 0,0 UV-I 0 W/m -1,4 C -13,5 C 40,2 km/h (6 Bft) 100,00 %
19.11.2018 18:10 -0,3 C 3,9 C 0,0 C 92 % 1013,2 hPa 0,0 l/m 28,2 km/h (4 Bft) O 92 0 min 0,000 mm 0,0 UV-I 0 W/m -1,4 C -13,3 C 35,4 km/h (5 Bft) 95,74 %
19.11.2018 18:12 -0,3 C 3,9 C 0,0 C 92 % 1013,2 hPa 0,0 l/m 32,9 km/h (5 Bft) O-SO 113 0 min 0,000 mm 0,0 UV-I 0 W/m -1,4 C -14,7 C 45,1 km/h (6 Bft) 100,00 %
19.11.2018 18:14 -0,3 C 3,9 C 0,0 C 92 % 1013,3 hPa 0,0 l/m 32,6 km/h (5 Bft) O 91 0 min 0,000 mm 0,0 UV-I 0 W/m -1,4 C -14,6 C 43,5 km/h (6 Bft) 100,00 %
19.11.2018 18:16 -0,3 C 3,9 C 0,0 C 92 % 1013,3 hPa 0,0 l/m 29,5 km/h (5 Bft) O-NO 59 0 min 0,000 mm 0,0 UV-I 0 W/m -1,4 C -13,7 C 40,2 km/h (6 Bft) 100,00 %
19.11.2018 18:18 -0,3 C 3,9 C 0,0 C 92 % 1013,3 hPa 0,0 l/m 24,8 km/h (4 Bft) NO 55 0 min 0,000 mm 0,0 UV-I 0 W/m -1,4 C -12,0 C 35,4 km/h (5 Bft) 97,87 %
19.11.2018 18:20 -0,3 C 3,9 C 0,0 C 92 % 1013,2 hPa 0,0 l/m 30,1 km/h (5 Bft) O-NO 78 0 min 0,000 mm 0,0 UV-I 0 W/m -1,4 C -13,9 C 43,5 km/h (6 Bft) 97,44 %
19.11.2018 18:22 -0,3 C 3,9 C 0,0 C 92 % 1013,3 hPa 0,0 l/m 28,5 km/h (4 Bft) O 90 0 min 0,000 mm 0,0 UV-I 0 W/m -1,4 C -13,4 C 41,8 km/h (6 Bft) 100,00 %
19.11.2018 18:24 -0,3 C 3,9 C -0,6 C 92 % 1013,3 hPa 0,0 l/m 32,0 km/h (5 Bft) O-NO 78 0 min 0,000 mm 0,0 UV-I 0 W/m -1,4 C -14,4 C 46,7 km/h (6 Bft) 100,00 %
19.11.2018 18:26 -0,3 C 3,9 C -0,6 C 92 % 1013,2 hPa 0,0 l/m 29,5 km/h (5 Bft) O 84 0 min 0,000 mm 0,0 UV-I 0 W/m -1,4 C -13,7 C 43,5 km/h (6 Bft) 100,00 %
19.11.2018 18:28 -0,3 C 3,9 C -0,6 C 92 % 1013,3 hPa 0,0 l/m 26,7 km/h (4 Bft) O-NO 78 0 min 0,000 mm 0,0 UV-I 0 W/m -1,4 C -12,7 C 37,0 km/h (5 Bft) 97,87 %
19.11.2018 18:30 -0,3 C 3,9 C -0,6 C 92 % 1013,3 hPa 0,0 l/m 27,3 km/h (4 Bft) O 82 0 min 0,000 mm 0,0 UV-I 0 W/m -1,4 C -13,0 C 38,6 km/h (5 Bft) 97,14 %
19.11.2018 18:32 -0,3 C 3,9 C -0,6 C 92 % 1013,2 hPa 0,0 l/m 27,3 km/h (4 Bft) O-SO 108 0 min 0,000 mm 0,0 UV-I 0 W/m -1,4 C -13,0 C 37,0 km/h (5 Bft) 98,08 %
19.11.2018 18:34 -0,3 C 3,9 C -0,6 C 92 % 1013,2 hPa 0,0 l/m 27,0 km/h (4 Bft) O-NO 70 0 min 0,000 mm 0,0 UV-I 0 W/m -1,4 C -12,8 C 38,6 km/h (5 Bft) 97,87 %
19.11.2018 18:36 -0,3 C 3,9 C -0,6 C 92 % 1013,2 hPa 0,0 l/m 27,2 km/h (4 Bft) O 86 0 min 0,000 mm 0,0 UV-I 0 W/m -1,4 C -12,9 C 38,6 km/h (5 Bft) 98,00 %
19.11.2018 18:38 -0,3 C 3,9 C -0,6 C 92 % 1013,2 hPa 0,0 l/m 27,7 km/h (4 Bft) O 96 0 min 0,000 mm 0,0 UV-I 0 W/m -1,4 C -13,1 C 38,6 km/h (5 Bft) 100,00 %
19.11.2018 18:40 -0,3 C 3,9 C -0,6 C 92 % 1013,2 hPa 0,0 l/m 23,3 km/h (4 Bft) NO 55 0 min 0,000 mm 0,0 UV-I 0 W/m -1,4 C -11,5 C 33,8 km/h (5 Bft) 97,87 %
19.11.2018 18:42 -0,3 C 3,9 C -0,6 C 93 % 1013,2 hPa 0,0 l/m 27,6 km/h (4 Bft) O 82 0 min 0,000 mm 0,0 UV-I 0 W/m -1,3 C -13,1 C 43,5 km/h (6 Bft) 95,74 %
19.11.2018 18:44 -0,3 C 3,9 C -0,6 C 93 % 1013,2 hPa 0,0 l/m 26,7 km/h (4 Bft) O 86 0 min 0,000 mm 0,0 UV-I 0 W/m -1,3 C -12,7 C 37,0 km/h (5 Bft) 100,00 %
19.11.2018 18:46 -0,3 C 3,9 C -0,6 C 93 % 1013,2 hPa 0,0 l/m 27,6 km/h (4 Bft) O-NO 67 0 min 0,000 mm 0,0 UV-I 0 W/m -1,3 C -13,1 C 40,2 km/h (6 Bft) 94,74 %
19.11.2018 18:48 -0,3 C 3,9 C -0,6 C 93 % 1013,2 hPa 0,0 l/m 27,3 km/h (4 Bft) O 98 0 min 0,000 mm 0,0 UV-I 0 W/m -1,3 C -13,0 C 41,8 km/h (6 Bft) 100,00 %
19.11.2018 18:50 -0,3 C 3,9 C -0,6 C 93 % 1013,1 hPa 0,0 l/m 26,5 km/h (4 Bft) O 90 0 min 0,000 mm 0,0 UV-I 0 W/m -1,3 C -12,7 C 33,8 km/h (5 Bft) 100,00 %
19.11.2018 18:52 -0,3 C 3,9 C -0,6 C 93 % 1013,1 hPa 0,0 l/m 25,3 km/h (4 Bft) O-NO 69 0 min 0,000 mm 0,0 UV-I 0 W/m -1,3 C -12,2 C 37,0 km/h (5 Bft) 100,00 %
19.11.2018 18:54 -0,3 C 3,9 C -0,6 C 93 % 1013,1 hPa 0,0 l/m 28,0 km/h (4 Bft) O-SO 108 0 min 0,000 mm 0,0 UV-I 0 W/m -1,3 C -13,2 C 40,2 km/h (6 Bft) 100,00 %
19.11.2018 18:56 -0,3 C 3,9 C -0,6 C 93 % 1013,1 hPa 0,0 l/m 28,9 km/h (5 Bft) O-NO 64 0 min 0,000 mm 0,0 UV-I 0 W/m -1,3 C -13,5 C 45,1 km/h (6 Bft) 100,00 %
19.11.2018 18:58 -0,3 C 3,9 C -0,6 C 93 % 1013,1 hPa 0,0 l/m 36,3 km/h (5 Bft) O-NO 59 0 min 0,000 mm 0,0 UV-I 0 W/m -1,3 C -15,5 C 45,1 km/h (6 Bft) 97,92 %
19.11.2018 19:00 -0,3 C 3,9 C -0,6 C 93 % 1013,1 hPa 0,0 l/m 32,7 km/h (5 Bft) O-NO 74 0 min 0,025 mm 0,0 UV-I 0 W/m -1,3 C -14,6 C 48,3 km/h (6 Bft) 97,14 %
19.11.2018 19:02 -0,3 C 3,9 C -0,6 C 93 % 1013,0 hPa 0,0 l/m 31,3 km/h (5 Bft) O 101 0 min 0,000 mm 0,0 UV-I 0 W/m -1,3 C -14,2 C 45,1 km/h (6 Bft) 96,77 %
19.11.2018 19:04 -0,3 C 3,9 C -0,6 C 93 % 1013,0 hPa 0,0 l/m 30,4 km/h (5 Bft) O 79 0 min 0,000 mm 0,0 UV-I 0 W/m -1,3 C -14,0 C 48,3 km/h (6 Bft) 97,14 %
19.11.2018 19:06 -0,3 C 3,9 C -0,6 C 93 % 1013,1 hPa 0,0 l/m 27,0 km/h (4 Bft) O 89 0 min 0,000 mm 0,0 UV-I 0 W/m -1,3 C -12,8 C 41,8 km/h (6 Bft) 94,34 %
19.11.2018 19:08 -0,3 C 3,9 C -0,6 C 93 % 1013,0 hPa 0,0 l/m 26,6 km/h (4 Bft) O-NO 71 0 min 0,000 mm 0,0 UV-I 0 W/m -1,3 C -12,7 C 38,6 km/h (5 Bft) 98,00 %
19.11.2018 19:10 -0,3 C 3,9 C -0,6 C 93 % 1013,0 hPa 0,0 l/m 29,5 km/h (5 Bft) O 86 0 min 0,000 mm 0,0 UV-I 0 W/m -1,3 C -13,7 C 40,2 km/h (6 Bft) 98,00 %
19.11.2018 19:12 -0,3 C 3,9 C -0,6 C 93 % 1013,1 hPa 0,0 l/m 28,9 km/h (5 Bft) O-SO 121 0 min 0,000 mm 0,0 UV-I 0 W/m -1,3 C -13,5 C 41,8 km/h (6 Bft) 97,14 %
19.11.2018 19:14 -0,3 C 3,9 C -0,6 C 93 % 1013,1 hPa 0,0 l/m 30,3 km/h (5 Bft) O-NO 76 0 min 0,000 mm 0,0 UV-I 0 W/m -1,3 C -13,9 C 43,5 km/h (6 Bft) 96,00 %
19.11.2018 19:16 -0,4 C 3,9 C -0,6 C 93 % 1013,1 hPa 0,0 l/m 30,3 km/h (5 Bft) NO 55 0 min 0,000 mm 0,0 UV-I 0 W/m -1,4 C -14,1 C 43,5 km/h (6 Bft) 97,87 %
19.11.2018 19:18 -0,3 C 3,9 C -0,6 C 93 % 1013,1 hPa 0,0 l/m 30,4 km/h (5 Bft) O 98 0 min 0,000 mm 0,0 UV-I 0 W/m -1,3 C -14,0 C 40,2 km/h (6 Bft) 95,74 %
19.11.2018 19:20 -0,4 C 3,9 C -0,6 C 93 % 1013,0 hPa 0,0 l/m 35,8 km/h (5 Bft) O-SO 116 0 min 0,000 mm 0,0 UV-I 0 W/m -1,4 C -15,6 C 48,3 km/h (6 Bft) 96,00 %
19.11.2018 19:22 -0,4 C 3,9 C -0,6 C 93 % 1013,0 hPa 0,0 l/m 34,1 km/h (5 Bft) O 84 0 min 0,000 mm 0,0 UV-I 0 W/m -1,4 C -15,1 C 41,8 km/h (6 Bft) 100,00 %
19.11.2018 19:24 -0,4 C 3,9 C -0,6 C 93 % 1013,0 hPa 0,0 l/m 38,8 km/h (5 Bft) O-SO 111 0 min 0,000 mm 0,0 UV-I 0 W/m -1,4 C -16,3 C 56,3 km/h (7 Bft) 100,00 %
19.11.2018 19:26 -0,4 C 3,9 C -0,6 C 93 % 1012,8 hPa 0,0 l/m 36,4 km/h (5 Bft) O 88 0 min 0,000 mm 0,0 UV-I 0 W/m -1,4 C -15,7 C 48,3 km/h (6 Bft) 100,00 %
19.11.2018 19:28 -0,4 C 3,9 C -0,6 C 93 % 1012,7 hPa 0,0 l/m 33,1 km/h (5 Bft) O 86 0 min 0,000 mm 0,0 UV-I 0 W/m -1,4 C -14,9 C 49,9 km/h (6 Bft) 97,87 %
19.11.2018 19:30 -0,4 C 3,9 C -0,6 C 93 % 1012,6 hPa 0,0 l/m 28,7 km/h (4 Bft) O 86 0 min 0,000 mm 0,0 UV-I 0 W/m -1,4 C -13,6 C 41,8 km/h (6 Bft) 100,00 %
19.11.2018 19:32 -0,4 C 3,9 C -0,6 C 93 % 1012,6 hPa 0,0 l/m 28,6 km/h (4 Bft) O 88 0 min 0,000 mm 0,0 UV-I 0 W/m -1,4 C -13,5 C 45,1 km/h (6 Bft) 100,00 %
19.11.2018 19:34 -0,4 C 3,9 C -0,6 C 93 % 1012,5 hPa 0,0 l/m 25,9 km/h (4 Bft) O 86 0 min 0,000 mm 0,0 UV-I 0 W/m -1,4 C -12,6 C 35,4 km/h (5 Bft) 100,00 %
19.11.2018 19:36 -0,4 C 3,9 C -0,6 C 93 % 1012,6 hPa 0,0 l/m 27,6 km/h (4 Bft) O 90 0 min 0,000 mm 0,0 UV-I 0 W/m -1,4 C -13,2 C 40,2 km/h (6 Bft) 96,43 %
19.11.2018 19:38 -0,4 C 3,9 C -0,6 C 93 % 1012,6 hPa 0,0 l/m 30,5 km/h (5 Bft) O 84 0 min 0,000 mm 0,0 UV-I 0 W/m -1,4 C -14,1 C 48,3 km/h (6 Bft) 93,62 %
19.11.2018 19:40 -0,4 C 3,9 C -0,6 C 93 % 1012,6 hPa 0,0 l/m 32,0 km/h (5 Bft) O-NO 78 0 min 0,000 mm 0,0 UV-I 0 W/m -1,4 C -14,6 C 46,7 km/h (6 Bft) 97,44 %
19.11.2018 19:42 -0,4 C 3,9 C -0,6 C 93 % 1012,6 hPa 0,0 l/m 30,6 km/h (5 Bft) O-NO 74 0 min 0,000 mm 0,0 UV-I 0 W/m -1,4 C -14,2 C 45,1 km/h (6 Bft) 97,87 %
19.11.2018 19:44 -0,4 C 3,9 C -0,6 C 93 % 1012,5 hPa 0,0 l/m 34,9 km/h (5 Bft) O-NO 76 0 min 0,000 mm 0,0 UV-I 0 W/m -1,4 C -15,3 C 54,7 km/h (7 Bft) 98,00 %
19.11.2018 19:46 -0,4 C 3,9 C -0,6 C 93 % 1012,6 hPa 0,0 l/m 32,7 km/h (5 Bft) O 98 0 min 0,000 mm 0,0 UV-I 0 W/m -1,4 C -14,8 C 43,5 km/h (6 Bft) 96,00 %
19.11.2018 19:48 -0,4 C 3,9 C -0,6 C 93 % 1012,8 hPa 0,0 l/m 33,7 km/h (5 Bft) O 101 0 min 0,000 mm 0,0 UV-I 0 W/m -1,4 C -15,0 C 46,7 km/h (6 Bft) 97,87 %
19.11.2018 19:50 -0,4 C 3,9 C -0,6 C 93 % 1012,8 hPa 0,0 l/m 30,5 km/h (5 Bft) O-SO 113 0 min 0,000 mm 0,0 UV-I 0 W/m -1,4 C -14,1 C 45,1 km/h (6 Bft) 97,87 %
19.11.2018 19:52 -0,4 C 3,9 C -0,6 C 93 % 1012,8 hPa 0,0 l/m 30,2 km/h (5 Bft) NO 50 0 min 0,000 mm 0,0 UV-I 0 W/m -1,4 C -14,0 C 45,1 km/h (6 Bft) 93,62 %
19.11.2018 19:54 -0,4 C 3,9 C -0,6 C 93 % 1012,8 hPa 0,0 l/m 28,0 km/h (4 Bft) O-NO 74 0 min 0,000 mm 0,0 UV-I 0 W/m -1,4 C -13,3 C 43,5 km/h (6 Bft) 95,74 %
19.11.2018 19:56 -0,4 C 3,9 C -0,6 C 93 % 1012,8 hPa 0,0 l/m 27,3 km/h (4 Bft) O-NO 77 0 min 0,000 mm 0,0 UV-I 0 W/m -1,4 C -13,1 C 37,0 km/h (5 Bft) 97,37 %
19.11.2018 19:58 -0,4 C 3,9 C -0,6 C 93 % 1012,9 hPa 0,0 l/m 27,3 km/h (4 Bft) O 81 0 min 0,000 mm 0,0 UV-I 0 W/m -1,4 C -13,1 C 38,6 km/h (5 Bft) 91,49 %
19.11.2018 20:00 -0,4 C 3,9 C -0,6 C 93 % 1012,8 hPa 0,0 l/m 28,6 km/h (4 Bft) O-NO 60 0 min 0,026 mm 0,0 UV-I 0 W/m -1,4 C -13,5 C 40,2 km/h (6 Bft) 97,87 %
19.11.2018 20:02 -0,4 C 3,9 C -0,6 C 93 % 1012,8 hPa 0,0 l/m 32,5 km/h (5 Bft) O-SO 110 0 min 0,000 mm 0,0 UV-I 0 W/m -1,4 C -14,7 C 48,3 km/h (6 Bft) 95,74 %
19.11.2018 20:04 -0,4 C 3,9 C -0,6 C 93 % 1012,7 hPa 0,0 l/m 36,3 km/h (5 Bft) O-NO 73 0 min 0,000 mm 0,0 UV-I 0 W/m -1,4 C -15,7 C 49,9 km/h (6 Bft) 95,74 %
19.11.2018 20:06 -0,4 C 3,9 C -0,6 C 93 % 1012,6 hPa 0,0 l/m 35,6 km/h (5 Bft) O-NO 75 0 min 0,000 mm 0,0 UV-I 0 W/m -1,4 C -15,5 C 51,5 km/h (7 Bft) 95,74 %
19.11.2018 20:08 -0,4 C 3,9 C -0,6 C 93 % 1012,6 hPa 0,0 l/m 36,4 km/h (5 Bft) O 98 0 min 0,000 mm 0,0 UV-I 0 W/m -1,4 C -15,7 C 54,7 km/h (7 Bft) 93,62 %
19.11.2018 20:10 -0,4 C 3,9 C -0,6 C 93 % 1012,6 hPa 0,0 l/m 34,1 km/h (5 Bft) O-NO 60 0 min 0,000 mm 0,0 UV-I 0 W/m -1,4 C -15,1 C 45,1 km/h (6 Bft) 96,00 %
19.11.2018 20:12 -0,4 C 3,9 C -0,6 C 93 % 1012,5 hPa 0,0 l/m 28,7 km/h (4 Bft) O-NO 64 0 min 0,000 mm 0,0 UV-I 0 W/m -1,4 C -13,6 C 40,2 km/h (6 Bft) 95,74 %
19.11.2018 20:14 -0,4 C 3,9 C -0,6 C 93 % 1012,5 hPa 0,0 l/m 31,9 km/h (5 Bft) O-NO 61 0 min 0,000 mm 0,0 UV-I 0 W/m -1,4 C -14,5 C 43,5 km/h (6 Bft) 95,83 %
19.11.2018 20:16 -0,4 C 3,9 C -0,6 C 93 % 1012,4 hPa 0,0 l/m 37,9 km/h (5 Bft) O-NO 73 0 min 0,000 mm 0,0 UV-I 0 W/m -1,4 C -16,1 C 48,3 km/h (6 Bft) 95,92 %
19.11.2018 20:18 -0,4 C 3,9 C -0,6 C 93 % 1012,5 hPa 0,0 l/m 37,8 km/h (5 Bft) O-NO 65 0 min 0,000 mm 0,0 UV-I 0 W/m -1,4 C -16,0 C 49,9 km/h (6 Bft) 93,75 %
19.11.2018 20:20 -0,4 C 3,9 C -0,6 C 93 % 1012,5 hPa 0,0 l/m 31,2 km/h (5 Bft) O-SO 102 0 min 0,000 mm 0,0 UV-I 0 W/m -1,4 C -14,3 C 46,7 km/h (6 Bft) 92,00 %
19.11.2018 20:22 -0,4 C 3,9 C -0,6 C 93 % 1012,5 hPa 0,0 l/m 33,6 km/h (5 Bft) O-NO 70 0 min 0,000 mm 0,0 UV-I 0 W/m -1,4 C -15,0 C 51,5 km/h (7 Bft) 93,62 %
19.11.2018 20:24 -0,4 C 3,9 C -0,6 C 93 % 1012,5 hPa 0,0 l/m 29,8 km/h (5 Bft) O-SO 109 0 min 0,000 mm 0,0 UV-I 0 W/m -1,4 C -13,9 C 41,8 km/h (6 Bft) 94,29 %
19.11.2018 20:26 -0,4 C 3,9 C -0,6 C 93 % 1012,6 hPa 0,0 l/m 35,0 km/h (5 Bft) O-SO 104 0 min 0,000 mm 0,0 UV-I 0 W/m -1,4 C -15,4 C 53,1 km/h (7 Bft) 93,62 %
19.11.2018 20:28 -0,5 C 3,9 C -0,6 C 93 % 1012,5 hPa 0,0 l/m 34,1 km/h (5 Bft) O-SO 102 0 min 0,000 mm 0,0 UV-I 0 W/m -1,5 C -15,3 C 54,7 km/h (7 Bft) 93,62 %
19.11.2018 20:30 -0,5 C 3,9 C -0,6 C 93 % 1012,5 hPa 0,0 l/m 29,1 km/h (5 Bft) O 98 0 min 0,000 mm 0,0 UV-I 0 W/m -1,5 C -13,8 C 40,2 km/h (6 Bft) 95,74 %
19.11.2018 20:32 -0,5 C 3,9 C -0,6 C 93 % 1012,5 hPa 0,0 l/m 27,8 km/h (4 Bft) O-SO 103 0 min 0,000 mm 0,0 UV-I 0 W/m -1,5 C -13,4 C 43,5 km/h (6 Bft) 95,74 %
19.11.2018 20:34 -0,5 C 3,9 C -0,6 C 93 % 1012,5 hPa 0,0 l/m 28,0 km/h (4 Bft) O 93 0 min 0,000 mm 0,0 UV-I 0 W/m -1,5 C -13,5 C 38,6 km/h (5 Bft) 95,74 %
19.11.2018 20:36 -0,5 C 3,9 C -0,6 C 93 % 1012,5 hPa 0,0 l/m 32,3 km/h (5 Bft) O 98 0 min 0,000 mm 0,0 UV-I 0 W/m -1,5 C -14,8 C 45,1 km/h (6 Bft) 95,74 %
19.11.2018 20:38 -0,5 C 3,9 C -0,6 C 93 % 1012,5 hPa 0,0 l/m 29,1 km/h (5 Bft) O 86 0 min 0,000 mm 0,0 UV-I 0 W/m -1,5 C -13,8 C 43,5 km/h (6 Bft) 94,00 %
19.11.2018 20:40 -0,5 C 3,9 C -0,6 C 93 % 1012,6 hPa 0,0 l/m 30,3 km/h (5 Bft) O-SO 103 0 min 0,000 mm 0,0 UV-I 0 W/m -1,5 C -14,2 C 43,5 km/h (6 Bft) 95,74 %
19.11.2018 20:42 -0,4 C 3,9 C -0,6 C 93 % 1012,6 hPa 0,0 l/m 32,6 km/h (5 Bft) O 96 0 min 0,000 mm 0,0 UV-I 0 W/m -1,4 C -14,7 C 46,7 km/h (6 Bft) 95,74 %
19.11.2018 20:44 -0,4 C 3,9 C -0,6 C 93 % 1012,6 hPa 0,0 l/m 31,1 km/h (5 Bft) O-SO 107 0 min 0,000 mm 0,0 UV-I 0 W/m -1,4 C -14,3 C 43,5 km/h (6 Bft) 98,00 %
19.11.2018 20:46 -0,4 C 3,9 C -0,6 C 94 % 1012,7 hPa 0,0 l/m 26,8 km/h (4 Bft) O 81 0 min 0,000 mm 0,0 UV-I 0 W/m -1,2 C -12,9 C 35,4 km/h (5 Bft) 95,74 %
19.11.2018 20:48 -0,4 C 3,9 C -0,6 C 94 % 1012,6 hPa 0,0 l/m 32,0 km/h (5 Bft) O-SO 105 0 min 0,000 mm 0,0 UV-I 0 W/m -1,2 C -14,6 C 48,3 km/h (6 Bft) 97,22 %
19.11.2018 20:50 -0,4 C 3,9 C -0,6 C 94 % 1012,7 hPa 0,0 l/m 34,6 km/h (5 Bft) O 79 0 min 0,000 mm 0,0 UV-I 0 W/m -1,2 C -15,3 C 54,7 km/h (7 Bft) 98,00 %
19.11.2018 20:52 -0,4 C 3,9 C -0,6 C 94 % 1012,5 hPa 0,0 l/m 32,1 km/h (5 Bft) O-SO 116 0 min 0,000 mm 0,0 UV-I 0 W/m -1,2 C -14,6 C 57,9 km/h (7 Bft) 93,62 %
19.11.2018 20:54 -0,4 C 3,9 C -0,6 C 94 % 1012,5 hPa 0,0 l/m 33,2 km/h (5 Bft) O 96 0 min 0,000 mm 0,0 UV-I 0 W/m -1,2 C -14,9 C 46,7 km/h (6 Bft) 98,00 %
19.11.2018 20:56 -0,4 C 3,9 C -0,6 C 94 % 1012,5 hPa 0,0 l/m 32,6 km/h (5 Bft) O-NO 74 0 min 0,000 mm 0,0 UV-I 0 W/m -1,2 C -14,7 C 48,3 km/h (6 Bft) 95,74 %
19.11.2018 20:59 -0,3 C 3,9 C -0,6 C 94 % 1012,5 hPa 0,0 l/m 32,5 km/h (5 Bft) O-SO 109 0 min 0,000 mm 0,0 UV-I 0 W/m -1,1 C -14,6 C 51,5 km/h (7 Bft) 93,15 %
19.11.2018 21:00 -0,3 C 3,9 C -0,6 C 94 % 1012,5 hPa 0,0 l/m 25,6 km/h (4 Bft) O 82 0 min 0,000 mm 0,0 UV-I 0 W/m -1,1 C -12,3 C 33,8 km/h (5 Bft) 95,83 %
19.11.2018 21:02 -0,3 C 3,9 C -0,6 C 94 % 1012,4 hPa 0,0 l/m 29,0 km/h (5 Bft) O 92 0 min 0,025 mm 0,0 UV-I 0 W/m -1,1 C -13,5 C 48,3 km/h (6 Bft) 93,62 %
19.11.2018 21:04 -0,3 C 3,9 C -0,6 C 94 % 1012,5 hPa 0,0 l/m 22,8 km/h (4 Bft) O-NO 69 0 min 0,000 mm 0,0 UV-I 0 W/m -1,1 C -11,3 C 33,8 km/h (5 Bft) 97,87 %
19.11.2018 21:06 -0,3 C 3,9 C -0,6 C 94 % 1012,6 hPa 0,0 l/m 22,4 km/h (4 Bft) O 96 0 min 0,000 mm 0,0 UV-I 0 W/m -1,1 C -11,1 C 33,8 km/h (5 Bft) 98,00 %
19.11.2018 21:08 -0,3 C 3,9 C -0,6 C 94 % 1012,6 hPa 0,0 l/m 28,2 km/h (4 Bft) O 96 0 min 0,000 mm 0,0 UV-I 0 W/m -1,1 C -13,3 C 37,0 km/h (5 Bft) 97,14 %
19.11.2018 21:10 -0,3 C 3,9 C 0,0 C 94 % 1012,7 hPa 0,0 l/m 32,0 km/h (5 Bft) O-SO 112 0 min 0,000 mm 0,0 UV-I 0 W/m -1,1 C -14,4 C 48,3 km/h (6 Bft) 98,11 %
19.11.2018 21:12 -0,3 C 3,9 C 0,0 C 93 % 1012,7 hPa 0,0 l/m 30,4 km/h (5 Bft) O-NO 59 0 min 0,000 mm 0,0 UV-I 0 W/m -1,3 C -14,0 C 41,8 km/h (6 Bft) 97,87 %
19.11.2018 21:14 -0,3 C 3,9 C 0,0 C 93 % 1012,6 hPa 0,0 l/m 31,1 km/h (5 Bft) O-NO 71 0 min 0,000 mm 0,0 UV-I 0 W/m -1,3 C -14,2 C 41,8 km/h (6 Bft) 96,00 %
19.11.2018 21:16 -0,3 C 3,9 C 0,0 C 93 % 1012,7 hPa 0,0 l/m 31,6 km/h (5 Bft) O 94 0 min 0,000 mm 0,0 UV-I 0 W/m -1,3 C -14,3 C 41,8 km/h (6 Bft) 96,00 %
19.11.2018 21:18 -0,2 C 3,9 C 0,0 C 93 % 1012,5 hPa 0,0 l/m 28,5 km/h (4 Bft) O 92 0 min 0,000 mm 0,0 UV-I 0 W/m -1,2 C -13,2 C 48,3 km/h (6 Bft) 100,00 %
19.11.2018 21:20 -0,2 C 3,9 C 0,0 C 93 % 1012,5 hPa 0,0 l/m 31,1 km/h (5 Bft) O 94 0 min 0,000 mm 0,0 UV-I 0 W/m -1,2 C -14,0 C 45,1 km/h (6 Bft) 93,62 %
19.11.2018 21:22 -0,2 C 3,9 C 0,0 C 93 % 1012,4 hPa 0,0 l/m 31,7 km/h (5 Bft) O-NO 63 0 min 0,000 mm 0,0 UV-I 0 W/m -1,2 C -14,2 C 43,5 km/h (6 Bft) 98,00 %
19.11.2018 21:24 -0,2 C 3,9 C 0,0 C 93 % 1012,4 hPa 0,0 l/m 28,7 km/h (4 Bft) O-NO 64 0 min 0,000 mm 0,0 UV-I 0 W/m -1,2 C -13,3 C 43,5 km/h (6 Bft) 98,11 %
19.11.2018 21:26 -0,2 C 3,9 C 0,0 C 93 % 1012,4 hPa 0,0 l/m 33,8 km/h (5 Bft) O-NO 71 0 min 0,000 mm 0,0 UV-I 0 W/m -1,2 C -14,8 C 48,3 km/h (6 Bft) 97,87 %
19.11.2018 21:28 -0,2 C 3,9 C 0,0 C 93 % 1012,2 hPa 0,0 l/m 33,6 km/h (5 Bft) O 91 0 min 0,000 mm 0,0 UV-I 0 W/m -1,2 C -14,7 C 45,1 km/h (6 Bft) 97,87 %
19.11.2018 21:30 -0,2 C 3,9 C 0,0 C 93 % 1012,2 hPa 0,0 l/m 31,9 km/h (5 Bft) O-NO 72 0 min 0,000 mm 0,0 UV-I 0 W/m -1,2 C -14,2 C 43,5 km/h (6 Bft) 97,44 %
19.11.2018 21:32 -0,2 C 3,9 C 0,0 C 93 % 1012,2 hPa 0,0 l/m 27,7 km/h (4 Bft) O-NO 60 0 min 0,000 mm 0,0 UV-I 0 W/m -1,2 C -12,9 C 41,8 km/h (6 Bft) 94,00 %
19.11.2018 21:34 -0,2 C 3,9 C 0,0 C 93 % 1012,2 hPa 0,0 l/m 31,1 km/h (5 Bft) O-SO 114 0 min 0,000 mm 0,0 UV-I 0 W/m -1,2 C -14,0 C 45,1 km/h (6 Bft) 93,62 %
19.11.2018 21:36 -0,2 C 3,9 C 0,0 C 93 % 1012,3 hPa 0,0 l/m 33,0 km/h (5 Bft) O-NO 73 0 min 0,000 mm 0,0 UV-I 0 W/m -1,2 C -14,6 C 46,7 km/h (6 Bft) 95,74 %
19.11.2018 21:38 -0,1 C 3,9 C 0,0 C 93 % 1012,4 hPa 0,0 l/m 23,9 km/h (4 Bft) O-NO 71 0 min 0,000 mm 0,0 UV-I 0 W/m -1,1 C -11,4 C 41,8 km/h (6 Bft) 97,87 %
19.11.2018 21:40 -0,1 C 3,9 C 0,0 C 93 % 1012,3 hPa 0,0 l/m 28,5 km/h (4 Bft) O-NO 68 0 min 0,000 mm 0,0 UV-I 0 W/m -1,1 C -13,1 C 38,6 km/h (5 Bft) 93,62 %
19.11.2018 21:42 -0,1 C 3,9 C 0,0 C 93 % 1012,3 hPa 0,0 l/m 30,5 km/h (5 Bft) O 90 0 min 0,000 mm 0,0 UV-I 0 W/m -1,1 C -13,7 C 40,2 km/h (6 Bft) 95,74 %
19.11.2018 21:44 -0,1 C 3,9 C 0,0 C 93 % 1012,4 hPa 0,0 l/m 28,2 km/h (4 Bft) O 87 0 min 0,000 mm 0,0 UV-I 0 W/m -1,1 C -13,0 C 54,7 km/h (7 Bft) 94,00 %
19.11.2018 21:46 -0,1 C 3,9 C 0,0 C 93 % 1012,3 hPa 0,0 l/m 37,9 km/h (5 Bft) O 81 0 min 0,000 mm 0,0 UV-I 0 W/m -1,1 C -15,6 C 53,1 km/h (7 Bft) 94,74 %
19.11.2018 21:48 -0,1 C 3,9 C 0,0 C 93 % 1012,3 hPa 0,0 l/m 33,4 km/h (5 Bft) O 94 0 min 0,000 mm 0,0 UV-I 0 W/m -1,1 C -14,5 C 49,9 km/h (6 Bft) 93,62 %
19.11.2018 21:50 -0,1 C 3,9 C 0,0 C 93 % 1012,2 hPa 0,0 l/m 31,1 km/h (5 Bft) O 90 0 min 0,000 mm 0,0 UV-I 0 W/m -1,1 C -13,9 C 43,5 km/h (6 Bft) 95,74 %
19.11.2018 21:52 -0,1 C 3,9 C 0,0 C 93 % 1012,2 hPa 0,0 l/m 28,9 km/h (5 Bft) O-NO 76 0 min 0,000 mm 0,0 UV-I 0 W/m -1,1 C -13,2 C 41,8 km/h (6 Bft) 94,34 %
19.11.2018 21:54 -0,1 C 3,9 C 0,0 C 93 % 1012,3 hPa 0,0 l/m 32,0 km/h (5 Bft) O-NO 62 0 min 0,000 mm 0,0 UV-I 0 W/m -1,1 C -14,1 C 49,9 km/h (6 Bft) 93,62 %
19.11.2018 21:56 0,0 C 3,9 C 0,0 C 93 % 1012,3 hPa 0,0 l/m 26,2 km/h (4 Bft) O 92 0 min 0,000 mm 0,0 UV-I 0 W/m -1,0 C -12,2 C 33,8 km/h (5 Bft) 96,00 %
19.11.2018 21:58 0,0 C 3,9 C 0,0 C 93 % 1012,4 hPa 0,0 l/m 26,3 km/h (4 Bft) O-NO 78 0 min 0,000 mm 0,0 UV-I 0 W/m -1,0 C -12,2 C 38,6 km/h (5 Bft) 97,37 %
19.11.2018 22:00 0,0 C 3,9 C 0,0 C 93 % 1012,3 hPa 0,0 l/m 25,6 km/h (4 Bft) O 90 0 min 0,026 mm 0,0 UV-I 0 W/m -1,0 C -11,9 C 41,8 km/h (6 Bft) 96,23 %
19.11.2018 22:02 0,0 C 3,9 C 0,0 C 93 % 1012,3 hPa 0,0 l/m 25,0 km/h (4 Bft) O-NO 70 0 min 0,000 mm 0,0 UV-I 0 W/m -1,0 C -11,7 C 38,6 km/h (5 Bft) 97,87 %
19.11.2018 22:04 0,0 C 3,9 C 0,0 C 93 % 1012,3 hPa 0,0 l/m 31,7 km/h (5 Bft) O-NO 67 0 min 0,000 mm 0,0 UV-I 0 W/m -1,0 C -13,9 C 49,9 km/h (6 Bft) 97,87 %
19.11.2018 22:06 0,0 C 3,9 C 0,0 C 93 % 1012,3 hPa 0,0 l/m 29,0 km/h (5 Bft) O-NO 76 0 min 0,000 mm 0,0 UV-I 0 W/m -1,0 C -13,1 C 46,7 km/h (6 Bft) 97,87 %
19.11.2018 22:08 0,1 C 3,9 C 0,0 C 93 % 1012,3 hPa 0,0 l/m 36,1 km/h (5 Bft) O 81 0 min 0,000 mm 0,0 UV-I 0 W/m -0,9 C -14,9 C 53,1 km/h (7 Bft) 95,74 %
19.11.2018 22:10 0,1 C 3,9 C 0,0 C 93 % 1012,5 hPa 0,0 l/m 27,3 km/h (4 Bft) O-NO 78 0 min 0,000 mm 0,0 UV-I 0 W/m -0,9 C -12,4 C 40,2 km/h (6 Bft) 96,00 %
19.11.2018 22:12 0,1 C 3,9 C 0,0 C 93 % 1012,5 hPa 0,0 l/m 29,4 km/h (5 Bft) O 80 0 min 0,000 mm 0,0 UV-I 0 W/m -0,9 C -13,1 C 43,5 km/h (6 Bft) 97,44 %
19.11.2018 22:14 0,1 C 3,9 C 0,0 C 93 % 1012,5 hPa 0,0 l/m 25,9 km/h (4 Bft) O-NO 69 0 min 0,000 mm 0,0 UV-I 0 W/m -0,9 C -11,9 C 37,0 km/h (5 Bft) 97,87 %
19.11.2018 22:16 0,1 C 3,9 C 0,0 C 93 % 1012,5 hPa 0,0 l/m 26,4 km/h (4 Bft) O 86 0 min 0,000 mm 0,0 UV-I 0 W/m -0,9 C -12,1 C 38,6 km/h (5 Bft) 98,00 %
19.11.2018 22:18 0,1 C 3,9 C 0,0 C 93 % 1012,5 hPa 0,0 l/m 25,8 km/h (4 Bft) O-SO 102 0 min 0,000 mm 0,0 UV-I 0 W/m -0,9 C -11,9 C 38,6 km/h (5 Bft) 100,00 %
19.11.2018 22:20 0,1 C 3,9 C 0,0 C 93 % 1012,4 hPa 0,0 l/m 33,5 km/h (5 Bft) O 92 0 min 0,000 mm 0,0 UV-I 0 W/m -0,9 C -14,3 C 53,1 km/h (7 Bft) 100,00 %
19.11.2018 22:22 0,2 C 3,9 C 0,0 C 93 % 1012,3 hPa 0,0 l/m 28,6 km/h (4 Bft) O 86 0 min 0,000 mm 0,0 UV-I 0 W/m -0,8 C -12,7 C 46,7 km/h (6 Bft) 100,00 %
19.11.2018 22:24 0,2 C 3,9 C 0,0 C 93 % 1012,3 hPa 0,0 l/m 24,7 km/h (4 Bft) O-NO 63 0 min 0,000 mm 0,0 UV-I 0 W/m -0,8 C -11,3 C 32,2 km/h (5 Bft) 100,00 %
19.11.2018 22:26 0,2 C 3,9 C 0,0 C 93 % 1012,3 hPa 0,0 l/m 28,7 km/h (4 Bft) O 96 0 min 0,000 mm 0,0 UV-I 0 W/m -0,8 C -12,7 C 40,2 km/h (6 Bft) 100,00 %
19.11.2018 22:28 0,2 C 3,9 C 0,0 C 93 % 1012,2 hPa 0,0 l/m 29,1 km/h (5 Bft) NO 53 0 min 0,000 mm 0,0 UV-I 0 W/m -0,8 C -12,8 C 41,8 km/h (6 Bft) 100,00 %
19.11.2018 22:30 0,2 C 3,9 C 0,0 C 93 % 1012,2 hPa 0,0 l/m 29,6 km/h (5 Bft) O-NO 65 0 min 0,000 mm 0,0 UV-I 0 W/m -0,8 C -13,0 C 43,5 km/h (6 Bft) 97,87 %
19.11.2018 22:32 0,2 C 3,9 C 0,0 C 93 % 1012,2 hPa 0,0 l/m 29,4 km/h (5 Bft) O-NO 64 0 min 0,000 mm 0,0 UV-I 0 W/m -0,8 C -12,9 C 43,5 km/h (6 Bft) 98,00 %
19.11.2018 22:34 0,2 C 3,9 C 0,0 C 93 % 1012,0 hPa 0,0 l/m 30,4 km/h (5 Bft) O 87 0 min 0,000 mm 0,0 UV-I 0 W/m -0,8 C -13,2 C 41,8 km/h (6 Bft) 97,87 %
19.11.2018 22:36 0,2 C 3,9 C 0,0 C 93 % 1012,0 hPa 0,0 l/m 28,0 km/h (4 Bft) O 85 0 min 0,000 mm 0,0 UV-I 0 W/m -0,8 C -12,5 C 38,6 km/h (5 Bft) 100,00 %
19.11.2018 22:39 0,2 C 3,9 C 0,0 C 93 % 1012,1 hPa 0,0 l/m 30,8 km/h (5 Bft) O-NO 59 0 min 0,000 mm 0,0 UV-I 0 W/m -0,8 C -13,4 C 45,1 km/h (6 Bft) 100,00 %
19.11.2018 22:40 0,2 C 3,9 C 0,0 C 93 % 1012,1 hPa 0,0 l/m 26,1 km/h (4 Bft) O-NO 58 0 min 0,000 mm 0,0 UV-I 0 W/m -0,8 C -11,8 C 33,8 km/h (5 Bft) 100,00 %
19.11.2018 22:42 0,2 C 3,9 C 0,0 C 93 % 1012,1 hPa 0,0 l/m 29,6 km/h (5 Bft) O-NO 76 0 min 0,000 mm 0,0 UV-I 0 W/m -0,8 C -13,0 C 41,8 km/h (6 Bft) 100,00 %
19.11.2018 22:44 0,2 C 3,9 C 0,0 C 93 % 1012,1 hPa 0,0 l/m 27,4 km/h (4 Bft) O 98 0 min 0,000 mm 0,0 UV-I 0 W/m -0,8 C -12,3 C 38,6 km/h (5 Bft) 100,00 %
19.11.2018 22:46 0,2 C 3,9 C 0,0 C 93 % 1012,1 hPa 0,0 l/m 32,6 km/h (5 Bft) NO 55 0 min 0,000 mm 0,0 UV-I 0 W/m -0,8 C -13,9 C 51,5 km/h (7 Bft) 97,87 %
19.11.2018 22:49 0,3 C 3,9 C 0,0 C 93 % 1012,2 hPa 0,0 l/m 30,5 km/h (5 Bft) O-SO 113 0 min 0,000 mm 0,0 UV-I 0 W/m -0,7 C -13,1 C 49,9 km/h (6 Bft) 97,18 %
19.11.2018 22:50 0,3 C 3,9 C 0,0 C 93 % 1012,2 hPa 0,0 l/m 24,1 km/h (4 Bft) O 99 0 min 0,000 mm 0,0 UV-I 0 W/m -0,7 C -11,0 C 33,8 km/h (5 Bft) 100,00 %
19.11.2018 22:52 0,2 C 3,9 C 0,0 C 93 % 1012,3 hPa 0,0 l/m 20,7 km/h (4 Bft) O 86 0 min 0,000 mm 0,0 UV-I 0 W/m -0,8 C -9,7 C 29,0 km/h (5 Bft) 97,87 %
19.11.2018 22:54 0,3 C 3,9 C 0,0 C 93 % 1012,2 hPa 0,0 l/m 26,5 km/h (4 Bft) O 88 0 min 0,000 mm 0,0 UV-I 0 W/m -0,7 C -11,9 C 35,4 km/h (5 Bft) 94,00 %
19.11.2018 22:56 0,3 C 3,9 C 0,0 C 93 % 1012,1 hPa 0,0 l/m 27,8 km/h (4 Bft) O-NO 63 0 min 0,000 mm 0,0 UV-I 0 W/m -0,7 C -12,3 C 38,6 km/h (5 Bft) 100,00 %
19.11.2018 22:59 0,3 C 3,9 C 0,0 C 93 % 1012,1 hPa 0,0 l/m 26,7 km/h (4 Bft) O 84 0 min 0,000 mm 0,0 UV-I 0 W/m -0,7 C -11,9 C 38,6 km/h (5 Bft) 97,14 %
19.11.2018 23:00 0,3 C 3,9 C 0,0 C 93 % 1012,1 hPa 0,0 l/m 22,2 km/h (4 Bft) O-NO 78 0 min 0,000 mm 0,0 UV-I 0 W/m -0,7 C -10,2 C 30,6 km/h (5 Bft) 93,33 %
19.11.2018 23:02 0,3 C 3,9 C 0,0 C 93 % 1012,0 hPa 0,0 l/m 30,0 km/h (5 Bft) O 84 0 min 0,025 mm 0,0 UV-I 0 W/m -0,7 C -13,0 C 41,8 km/h (6 Bft) 97,87 %
19.11.2018 23:04 0,3 C 3,9 C 0,0 C 93 % 1012,1 hPa 0,0 l/m 26,8 km/h (4 Bft) O-NO 66 0 min 0,000 mm 0,0 UV-I 0 W/m -0,7 C -12,0 C 35,4 km/h (5 Bft) 97,87 %
19.11.2018 23:06 0,3 C 3,9 C 0,0 C 93 % 1012,0 hPa 0,0 l/m 33,1 km/h (5 Bft) NO 49 0 min 0,000 mm 0,0 UV-I 0 W/m -0,7 C -13,9 C 49,9 km/h (6 Bft) 98,00 %
19.11.2018 23:09 0,3 C 3,9 C 0,0 C 93 % 1012,0 hPa 0,0 l/m 28,5 km/h (4 Bft) O 89 0 min 0,000 mm 0,0 UV-I 0 W/m -0,7 C -12,5 C 40,2 km/h (6 Bft) 100,00 %
19.11.2018 23:10 0,3 C 3,9 C 0,0 C 93 % 1012,0 hPa 0,0 l/m 27,8 km/h (4 Bft) O 96 0 min 0,000 mm 0,0 UV-I 0 W/m -0,7 C -12,3 C 37,0 km/h (5 Bft) 100,00 %
19.11.2018 23:12 0,3 C 3,9 C 0,0 C 93 % 1012,1 hPa 0,0 l/m 28,9 km/h (5 Bft) O 101 0 min 0,000 mm 0,0 UV-I 0 W/m -0,7 C -12,6 C 38,6 km/h (5 Bft) 100,00 %
19.11.2018 23:14 0,3 C 3,9 C 0,0 C 93 % 1012,1 hPa 0,0 l/m 29,3 km/h (5 Bft) O 93 0 min 0,000 mm 0,0 UV-I 0 W/m -0,7 C -12,8 C 41,8 km/h (6 Bft) 100,00 %
19.11.2018 23:16 0,3 C 3,9 C 0,0 C 93 % 1012,1 hPa 0,0 l/m 32,1 km/h (5 Bft) O-NO 71 0 min 0,000 mm 0,0 UV-I 0 W/m -0,7 C -13,6 C 51,5 km/h (7 Bft) 97,87 %
19.11.2018 23:19 0,3 C 3,9 C 0,0 C 93 % 1012,1 hPa 0,0 l/m 26,9 km/h (4 Bft) O-NO 78 0 min 0,000 mm 0,0 UV-I 0 W/m -0,7 C -12,0 C 41,8 km/h (6 Bft) 100,00 %
19.11.2018 23:20 0,3 C 3,9 C 0,0 C 93 % 1012,1 hPa 0,0 l/m 22,0 km/h (4 Bft) O 90 0 min 0,000 mm 0,0 UV-I 0 W/m -0,7 C -10,1 C 29,0 km/h (5 Bft) 100,00 %
19.11.2018 23:22 0,3 C 3,9 C 0,0 C 93 % 1012,1 hPa 0,0 l/m 30,4 km/h (5 Bft) O 93 0 min 0,000 mm 0,0 UV-I 0 W/m -0,7 C -13,1 C 48,3 km/h (6 Bft) 97,37 %
19.11.2018 23:24 0,3 C 3,9 C 0,0 C 93 % 1012,0 hPa 0,0 l/m 30,4 km/h (5 Bft) O 84 0 min 0,000 mm 0,0 UV-I 0 W/m -0,7 C -13,1 C 45,1 km/h (6 Bft) 100,00 %
19.11.2018 23:26 0,3 C 3,9 C 0,0 C 93 % 1012,1 hPa 0,0 l/m 28,5 km/h (4 Bft) O 82 0 min 0,000 mm 0,0 UV-I 0 W/m -0,7 C -12,5 C 40,2 km/h (6 Bft) 100,00 %
19.11.2018 23:28 0,3 C 3,9 C 0,0 C 93 % 1012,1 hPa 0,0 l/m 25,8 km/h (4 Bft) O 88 0 min 0,000 mm 0,0 UV-I 0 W/m -0,7 C -11,6 C 40,2 km/h (6 Bft) 97,92 %
19.11.2018 23:30 0,3 C 3,9 C 0,0 C 93 % 1012,1 hPa 0,0 l/m 24,0 km/h (4 Bft) O 88 0 min 0,000 mm 0,0 UV-I 0 W/m -0,7 C -10,9 C 33,8 km/h (5 Bft) 98,00 %
19.11.2018 23:32 0,3 C 3,9 C 0,0 C 93 % 1012,1 hPa 0,0 l/m 31,4 km/h (5 Bft) O 90 0 min 0,000 mm 0,0 UV-I 0 W/m -0,7 C -13,4 C 46,7 km/h (6 Bft) 100,00 %
19.11.2018 23:34 0,3 C 3,9 C 0,0 C 93 % 1012,2 hPa 0,0 l/m 24,2 km/h (4 Bft) O 84 0 min 0,000 mm 0,0 UV-I 0 W/m -0,7 C -11,0 C 38,6 km/h (5 Bft) 100,00 %
19.11.2018 23:36 0,3 C 3,9 C 0,0 C 93 % 1012,3 hPa 0,0 l/m 25,7 km/h (4 Bft) O-SO 113 0 min 0,000 mm 0,0 UV-I 0 W/m -0,7 C -11,6 C 33,8 km/h (5 Bft) 97,87 %
19.11.2018 23:38 0,3 C 3,9 C 0,0 C 93 % 1012,2 hPa 0,0 l/m 29,8 km/h (5 Bft) O 79 0 min 0,000 mm 0,0 UV-I 0 W/m -0,7 C -12,9 C 41,8 km/h (6 Bft) 100,00 %
19.11.2018 23:40 0,3 C 3,9 C 0,0 C 93 % 1012,2 hPa 0,0 l/m 26,8 km/h (4 Bft) O-NO 78 0 min 0,000 mm 0,0 UV-I 0 W/m -0,7 C -12,0 C 40,2 km/h (6 Bft) 98,11 %
19.11.2018 23:42 0,3 C 3,9 C 0,0 C 93 % 1012,2 hPa 0,0 l/m 22,6 km/h (4 Bft) O 97 0 min 0,000 mm 0,0 UV-I 0 W/m -0,7 C -10,4 C 30,6 km/h (5 Bft) 100,00 %
19.11.2018 23:44 0,3 C 3,9 C 0,0 C 93 % 1012,2 hPa 0,0 l/m 25,8 km/h (4 Bft) O 84 0 min 0,000 mm 0,0 UV-I 0 W/m -0,7 C -11,6 C 35,4 km/h (5 Bft) 97,87 %
19.11.2018 23:46 0,3 C 3,9 C 0,0 C 93 % 1012,0 hPa 0,0 l/m 24,6 km/h (4 Bft) O 79 0 min 0,000 mm 0,0 UV-I 0 W/m -0,7 C -11,2 C 32,2 km/h (5 Bft) 95,74 %
19.11.2018 23:48 0,3 C 3,9 C 0,0 C 93 % 1011,9 hPa 0,0 l/m 26,9 km/h (4 Bft) O-NO 61 0 min 0,000 mm 0,0 UV-I 0 W/m -0,7 C -12,0 C 40,2 km/h (6 Bft) 97,87 %
19.11.2018 23:50 0,3 C 3,9 C 0,0 C 93 % 1011,8 hPa 0,0 l/m 26,6 km/h (4 Bft) O 83 0 min 0,000 mm 0,0 UV-I 0 W/m -0,7 C -11,9 C 37,0 km/h (5 Bft) 97,87 %
19.11.2018 23:52 0,3 C 3,9 C 0,0 C 93 % 1011,7 hPa 0,0 l/m 26,8 km/h (4 Bft) O 95 0 min 0,000 mm 0,0 UV-I 0 W/m -0,7 C -12,0 C 41,8 km/h (6 Bft) 95,74 %
19.11.2018 23:54 0,3 C 3,9 C 0,0 C 93 % 1011,6 hPa 0,0 l/m 33,7 km/h (5 Bft) O 101 0 min 0,000 mm 0,0 UV-I 0 W/m -0,7 C -14,0 C 45,1 km/h (6 Bft) 93,62 %
19.11.2018 23:56 0,3 C 3,9 C 0,0 C 93 % 1011,6 hPa 0,0 l/m 30,9 km/h (5 Bft) O-NO 59 0 min 0,000 mm 0,0 UV-I 0 W/m -0,7 C -13,3 C 41,8 km/h (6 Bft) 95,74 %
19.11.2018 23:58 0,3 C 3,9 C 0,0 C 93 % 1011,6 hPa 0,0 l/m 29,3 km/h (5 Bft) O 96 0 min 0,000 mm 0,0 UV-I 0 W/m -0,7 C -12,8 C 40,2 km/h (6 Bft) 98,11 %
_ Min-Zeit 07:08 15:46 07:02 14:24 23:54 - 00:16 - - - - - - 07:08 19:24 00:00 17:00
Minimum _ -1,9 C 3,9 C -3,3 C 90 % 1011,6 hPa - 2,3 km/h (1 Bft) - - - - - - -2,7 C -16,3 C 3,2 km/h (1 Bft) 86,96 %
_ Max-Zeit 22:44 00:00 12:54 01:06 00:00 00:10 19:24 - - 09:26 10:00 00:00 09:28 01:06 00:00 20:52 00:16
Maximum _ 0,3 C 5,0 C 1,1 C 96 % 1017,9 hPa 0,2 l/m 38,8 km/h
O-SO (5 Bft)
- - 2 min 0,051 mm 0,0 UV-I 164 W/m -0,6 C 0,1 C 57,9 km/h
O (7 Bft)
100,00 %
Durchschnitt _ -0,5 C 4,3 C -0,3 C 93 % 1014,2 hPa #1,0 l/m 18,9 km/h (3 Bft) O-NO - #10 min. #0,508 mm 0,0 UV-I 77 W/m -1,4 C -8,6 C 27,3 km/h (4 Bft) 97,16 %